PWSweather.com
Personal Weather Stations
Station Observations
ALLANTONFL
Allanton, Panama City, FL 32404

AllantonPanama City, FL 32404

Lat: 30.036, Lon: -85.48284060000003

Elevation: 11

Station Type: Acurite 5in1

High Low Average
Temperature 82.4°F28.0°F 67.8°F19.9°F 73.6°F23.1°F
Dew Point 72.6°F22.6°F 66.9°F19.4°F 69.6°F20.9°F
Winds 14.0 mph -22.5 mph - Calm Calm 4.8 mph 7.7 mph
Wind Gusts 14.0 mph22.5 mph 2.2 mph3.5 mph 7.7 mph12.4 mph
Humidity 98% 68% 88%
Pressure 30.11 in1019.60 in 30.02 in1016.60 in -
Precipitation 0.00 in0.00 in - -
Hour Temp Dew Point Humidity Winds Wind Gusts Pressure Precip Precip Rate Daily Precip Total
12:00 AM 69.3°F20.7°C 67.8°F19.9°C 95% Calm Calm 3.7 mph6.0 kmh 30.11 in1019.6 mb 0.00 in0.0 mm 0.00 in0.0 mm 0.00 in0.0 mm
12:01 AM 69.3°F20.7°C 67.8°F19.9°C 95% 2.7 mph ESE4.3 kmh ESE 3.2 mph5.1 kmh 30.11 in1019.6 mb 0.00 in0.0 mm 0.00 in0.0 mm 0.00 in0.0 mm
12:02 AM 69.3°F20.7°C 67.8°F19.9°C 95% 2.7 mph ESE4.3 kmh ESE 3.7 mph6.0 kmh 30.11 in1019.6 mb 0.00 in0.0 mm 0.00 in0.0 mm 0.00 in0.0 mm
12:03 AM 69.3°F20.7°C 67.8°F19.9°C 95% 2.2 mph ESE3.5 kmh ESE 3.7 mph6.0 kmh 30.11 in1019.6 mb 0.00 in0.0 mm 0.00 in0.0 mm 0.00 in0.0 mm
12:04 AM 69.3°F20.7°C 67.8°F19.9°C 95% Calm Calm 3.7 mph6.0 kmh 30.11 in1019.6 mb 0.00 in0.0 mm 0.00 in0.0 mm 0.00 in0.0 mm
12:05 AM 69.3°F20.7°C 67.8°F19.9°C 95% Calm Calm 3.7 mph6.0 kmh 30.11 in1019.6 mb 0.00 in0.0 mm 0.00 in0.0 mm 0.00 in0.0 mm
12:06 AM 69.3°F20.7°C 67.8°F19.9°C 95% 3.7 mph ESE6.0 kmh ESE 3.7 mph6.0 kmh 30.11 in1019.6 mb 0.00 in0.0 mm 0.00 in0.0 mm 0.00 in0.0 mm
12:07 AM 69.3°F20.7°C 67.8°F19.9°C 95% 2.7 mph ESE4.3 kmh ESE 4.2 mph6.8 kmh 30.11 in1019.6 mb 0.00 in0.0 mm 0.00 in0.0 mm 0.00 in0.0 mm
12:08 AM 69.3°F20.7°C 68.1°F20.1°C 96% 1.7 mph ESE2.7 kmh ESE 4.2 mph6.8 kmh 30.11 in1019.6 mb 0.00 in0.0 mm 0.00 in0.0 mm 0.00 in0.0 mm
12:09 AM 69.3°F20.7°C 68.1°F20.1°C 96% 1.7 mph SE2.7 kmh SE 4.2 mph6.8 kmh 30.11 in1019.6 mb 0.00 in0.0 mm 0.00 in0.0 mm 0.00 in0.0 mm
12:10 AM 69.1°F20.6°C 67.9°F19.9°C 96% 2.7 mph SE4.3 kmh SE 4.2 mph6.8 kmh 30.11 in1019.6 mb 0.00 in0.0 mm 0.00 in0.0 mm 0.00 in0.0 mm
12:11 AM 69.1°F20.6°C 67.9°F19.9°C 96% 2.2 mph ESE3.5 kmh ESE 4.2 mph6.8 kmh 30.11 in1019.6 mb 0.00 in0.0 mm 0.00 in0.0 mm 0.00 in0.0 mm
12:12 AM 69.1°F20.6°C 67.9°F19.9°C 96% 3.2 mph S5.1 kmh S 4.2 mph6.8 kmh 30.11 in1019.6 mb 0.00 in0.0 mm 0.00 in0.0 mm 0.00 in0.0 mm
12:13 AM 69.1°F20.6°C 67.9°F19.9°C 96% 3.7 mph ESE6.0 kmh ESE 4.2 mph6.8 kmh 30.11 in1019.6 mb 0.00 in0.0 mm 0.00 in0.0 mm 0.00 in0.0 mm
12:14 AM 69.1°F20.6°C 67.9°F19.9°C 96% 2.7 mph ESE4.3 kmh ESE 4.2 mph6.8 kmh 30.11 in1019.6 mb 0.00 in0.0 mm 0.00 in0.0 mm 0.00 in0.0 mm
12:15 AM 69.1°F20.6°C 67.9°F19.9°C 96% 2.7 mph S4.3 kmh S 4.2 mph6.8 kmh 30.11 in1019.6 mb 0.00 in0.0 mm 0.00 in0.0 mm 0.00 in0.0 mm
12:16 AM 69.1°F20.6°C 67.9°F19.9°C 96% 2.7 mph SE4.3 kmh SE 4.2 mph6.8 kmh 30.11 in1019.6 mb 0.00 in0.0 mm 0.00 in0.0 mm 0.00 in0.0 mm
12:17 AM 69.1°F20.6°C 67.9°F19.9°C 96% Calm Calm 3.7 mph6.0 kmh 30.11 in1019.6 mb 0.00 in0.0 mm 0.00 in0.0 mm 0.00 in0.0 mm
12:18 AM 69.1°F20.6°C 67.9°F19.9°C 96% 2.7 mph ESE4.3 kmh ESE 3.7 mph6.0 kmh 30.11 in1019.6 mb 0.00 in0.0 mm 0.00 in0.0 mm 0.00 in0.0 mm
12:19 AM 69.1°F20.6°C 67.9°F19.9°C 96% Calm Calm 3.7 mph6.0 kmh 30.11 in1019.6 mb 0.00 in0.0 mm 0.00 in0.0 mm 0.00 in0.0 mm
12:20 AM 69.1°F20.6°C 67.9°F19.9°C 96% 1.7 mph ESE2.7 kmh ESE 3.7 mph6.0 kmh 30.11 in1019.6 mb 0.00 in0.0 mm 0.00 in0.0 mm 0.00 in0.0 mm
12:21 AM 69.1°F20.6°C 67.9°F19.9°C 96% 2.7 mph ESE4.3 kmh ESE 3.7 mph6.0 kmh 30.11 in1019.6 mb 0.00 in0.0 mm 0.00 in0.0 mm 0.00 in0.0 mm
12:22 AM 69.1°F20.6°C 67.9°F19.9°C 96% 2.2 mph ESE3.5 kmh ESE 3.7 mph6.0 kmh 30.11 in1019.6 mb 0.00 in0.0 mm 0.00 in0.0 mm 0.00 in0.0 mm
12:23 AM 69.1°F20.6°C 67.9°F19.9°C 96% 3.7 mph ESE6.0 kmh ESE 3.7 mph6.0 kmh 30.11 in1019.6 mb 0.00 in0.0 mm 0.00 in0.0 mm 0.00 in0.0 mm
12:24 AM 69.1°F20.6°C 67.9°F19.9°C 96% 2.2 mph S3.5 kmh S 3.7 mph6.0 kmh 30.11 in1019.6 mb 0.00 in0.0 mm 0.00 in0.0 mm 0.00 in0.0 mm
12:25 AM 69.1°F20.6°C 67.9°F19.9°C 96% Calm Calm 3.7 mph6.0 kmh 30.11 in1019.6 mb 0.00 in0.0 mm 0.00 in0.0 mm 0.00 in0.0 mm
12:26 AM 69.1°F20.6°C 67.9°F19.9°C 96% 3.7 mph SE6.0 kmh SE 3.7 mph6.0 kmh 30.11 in1019.6 mb 0.00 in0.0 mm 0.00 in0.0 mm 0.00 in0.0 mm
12:27 AM 69.1°F20.6°C 67.9°F19.9°C 96% 2.7 mph ESE4.3 kmh ESE 4.2 mph6.8 kmh 30.11 in1019.6 mb 0.00 in0.0 mm 0.00 in0.0 mm 0.00 in0.0 mm
12:28 AM 68.9°F20.5°C 67.7°F19.8°C 96% 4.7 mph SSE7.6 kmh SSE 4.7 mph7.6 kmh 30.11 in1019.6 mb 0.00 in0.0 mm 0.00 in0.0 mm 0.00 in0.0 mm
12:29 AM 68.9°F20.5°C 67.7°F19.8°C 96% 4.2 mph ESE6.8 kmh ESE 4.7 mph7.6 kmh 30.11 in1019.6 mb 0.00 in0.0 mm 0.00 in0.0 mm 0.00 in0.0 mm
12:30 AM 68.9°F20.5°C 67.7°F19.8°C 96% 4.7 mph ESE7.6 kmh ESE 5.3 mph8.5 kmh 30.11 in1019.6 mb 0.00 in0.0 mm 0.00 in0.0 mm 0.00 in0.0 mm
12:31 AM 68.9°F20.5°C 67.7°F19.8°C 96% 3.2 mph ESE5.1 kmh ESE 5.3 mph8.5 kmh 30.11 in1019.6 mb 0.00 in0.0 mm 0.00 in0.0 mm 0.00 in0.0 mm
12:32 AM 68.9°F20.5°C 67.7°F19.8°C 96% 2.7 mph ESE4.3 kmh ESE 5.3 mph8.5 kmh 30.11 in1019.6 mb 0.00 in0.0 mm 0.00 in0.0 mm 0.00 in0.0 mm
12:33 AM 68.9°F20.5°C 67.7°F19.8°C 96% 4.2 mph ESE6.8 kmh ESE 5.3 mph8.5 kmh 30.11 in1019.6 mb 0.00 in0.0 mm 0.00 in0.0 mm 0.00 in0.0 mm
12:34 AM 68.9°F20.5°C 67.7°F19.8°C 96% 2.7 mph SE4.3 kmh SE 5.3 mph8.5 kmh 30.11 in1019.6 mb 0.00 in0.0 mm 0.00 in0.0 mm 0.00 in0.0 mm
12:35 AM 68.9°F20.5°C 67.7°F19.8°C 96% Calm Calm 5.3 mph8.5 kmh 30.11 in1019.6 mb 0.00 in0.0 mm 0.00 in0.0 mm 0.00 in0.0 mm
12:36 AM 68.9°F20.5°C 67.7°F19.8°C 96% Calm Calm 5.3 mph8.5 kmh 30.11 in1019.6 mb 0.00 in0.0 mm 0.00 in0.0 mm 0.00 in0.0 mm
12:37 AM 68.9°F20.5°C 67.7°F19.8°C 96% 2.7 mph SE4.3 kmh SE 5.3 mph8.5 kmh 30.11 in1019.6 mb 0.00 in0.0 mm 0.00 in0.0 mm 0.00 in0.0 mm
12:38 AM 68.9°F20.5°C 67.7°F19.8°C 96% 1.7 mph SSE2.7 kmh SSE 5.3 mph8.5 kmh 30.11 in1019.6 mb 0.00 in0.0 mm 0.00 in0.0 mm 0.00 in0.0 mm
12:39 AM 68.9°F20.5°C 67.7°F19.8°C 96% 2.2 mph SE3.5 kmh SE 5.3 mph8.5 kmh 30.11 in1019.6 mb 0.00 in0.0 mm 0.00 in0.0 mm 0.00 in0.0 mm
12:40 AM 68.9°F20.5°C 67.7°F19.8°C 96% 2.7 mph ESE4.3 kmh ESE 4.7 mph7.6 kmh 30.11 in1019.6 mb 0.00 in0.0 mm 0.00 in0.0 mm 0.00 in0.0 mm
12:41 AM 68.9°F20.5°C 67.7°F19.8°C 96% Calm Calm 4.7 mph7.6 kmh 30.11 in1019.6 mb 0.00 in0.0 mm 0.00 in0.0 mm 0.00 in0.0 mm
12:42 AM 68.9°F20.5°C 67.7°F19.8°C 96% 2.2 mph ESE3.5 kmh ESE 4.7 mph7.6 kmh 30.11 in1019.6 mb 0.00 in0.0 mm 0.00 in0.0 mm 0.00 in0.0 mm
12:43 AM 68.9°F20.5°C 67.7°F19.8°C 96% 2.7 mph ESE4.3 kmh ESE 4.7 mph7.6 kmh 30.11 in1019.6 mb 0.00 in0.0 mm 0.00 in0.0 mm 0.00 in0.0 mm
12:44 AM 68.9°F20.5°C 67.7°F19.8°C 96% 3.2 mph ESE5.1 kmh ESE 4.7 mph7.6 kmh 30.11 in1019.6 mb 0.00 in0.0 mm 0.00 in0.0 mm 0.00 in0.0 mm
12:45 AM 68.9°F20.5°C 67.7°F19.8°C 96% 3.2 mph SSE5.1 kmh SSE 4.7 mph7.6 kmh 30.11 in1019.6 mb 0.00 in0.0 mm 0.00 in0.0 mm 0.00 in0.0 mm
12:46 AM 68.9°F20.5°C 68.0°F20.0°C 97% 4.7 mph SSE7.6 kmh SSE 4.7 mph7.6 kmh 30.11 in1019.6 mb 0.00 in0.0 mm 0.00 in0.0 mm 0.00 in0.0 mm
12:47 AM 68.9°F20.5°C 68.0°F20.0°C 97% 6.8 mph SE10.9 kmh SE 6.8 mph10.9 kmh 30.11 in1019.6 mb 0.00 in0.0 mm 0.00 in0.0 mm 0.00 in0.0 mm
12:48 AM 68.7°F20.4°C 67.8°F19.9°C 97% 5.3 mph ESE8.5 kmh ESE 6.8 mph10.9 kmh 30.11 in1019.6 mb 0.00 in0.0 mm 0.00 in0.0 mm 0.00 in0.0 mm
12:49 AM 68.7°F20.4°C 67.8°F19.9°C 97% 2.2 mph ESE3.5 kmh ESE 6.8 mph10.9 kmh 30.11 in1019.6 mb 0.00 in0.0 mm 0.00 in0.0 mm 0.00 in0.0 mm
12:50 AM 68.7°F20.4°C 67.8°F19.9°C 97% 2.7 mph ESE4.3 kmh ESE 6.8 mph10.9 kmh 30.11 in1019.6 mb 0.00 in0.0 mm 0.00 in0.0 mm 0.00 in0.0 mm
12:51 AM 68.7°F20.4°C 67.8°F19.9°C 97% 1.1 mph ESE1.8 kmh ESE 6.8 mph10.9 kmh 30.11 in1019.6 mb 0.00 in0.0 mm 0.00 in0.0 mm 0.00 in0.0 mm
12:52 AM 68.7°F20.4°C 67.8°F19.9°C 97% 3.7 mph SSE6.0 kmh SSE 6.8 mph10.9 kmh 30.11 in1019.6 mb 0.00 in0.0 mm 0.00 in0.0 mm 0.00 in0.0 mm
12:53 AM 68.7°F20.4°C 67.8°F19.9°C 97% 2.7 mph ESE4.3 kmh ESE 6.8 mph10.9 kmh 30.11 in1019.6 mb 0.00 in0.0 mm 0.00 in0.0 mm 0.00 in0.0 mm
12:54 AM 68.7°F20.4°C 67.8°F19.9°C 97% 2.2 mph ESE3.5 kmh ESE 6.8 mph10.9 kmh 30.11 in1019.6 mb 0.00 in0.0 mm 0.00 in0.0 mm 0.00 in0.0 mm
12:55 AM 68.7°F20.4°C 67.8°F19.9°C 97% 1.7 mph ESE2.7 kmh ESE 6.8 mph10.9 kmh 30.11 in1019.6 mb 0.00 in0.0 mm 0.00 in0.0 mm 0.00 in0.0 mm
12:56 AM 68.7°F20.4°C 67.8°F19.9°C 97% 1.7 mph SE2.7 kmh SE 6.8 mph10.9 kmh 30.11 in1019.6 mb 0.00 in0.0 mm 0.00 in0.0 mm 0.00 in0.0 mm
12:57 AM 68.7°F20.4°C 67.8°F19.9°C 97% 4.2 mph SE6.8 kmh SE 6.8 mph10.9 kmh 30.11 in1019.6 mb 0.00 in0.0 mm 0.00 in0.0 mm 0.00 in0.0 mm
12:58 AM 68.7°F20.4°C 67.8°F19.9°C 97% 4.2 mph ESE6.8 kmh ESE 4.2 mph6.8 kmh 30.11 in1019.6 mb 0.00 in0.0 mm 0.00 in0.0 mm 0.00 in0.0 mm
12:59 AM 68.7°F20.4°C 67.8°F19.9°C 97% 3.2 mph ESE5.1 kmh ESE 4.2 mph6.8 kmh 30.11 in1019.6 mb 0.00 in0.0 mm 0.00 in0.0 mm 0.00 in0.0 mm
01:00 AM 68.7°F20.4°C 67.8°F19.9°C 97% 3.2 mph SE5.1 kmh SE 4.2 mph6.8 kmh 30.11 in1019.6 mb 0.00 in0.0 mm 0.00 in0.0 mm 0.00 in0.0 mm
01:01 AM 68.7°F20.4°C 67.8°F19.9°C 97% 2.2 mph SSE3.5 kmh SSE 4.2 mph6.8 kmh 30.11 in1019.6 mb 0.00 in0.0 mm 0.00 in0.0 mm 0.00 in0.0 mm
01:02 AM 68.7°F20.4°C 67.8°F19.9°C 97% 3.7 mph SE6.0 kmh SE 4.2 mph6.8 kmh 30.11 in1019.6 mb 0.00 in0.0 mm 0.00 in0.0 mm 0.00 in0.0 mm
01:03 AM 68.7°F20.4°C 67.8°F19.9°C 97% 3.2 mph SSE5.1 kmh SSE 4.2 mph6.8 kmh 30.11 in1019.6 mb 0.00 in0.0 mm 0.00 in0.0 mm 0.00 in0.0 mm
01:04 AM 68.7°F20.4°C 67.8°F19.9°C 97% 3.2 mph ESE5.1 kmh ESE 4.2 mph6.8 kmh 30.11 in1019.6 mb 0.00 in0.0 mm 0.00 in0.0 mm 0.00 in0.0 mm
01:05 AM 68.7°F20.4°C 67.8°F19.9°C 97% 1.1 mph SSE1.8 kmh SSE 4.2 mph6.8 kmh 30.10 in1019.3 mb 0.00 in0.0 mm 0.00 in0.0 mm 0.00 in0.0 mm
01:06 AM 68.7°F20.4°C 67.8°F19.9°C 97% Calm Calm 4.2 mph6.8 kmh 30.10 in1019.3 mb 0.00 in0.0 mm 0.00 in0.0 mm 0.00 in0.0 mm
01:07 AM 68.7°F20.4°C 67.8°F19.9°C 97% Calm Calm 4.2 mph6.8 kmh 30.10 in1019.3 mb 0.00 in0.0 mm 0.00 in0.0 mm 0.00 in0.0 mm
01:08 AM 68.7°F20.4°C 67.8°F19.9°C 97% Calm Calm 4.2 mph6.8 kmh 30.10 in1019.3 mb 0.00 in0.0 mm 0.00 in0.0 mm 0.00 in0.0 mm
01:09 AM 68.7°F20.4°C 67.8°F19.9°C 97% Calm Calm 4.2 mph6.8 kmh 30.10 in1019.3 mb 0.00 in0.0 mm 0.00 in0.0 mm 0.00 in0.0 mm
01:10 AM 68.7°F20.4°C 67.8°F19.9°C 97% 2.2 mph S3.5 kmh S 4.2 mph6.8 kmh 30.10 in1019.3 mb 0.00 in0.0 mm 0.00 in0.0 mm 0.00 in0.0 mm
01:11 AM 68.7°F20.4°C 67.8°F19.9°C 97% 2.7 mph SSE4.3 kmh SSE 4.2 mph6.8 kmh 30.10 in1019.3 mb 0.00 in0.0 mm 0.00 in0.0 mm 0.00 in0.0 mm
01:12 AM 68.7°F20.4°C 67.8°F19.9°C 97% 2.7 mph SSE4.3 kmh SSE 4.2 mph6.8 kmh 30.10 in1019.3 mb 0.00 in0.0 mm 0.00 in0.0 mm 0.00 in0.0 mm
01:13 AM 68.7°F20.4°C 67.8°F19.9°C 97% 2.2 mph ESE3.5 kmh ESE 4.2 mph6.8 kmh 30.10 in1019.3 mb 0.00 in0.0 mm 0.00 in0.0 mm 0.00 in0.0 mm
01:14 AM 68.7°F20.4°C 67.8°F19.9°C 97% 2.2 mph ESE3.5 kmh ESE 3.2 mph5.1 kmh 30.10 in1019.3 mb 0.00 in0.0 mm 0.00 in0.0 mm 0.00 in0.0 mm
01:15 AM 68.7°F20.4°C 67.8°F19.9°C 97% Calm Calm 3.2 mph5.1 kmh 30.10 in1019.3 mb 0.00 in0.0 mm 0.00 in0.0 mm 0.00 in0.0 mm
01:16 AM 68.7°F20.4°C 67.8°F19.9°C 97% Calm Calm 3.2 mph5.1 kmh 30.10 in1019.3 mb 0.00 in0.0 mm 0.00 in0.0 mm 0.00 in0.0 mm
01:17 AM 68.7°F20.4°C 67.8°F19.9°C 97% 2.7 mph ESE4.3 kmh ESE 3.2 mph5.1 kmh 30.10 in1019.3 mb 0.00 in0.0 mm 0.00 in0.0 mm 0.00 in0.0 mm
01:18 AM 68.7°F20.4°C 67.8°F19.9°C 97% 2.7 mph ESE4.3 kmh ESE 3.2 mph5.1 kmh 30.10 in1019.3 mb 0.00 in0.0 mm 0.00 in0.0 mm 0.00 in0.0 mm
01:19 AM 68.7°F20.4°C 67.8°F19.9°C 97% 1.7 mph ESE2.7 kmh ESE 3.2 mph5.1 kmh 30.10 in1019.3 mb 0.00 in0.0 mm 0.00 in0.0 mm 0.00 in0.0 mm
01:20 AM 68.7°F20.4°C 67.8°F19.9°C 97% Calm Calm 3.2 mph5.1 kmh 30.10 in1019.3 mb 0.00 in0.0 mm 0.00 in0.0 mm 0.00 in0.0 mm
01:21 AM 68.7°F20.4°C 67.8°F19.9°C 97% 2.7 mph ESE4.3 kmh ESE 3.2 mph5.1 kmh 30.10 in1019.3 mb 0.00 in0.0 mm 0.00 in0.0 mm 0.00 in0.0 mm
01:22 AM 68.7°F20.4°C 67.8°F19.9°C 97% 1.7 mph ESE2.7 kmh ESE 2.7 mph4.3 kmh 30.10 in1019.3 mb 0.00 in0.0 mm 0.00 in0.0 mm 0.00 in0.0 mm
01:23 AM 68.7°F20.4°C 67.8°F19.9°C 97% 3.2 mph ESE5.1 kmh ESE 3.2 mph5.1 kmh 30.10 in1019.3 mb 0.00 in0.0 mm 0.00 in0.0 mm 0.00 in0.0 mm
01:24 AM 68.7°F20.4°C 67.8°F19.9°C 97% 1.1 mph ESE1.8 kmh ESE 3.2 mph5.1 kmh 30.10 in1019.3 mb 0.00 in0.0 mm 0.00 in0.0 mm 0.00 in0.0 mm
01:25 AM 68.7°F20.4°C 67.8°F19.9°C 97% 3.7 mph ESE6.0 kmh ESE 4.2 mph6.8 kmh 30.10 in1019.3 mb 0.00 in0.0 mm 0.00 in0.0 mm 0.00 in0.0 mm
01:26 AM 68.7°F20.4°C 67.8°F19.9°C 97% 3.2 mph ESE5.1 kmh ESE 4.2 mph6.8 kmh 30.10 in1019.3 mb 0.00 in0.0 mm 0.00 in0.0 mm 0.00 in0.0 mm
01:27 AM 68.7°F20.4°C 67.8°F19.9°C 97% 2.7 mph SSE4.3 kmh SSE 4.2 mph6.8 kmh 30.10 in1019.3 mb 0.00 in0.0 mm 0.00 in0.0 mm 0.00 in0.0 mm
01:28 AM 68.7°F20.4°C 67.8°F19.9°C 97% 1.7 mph ESE2.7 kmh ESE 4.2 mph6.8 kmh 30.10 in1019.3 mb 0.00 in0.0 mm 0.00 in0.0 mm 0.00 in0.0 mm
01:29 AM 68.7°F20.4°C 67.8°F19.9°C 97% 2.2 mph ESE3.5 kmh ESE 4.2 mph6.8 kmh 30.10 in1019.3 mb 0.00 in0.0 mm 0.00 in0.0 mm 0.00 in0.0 mm
01:30 AM 68.7°F20.4°C 67.8°F19.9°C 97% 2.2 mph SSE3.5 kmh SSE 4.2 mph6.8 kmh 30.10 in1019.3 mb 0.00 in0.0 mm 0.00 in0.0 mm 0.00 in0.0 mm
01:31 AM 68.7°F20.4°C 67.8°F19.9°C 97% 2.7 mph ESE4.3 kmh ESE 4.2 mph6.8 kmh 30.10 in1019.3 mb 0.00 in0.0 mm 0.00 in0.0 mm 0.00 in0.0 mm
01:32 AM 68.7°F20.4°C 67.8°F19.9°C 97% 2.7 mph ESE4.3 kmh ESE 4.2 mph6.8 kmh 30.10 in1019.3 mb 0.00 in0.0 mm 0.00 in0.0 mm 0.00 in0.0 mm
01:33 AM 68.7°F20.4°C 67.8°F19.9°C 97% 3.7 mph ESE6.0 kmh ESE 4.7 mph7.6 kmh 30.10 in1019.3 mb 0.00 in0.0 mm 0.00 in0.0 mm 0.00 in0.0 mm
01:34 AM 68.7°F20.4°C 68.1°F20.1°C 98% 2.7 mph ESE4.3 kmh ESE 4.7 mph7.6 kmh 30.10 in1019.3 mb 0.00 in0.0 mm 0.00 in0.0 mm 0.00 in0.0 mm
01:35 AM 68.7°F20.4°C 68.1°F20.1°C 98% 3.2 mph ESE5.1 kmh ESE 4.7 mph7.6 kmh 30.10 in1019.3 mb 0.00 in0.0 mm 0.00 in0.0 mm 0.00 in0.0 mm
01:36 AM 68.7°F20.4°C 68.1°F20.1°C 98% 3.7 mph ESE6.0 kmh ESE 4.7 mph7.6 kmh 30.10 in1019.3 mb 0.00 in0.0 mm 0.00 in0.0 mm 0.00 in0.0 mm
01:37 AM 68.7°F20.4°C 68.1°F20.1°C 98% 2.7 mph ESE4.3 kmh ESE 4.7 mph7.6 kmh 30.10 in1019.3 mb 0.00 in0.0 mm 0.00 in0.0 mm 0.00 in0.0 mm
01:38 AM 68.7°F20.4°C 68.1°F20.1°C 98% 4.7 mph ESE7.6 kmh ESE 4.7 mph7.6 kmh 30.10 in1019.3 mb 0.00 in0.0 mm 0.00 in0.0 mm 0.00 in0.0 mm
01:39 AM 68.7°F20.4°C 68.1°F20.1°C 98% 2.2 mph ESE3.5 kmh ESE 4.7 mph7.6 kmh 30.10 in1019.3 mb 0.00 in0.0 mm 0.00 in0.0 mm 0.00 in0.0 mm
01:40 AM 68.7°F20.4°C 68.1°F20.1°C 98% Calm Calm 4.7 mph7.6 kmh 30.10 in1019.3 mb 0.00 in0.0 mm 0.00 in0.0 mm 0.00 in0.0 mm
01:41 AM 68.7°F20.4°C 68.1°F20.1°C 98% 3.2 mph SSE5.1 kmh SSE 4.7 mph7.6 kmh 30.09 in1019.0 mb 0.00 in0.0 mm 0.00 in0.0 mm 0.00 in0.0 mm
01:42 AM 68.7°F20.4°C 68.1°F20.1°C 98% 1.1 mph S1.8 kmh S 4.7 mph7.6 kmh 30.09 in1019.0 mb 0.00 in0.0 mm 0.00 in0.0 mm 0.00 in0.0 mm
01:43 AM 68.7°F20.4°C 68.1°F20.1°C 98% Calm Calm 4.7 mph7.6 kmh 30.09 in1019.0 mb 0.00 in0.0 mm 0.00 in0.0 mm 0.00 in0.0 mm
01:44 AM 68.7°F20.4°C 68.1°F20.1°C 98% 1.7 mph SE2.7 kmh SE 4.7 mph7.6 kmh 30.09 in1019.0 mb 0.00 in0.0 mm 0.00 in0.0 mm 0.00 in0.0 mm
01:45 AM 68.7°F20.4°C 68.1°F20.1°C 98% Calm Calm 4.7 mph7.6 kmh 30.09 in1019.0 mb 0.00 in0.0 mm 0.00 in0.0 mm 0.00 in0.0 mm
01:46 AM 68.7°F20.4°C 68.1°F20.1°C 98% Calm Calm 4.7 mph7.6 kmh 30.09 in1019.0 mb 0.00 in0.0 mm 0.00 in0.0 mm 0.00 in0.0 mm
01:47 AM 68.7°F20.4°C 68.1°F20.1°C 98% Calm Calm 4.7 mph7.6 kmh 30.09 in1019.0 mb 0.00 in0.0 mm 0.00 in0.0 mm 0.00 in0.0 mm
01:48 AM 68.7°F20.4°C 68.1°F20.1°C 98% Calm Calm 3.7 mph6.0 kmh 30.09 in1019.0 mb 0.00 in0.0 mm 0.00 in0.0 mm 0.00 in0.0 mm
01:49 AM 68.9°F20.5°C 68.3°F20.2°C 98% Calm Calm 3.2 mph5.1 kmh 30.09 in1019.0 mb 0.00 in0.0 mm 0.00 in0.0 mm 0.00 in0.0 mm
01:50 AM 68.9°F20.5°C 68.3°F20.2°C 98% Calm Calm 3.2 mph5.1 kmh 30.09 in1019.0 mb 0.00 in0.0 mm 0.00 in0.0 mm 0.00 in0.0 mm
01:51 AM 68.9°F20.5°C 68.3°F20.2°C 98% Calm Calm 3.2 mph5.1 kmh 30.09 in1019.0 mb 0.00 in0.0 mm 0.00 in0.0 mm 0.00 in0.0 mm
01:52 AM 68.9°F20.5°C 68.3°F20.2°C 98% 2.2 mph S3.5 kmh S 3.7 mph6.0 kmh 30.09 in1019.0 mb 0.00 in0.0 mm 0.00 in0.0 mm 0.00 in0.0 mm
01:53 AM 68.9°F20.5°C 68.3°F20.2°C 98% 2.2 mph ESE3.5 kmh ESE 3.7 mph6.0 kmh 30.09 in1019.0 mb 0.00 in0.0 mm 0.00 in0.0 mm 0.00 in0.0 mm
01:54 AM 68.9°F20.5°C 68.3°F20.2°C 98% 3.2 mph SE5.1 kmh SE 4.2 mph6.8 kmh 30.09 in1019.0 mb 0.00 in0.0 mm 0.00 in0.0 mm 0.00 in0.0 mm
01:55 AM 68.9°F20.5°C 68.3°F20.2°C 98% 5.8 mph ESE9.3 kmh ESE 5.8 mph9.3 kmh 30.09 in1019.0 mb 0.00 in0.0 mm 0.00 in0.0 mm 0.00 in0.0 mm
01:56 AM 68.9°F20.5°C 68.3°F20.2°C 98% 3.7 mph SE6.0 kmh SE 5.8 mph9.3 kmh 30.09 in1019.0 mb 0.00 in0.0 mm 0.00 in0.0 mm 0.00 in0.0 mm
01:57 AM 68.9°F20.5°C 68.3°F20.2°C 98% 2.7 mph SE4.3 kmh SE 5.8 mph9.3 kmh 30.09 in1019.0 mb 0.00 in0.0 mm 0.00 in0.0 mm 0.00 in0.0 mm
01:58 AM 68.9°F20.5°C 68.3°F20.2°C 98% 2.2 mph E3.5 kmh E 5.8 mph9.3 kmh 30.09 in1019.0 mb 0.00 in0.0 mm 0.00 in0.0 mm 0.00 in0.0 mm
01:59 AM 68.9°F20.5°C 68.3°F20.2°C 98% 4.7 mph ESE7.6 kmh ESE 5.8 mph9.3 kmh 30.09 in1019.0 mb 0.00 in0.0 mm 0.00 in0.0 mm 0.00 in0.0 mm
02:00 AM 68.9°F20.5°C 68.3°F20.2°C 98% 3.2 mph SSE5.1 kmh SSE 5.8 mph9.3 kmh 30.09 in1019.0 mb 0.00 in0.0 mm 0.00 in0.0 mm 0.00 in0.0 mm
02:01 AM 68.9°F20.5°C 68.3°F20.2°C 98% 3.7 mph ESE6.0 kmh ESE 5.8 mph9.3 kmh 30.09 in1019.0 mb 0.00 in0.0 mm 0.00 in0.0 mm 0.00 in0.0 mm
02:02 AM 68.9°F20.5°C 68.3°F20.2°C 98% 3.7 mph ESE6.0 kmh ESE 5.8 mph9.3 kmh 30.09 in1019.0 mb 0.00 in0.0 mm 0.00 in0.0 mm 0.00 in0.0 mm
02:03 AM 68.9°F20.5°C 68.3°F20.2°C 98% 2.7 mph SE4.3 kmh SE 5.8 mph9.3 kmh 30.09 in1019.0 mb 0.00 in0.0 mm 0.00 in0.0 mm 0.00 in0.0 mm
02:04 AM 68.9°F20.5°C 68.3°F20.2°C 98% 6.3 mph ESE10.1 kmh ESE 6.3 mph10.1 kmh 30.09 in1019.0 mb 0.00 in0.0 mm 0.00 in0.0 mm 0.00 in0.0 mm
02:05 AM 69.1°F20.6°C 68.5°F20.3°C 98% 2.7 mph SE4.3 kmh SE 6.3 mph10.1 kmh 30.08 in1018.6 mb 0.00 in0.0 mm 0.00 in0.0 mm 0.00 in0.0 mm
02:06 AM 69.1°F20.6°C 68.5°F20.3°C 98% Calm Calm 6.3 mph10.1 kmh 30.08 in1018.6 mb 0.00 in0.0 mm 0.00 in0.0 mm 0.00 in0.0 mm
02:07 AM 69.1°F20.6°C 68.5°F20.3°C 98% 2.7 mph ESE4.3 kmh ESE 6.3 mph10.1 kmh 30.08 in1018.6 mb 0.00 in0.0 mm 0.00 in0.0 mm 0.00 in0.0 mm
02:08 AM 69.1°F20.6°C 68.5°F20.3°C 98% 5.3 mph ESE8.5 kmh ESE 6.3 mph10.1 kmh 30.08 in1018.6 mb 0.00 in0.0 mm 0.00 in0.0 mm 0.00 in0.0 mm
02:09 AM 69.1°F20.6°C 68.5°F20.3°C 98% 2.7 mph SSE4.3 kmh SSE 6.3 mph10.1 kmh 30.08 in1018.6 mb 0.00 in0.0 mm 0.00 in0.0 mm 0.00 in0.0 mm
02:10 AM 69.1°F20.6°C 68.5°F20.3°C 98% 3.2 mph E5.1 kmh E 6.3 mph10.1 kmh 30.08 in1018.6 mb 0.00 in0.0 mm 0.00 in0.0 mm 0.00 in0.0 mm
02:11 AM 69.1°F20.6°C 68.5°F20.3°C 98% 4.7 mph ESE7.6 kmh ESE 6.3 mph10.1 kmh 30.08 in1018.6 mb 0.00 in0.0 mm 0.00 in0.0 mm 0.00 in0.0 mm
02:12 AM 69.1°F20.6°C 68.5°F20.3°C 98% 3.7 mph SE6.0 kmh SE 6.3 mph10.1 kmh 30.08 in1018.6 mb 0.00 in0.0 mm 0.00 in0.0 mm 0.00 in0.0 mm
02:13 AM 69.1°F20.6°C 68.5°F20.3°C 98% 2.2 mph SE3.5 kmh SE 6.3 mph10.1 kmh 30.08 in1018.6 mb 0.00 in0.0 mm 0.00 in0.0 mm 0.00 in0.0 mm
02:14 AM 69.1°F20.6°C 68.5°F20.3°C 98% 2.2 mph ESE3.5 kmh ESE 6.3 mph10.1 kmh 30.08 in1018.6 mb 0.00 in0.0 mm 0.00 in0.0 mm 0.00 in0.0 mm
02:15 AM 69.1°F20.6°C 68.5°F20.3°C 98% 2.2 mph SE3.5 kmh SE 5.3 mph8.5 kmh 30.08 in1018.6 mb 0.00 in0.0 mm 0.00 in0.0 mm 0.00 in0.0 mm
02:16 AM 69.1°F20.6°C 68.5°F20.3°C 98% 3.7 mph SE6.0 kmh SE 5.3 mph8.5 kmh 30.08 in1018.6 mb 0.00 in0.0 mm 0.00 in0.0 mm 0.00 in0.0 mm
02:17 AM 69.1°F20.6°C 68.5°F20.3°C 98% 4.7 mph ESE7.6 kmh ESE 5.3 mph8.5 kmh 30.08 in1018.6 mb 0.00 in0.0 mm 0.00 in0.0 mm 0.00 in0.0 mm
02:18 AM 69.1°F20.6°C 68.5°F20.3°C 98% 3.2 mph SSE5.1 kmh SSE 5.3 mph8.5 kmh 30.08 in1018.6 mb 0.00 in0.0 mm 0.00 in0.0 mm 0.00 in0.0 mm
02:19 AM 69.1°F20.6°C 68.5°F20.3°C 98% 3.7 mph ESE6.0 kmh ESE 5.3 mph8.5 kmh 30.08 in1018.6 mb 0.00 in0.0 mm 0.00 in0.0 mm 0.00 in0.0 mm
02:20 AM 69.1°F20.6°C 68.5°F20.3°C 98% Calm Calm 5.3 mph8.5 kmh 30.08 in1018.6 mb 0.00 in0.0 mm 0.00 in0.0 mm 0.00 in0.0 mm
02:21 AM 69.1°F20.6°C 68.5°F20.3°C 98% 5.3 mph ESE8.5 kmh ESE 5.3 mph8.5 kmh 30.08 in1018.6 mb 0.00 in0.0 mm 0.00 in0.0 mm 0.00 in0.0 mm
02:22 AM 69.1°F20.6°C 68.5°F20.3°C 98% 4.7 mph ESE7.6 kmh ESE 6.8 mph10.9 kmh 30.08 in1018.6 mb 0.00 in0.0 mm 0.00 in0.0 mm 0.00 in0.0 mm
02:23 AM 69.1°F20.6°C 68.5°F20.3°C 98% 3.7 mph SE6.0 kmh SE 6.8 mph10.9 kmh 30.08 in1018.6 mb 0.00 in0.0 mm 0.00 in0.0 mm 0.00 in0.0 mm
02:24 AM 69.1°F20.6°C 68.5°F20.3°C 98% 2.7 mph SE4.3 kmh SE 6.8 mph10.9 kmh 30.08 in1018.6 mb 0.00 in0.0 mm 0.00 in0.0 mm 0.00 in0.0 mm
02:25 AM 69.1°F20.6°C 68.5°F20.3°C 98% 2.7 mph ESE4.3 kmh ESE 6.8 mph10.9 kmh 30.08 in1018.6 mb 0.00 in0.0 mm 0.00 in0.0 mm 0.00 in0.0 mm
02:26 AM 69.1°F20.6°C 68.5°F20.3°C 98% 2.7 mph ESE4.3 kmh ESE 6.8 mph10.9 kmh 30.08 in1018.6 mb 0.00 in0.0 mm 0.00 in0.0 mm 0.00 in0.0 mm
02:27 AM 69.1°F20.6°C 68.5°F20.3°C 98% 2.2 mph SSE3.5 kmh SSE 6.8 mph10.9 kmh 30.08 in1018.6 mb 0.00 in0.0 mm 0.00 in0.0 mm 0.00 in0.0 mm
02:28 AM 69.1°F20.6°C 68.5°F20.3°C 98% 2.7 mph SE4.3 kmh SE 6.8 mph10.9 kmh 30.08 in1018.6 mb 0.00 in0.0 mm 0.00 in0.0 mm 0.00 in0.0 mm
02:29 AM 69.1°F20.6°C 68.5°F20.3°C 98% 5.3 mph SE8.5 kmh SE 6.8 mph10.9 kmh 30.08 in1018.6 mb 0.00 in0.0 mm 0.00 in0.0 mm 0.00 in0.0 mm
02:30 AM 69.1°F20.6°C 68.5°F20.3°C 98% 4.7 mph ESE7.6 kmh ESE 6.8 mph10.9 kmh 30.08 in1018.6 mb 0.00 in0.0 mm 0.00 in0.0 mm 0.00 in0.0 mm
02:31 AM 69.1°F20.6°C 68.5°F20.3°C 98% 4.7 mph SE7.6 kmh SE 6.8 mph10.9 kmh 30.08 in1018.6 mb 0.00 in0.0 mm 0.00 in0.0 mm 0.00 in0.0 mm
02:32 AM 69.1°F20.6°C 68.5°F20.3°C 98% 4.7 mph ESE7.6 kmh ESE 6.3 mph10.1 kmh 30.08 in1018.6 mb 0.00 in0.0 mm 0.00 in0.0 mm 0.00 in0.0 mm
02:33 AM 69.1°F20.6°C 68.5°F20.3°C 98% 3.7 mph ESE6.0 kmh ESE 6.3 mph10.1 kmh 30.08 in1018.6 mb 0.00 in0.0 mm 0.00 in0.0 mm 0.00 in0.0 mm
02:34 AM 69.1°F20.6°C 68.5°F20.3°C 98% Calm Calm 6.3 mph10.1 kmh 30.08 in1018.6 mb 0.00 in0.0 mm 0.00 in0.0 mm 0.00 in0.0 mm
02:35 AM 69.1°F20.6°C 68.5°F20.3°C 98% 2.2 mph ESE3.5 kmh ESE 6.3 mph10.1 kmh 30.08 in1018.6 mb 0.00 in0.0 mm 0.00 in0.0 mm 0.00 in0.0 mm
02:36 AM 69.1°F20.6°C 68.5°F20.3°C 98% 3.7 mph ESE6.0 kmh ESE 6.3 mph10.1 kmh 30.08 in1018.6 mb 0.00 in0.0 mm 0.00 in0.0 mm 0.00 in0.0 mm
02:37 AM 69.1°F20.6°C 68.5°F20.3°C 98% 3.2 mph SE5.1 kmh SE 6.3 mph10.1 kmh 30.08 in1018.6 mb 0.00 in0.0 mm 0.00 in0.0 mm 0.00 in0.0 mm
02:38 AM 69.1°F20.6°C 68.5°F20.3°C 98% 2.7 mph SE4.3 kmh SE 6.3 mph10.1 kmh 30.08 in1018.6 mb 0.00 in0.0 mm 0.00 in0.0 mm 0.00 in0.0 mm
02:39 AM 69.1°F20.6°C 68.5°F20.3°C 98% 4.2 mph ESE6.8 kmh ESE 6.3 mph10.1 kmh 30.08 in1018.6 mb 0.00 in0.0 mm 0.00 in0.0 mm 0.00 in0.0 mm
02:40 AM 69.1°F20.6°C 68.5°F20.3°C 98% 2.7 mph SE4.3 kmh SE 6.3 mph10.1 kmh 30.08 in1018.6 mb 0.00 in0.0 mm 0.00 in0.0 mm 0.00 in0.0 mm
02:41 AM 69.1°F20.6°C 68.5°F20.3°C 98% 3.7 mph ESE6.0 kmh ESE 4.7 mph7.6 kmh 30.08 in1018.6 mb 0.00 in0.0 mm 0.00 in0.0 mm 0.00 in0.0 mm
02:42 AM 69.1°F20.6°C 68.5°F20.3°C 98% 3.7 mph ESE6.0 kmh ESE 4.7 mph7.6 kmh 30.08 in1018.6 mb 0.00 in0.0 mm 0.00 in0.0 mm 0.00 in0.0 mm
02:43 AM 69.1°F20.6°C 68.5°F20.3°C 98% 3.2 mph ESE5.1 kmh ESE 4.7 mph7.6 kmh 30.08 in1018.6 mb 0.00 in0.0 mm 0.00 in0.0 mm 0.00 in0.0 mm
02:44 AM 69.1°F20.6°C 68.5°F20.3°C 98% 4.2 mph ESE6.8 kmh ESE 4.7 mph7.6 kmh 30.08 in1018.6 mb 0.00 in0.0 mm 0.00 in0.0 mm 0.00 in0.0 mm
02:45 AM 69.1°F20.6°C 68.5°F20.3°C 98% 2.7 mph ESE4.3 kmh ESE 4.7 mph7.6 kmh 30.08 in1018.6 mb 0.00 in0.0 mm 0.00 in0.0 mm 0.00 in0.0 mm
02:46 AM 69.1°F20.6°C 68.5°F20.3°C 98% 2.7 mph ESE4.3 kmh ESE 4.7 mph7.6 kmh 30.08 in1018.6 mb 0.00 in0.0 mm 0.00 in0.0 mm 0.00 in0.0 mm
02:47 AM 69.1°F20.6°C 68.5°F20.3°C 98% 2.7 mph ESE4.3 kmh ESE 4.7 mph7.6 kmh 30.08 in1018.6 mb 0.00 in0.0 mm 0.00 in0.0 mm 0.00 in0.0 mm
02:48 AM 69.1°F20.6°C 68.5°F20.3°C 98% Calm Calm 4.7 mph7.6 kmh 30.08 in1018.6 mb 0.00 in0.0 mm 0.00 in0.0 mm 0.00 in0.0 mm
02:49 AM 69.1°F20.6°C 68.5°F20.3°C 98% 4.7 mph ENE7.6 kmh ENE 4.7 mph7.6 kmh 30.08 in1018.6 mb 0.00 in0.0 mm 0.00 in0.0 mm 0.00 in0.0 mm
02:50 AM 69.1°F20.6°C 68.5°F20.3°C 98% 2.7 mph ESE4.3 kmh ESE 4.7 mph7.6 kmh 30.08 in1018.6 mb 0.00 in0.0 mm 0.00 in0.0 mm 0.00 in0.0 mm
02:51 AM 69.1°F20.6°C 68.5°F20.3°C 98% 3.7 mph ESE6.0 kmh ESE 4.7 mph7.6 kmh 30.08 in1018.6 mb 0.00 in0.0 mm 0.00 in0.0 mm 0.00 in0.0 mm
02:52 AM 69.1°F20.6°C 68.5°F20.3°C 98% 3.2 mph ESE5.1 kmh ESE 4.7 mph7.6 kmh 30.08 in1018.6 mb 0.00 in0.0 mm 0.00 in0.0 mm 0.00 in0.0 mm
02:53 AM 69.1°F20.6°C 68.5°F20.3°C 98% 2.7 mph ESE4.3 kmh ESE 4.7 mph7.6 kmh 30.08 in1018.6 mb 0.00 in0.0 mm 0.00 in0.0 mm 0.00 in0.0 mm
02:54 AM 69.1°F20.6°C 68.5°F20.3°C 98% 4.2 mph ESE6.8 kmh ESE 4.7 mph7.6 kmh 30.08 in1018.6 mb 0.00 in0.0 mm 0.00 in0.0 mm 0.00 in0.0 mm
02:55 AM 69.1°F20.6°C 68.5°F20.3°C 98% 2.7 mph ESE4.3 kmh ESE 4.7 mph7.6 kmh 30.08 in1018.6 mb 0.00 in0.0 mm 0.00 in0.0 mm 0.00 in0.0 mm
02:56 AM 69.1°F20.6°C 68.5°F20.3°C 98% 1.1 mph ESE1.8 kmh ESE 4.7 mph7.6 kmh 30.08 in1018.6 mb 0.00 in0.0 mm 0.00 in0.0 mm 0.00 in0.0 mm
02:57 AM 69.1°F20.6°C 68.5°F20.3°C 98% 1.1 mph ESE1.8 kmh ESE 4.7 mph7.6 kmh 30.08 in1018.6 mb 0.00 in0.0 mm 0.00 in0.0 mm 0.00 in0.0 mm
02:58 AM 69.1°F20.6°C 68.5°F20.3°C 98% Calm Calm 4.7 mph7.6 kmh 30.08 in1018.6 mb 0.00 in0.0 mm 0.00 in0.0 mm 0.00 in0.0 mm
02:59 AM 69.1°F20.6°C 68.5°F20.3°C 98% Calm Calm 4.2 mph6.8 kmh 30.08 in1018.6 mb 0.00 in0.0 mm 0.00 in0.0 mm 0.00 in0.0 mm
03:00 AM 69.1°F20.6°C 68.5°F20.3°C 98% 3.2 mph ESE5.1 kmh ESE 4.2 mph6.8 kmh 30.08 in1018.6 mb 0.00 in0.0 mm 0.00 in0.0 mm 0.00 in0.0 mm
03:01 AM 69.1°F20.6°C 68.5°F20.3°C 98% 2.2 mph ESE3.5 kmh ESE 4.2 mph6.8 kmh 30.08 in1018.6 mb 0.00 in0.0 mm 0.00 in0.0 mm 0.00 in0.0 mm
03:02 AM 69.1°F20.6°C 68.5°F20.3°C 98% 2.2 mph SE3.5 kmh SE 4.2 mph6.8 kmh 30.08 in1018.6 mb 0.00 in0.0 mm 0.00 in0.0 mm 0.00 in0.0 mm
03:03 AM 69.1°F20.6°C 68.5°F20.3°C 98% 3.2 mph ESE5.1 kmh ESE 4.2 mph6.8 kmh 30.08 in1018.6 mb 0.00 in0.0 mm 0.00 in0.0 mm 0.00 in0.0 mm
03:04 AM 69.1°F20.6°C 68.5°F20.3°C 98% 2.7 mph SSE4.3 kmh SSE 4.2 mph6.8 kmh 30.08 in1018.6 mb 0.00 in0.0 mm 0.00 in0.0 mm 0.00 in0.0 mm
03:05 AM 69.1°F20.6°C 68.5°F20.3°C 98% 1.7 mph SSE2.7 kmh SSE 3.7 mph6.0 kmh 30.08 in1018.6 mb 0.00 in0.0 mm 0.00 in0.0 mm 0.00 in0.0 mm
03:06 AM 69.1°F20.6°C 68.5°F20.3°C 98% 1.1 mph ESE1.8 kmh ESE 3.7 mph6.0 kmh 30.08 in1018.6 mb 0.00 in0.0 mm 0.00 in0.0 mm 0.00 in0.0 mm
03:07 AM 69.1°F20.6°C 68.5°F20.3°C 98% Calm Calm 3.7 mph6.0 kmh 30.08 in1018.6 mb 0.00 in0.0 mm 0.00 in0.0 mm 0.00 in0.0 mm
03:08 AM 69.1°F20.6°C 68.5°F20.3°C 98% Calm Calm 3.7 mph6.0 kmh 30.08 in1018.6 mb 0.00 in0.0 mm 0.00 in0.0 mm 0.00 in0.0 mm
03:09 AM 69.1°F20.6°C 68.5°F20.3°C 98% Calm Calm 3.7 mph6.0 kmh 30.08 in1018.6 mb 0.00 in0.0 mm 0.00 in0.0 mm 0.00 in0.0 mm
03:10 AM 69.1°F20.6°C 68.5°F20.3°C 98% Calm Calm 3.7 mph6.0 kmh 30.08 in1018.6 mb 0.00 in0.0 mm 0.00 in0.0 mm 0.00 in0.0 mm
03:11 AM 69.1°F20.6°C 68.5°F20.3°C 98% Calm Calm 3.7 mph6.0 kmh 30.08 in1018.6 mb 0.00 in0.0 mm 0.00 in0.0 mm 0.00 in0.0 mm
03:12 AM 69.1°F20.6°C 68.5°F20.3°C 98% 2.7 mph ESE4.3 kmh ESE 3.7 mph6.0 kmh 30.08 in1018.6 mb 0.00 in0.0 mm 0.00 in0.0 mm 0.00 in0.0 mm
03:13 AM 69.1°F20.6°C 68.5°F20.3°C 98% 3.2 mph ESE5.1 kmh ESE 3.2 mph5.1 kmh 30.08 in1018.6 mb 0.00 in0.0 mm 0.00 in0.0 mm 0.00 in0.0 mm
03:14 AM 69.1°F20.6°C 68.5°F20.3°C 98% 4.7 mph ESE7.6 kmh ESE 4.7 mph7.6 kmh 30.08 in1018.6 mb 0.00 in0.0 mm 0.00 in0.0 mm 0.00 in0.0 mm
03:15 AM 69.1°F20.6°C 68.5°F20.3°C 98% 3.7 mph ESE6.0 kmh ESE 4.7 mph7.6 kmh 30.08 in1018.6 mb 0.00 in0.0 mm 0.00 in0.0 mm 0.00 in0.0 mm
03:16 AM 69.1°F20.6°C 68.5°F20.3°C 98% 2.7 mph ESE4.3 kmh ESE 4.7 mph7.6 kmh 30.08 in1018.6 mb 0.00 in0.0 mm 0.00 in0.0 mm 0.00 in0.0 mm
03:17 AM 69.1°F20.6°C 68.5°F20.3°C 98% 1.7 mph E2.7 kmh E 4.7 mph7.6 kmh 30.08 in1018.6 mb 0.00 in0.0 mm 0.00 in0.0 mm 0.00 in0.0 mm
03:18 AM 69.1°F20.6°C 68.5°F20.3°C 98% 3.7 mph ESE6.0 kmh ESE 4.7 mph7.6 kmh 30.08 in1018.6 mb 0.00 in0.0 mm 0.00 in0.0 mm 0.00 in0.0 mm
03:19 AM 69.1°F20.6°C 68.5°F20.3°C 98% 3.2 mph SSE5.1 kmh SSE 4.7 mph7.6 kmh 30.08 in1018.6 mb 0.00 in0.0 mm 0.00 in0.0 mm 0.00 in0.0 mm
03:20 AM 69.1°F20.6°C 68.5°F20.3°C 98% 2.7 mph ESE4.3 kmh ESE 4.7 mph7.6 kmh 30.08 in1018.6 mb 0.00 in0.0 mm 0.00 in0.0 mm 0.00 in0.0 mm
03:21 AM 69.1°F20.6°C 68.5°F20.3°C 98% 2.2 mph NE3.5 kmh NE 4.7 mph7.6 kmh 30.08 in1018.6 mb 0.00 in0.0 mm 0.00 in0.0 mm 0.00 in0.0 mm
03:22 AM 69.1°F20.6°C 68.5°F20.3°C 98% Calm Calm 4.7 mph7.6 kmh 30.08 in1018.6 mb 0.00 in0.0 mm 0.00 in0.0 mm 0.00 in0.0 mm
03:23 AM 69.1°F20.6°C 68.5°F20.3°C 98% 1.1 mph E1.8 kmh E 4.7 mph7.6 kmh 30.08 in1018.6 mb 0.00 in0.0 mm 0.00 in0.0 mm 0.00 in0.0 mm
03:24 AM 69.1°F20.6°C 68.5°F20.3°C 98% 2.2 mph ESE3.5 kmh ESE 4.7 mph7.6 kmh 30.08 in1018.6 mb 0.00 in0.0 mm 0.00 in0.0 mm 0.00 in0.0 mm
03:25 AM 69.1°F20.6°C 68.5°F20.3°C 98% 2.2 mph ESE3.5 kmh ESE 3.7 mph6.0 kmh 30.08 in1018.6 mb 0.00 in0.0 mm 0.00 in0.0 mm 0.00 in0.0 mm
03:26 AM 69.1°F20.6°C 68.5°F20.3°C 98% 3.2 mph ESE5.1 kmh ESE 3.7 mph6.0 kmh 30.08 in1018.6 mb 0.00 in0.0 mm 0.00 in0.0 mm 0.00 in0.0 mm
03:27 AM 69.1°F20.6°C 68.5°F20.3°C 98% 2.2 mph ESE3.5 kmh ESE 3.7 mph6.0 kmh 30.08 in1018.6 mb 0.00 in0.0 mm 0.00 in0.0 mm 0.00 in0.0 mm
03:28 AM 69.1°F20.6°C 68.5°F20.3°C 98% 2.7 mph ESE4.3 kmh ESE 3.7 mph6.0 kmh 30.08 in1018.6 mb 0.00 in0.0 mm 0.00 in0.0 mm 0.00 in0.0 mm
03:29 AM 69.1°F20.6°C 68.5°F20.3°C 98% 3.2 mph SSW5.1 kmh SSW 3.7 mph6.0 kmh 30.08 in1018.6 mb 0.00 in0.0 mm 0.00 in0.0 mm 0.00 in0.0 mm
03:30 AM 69.1°F20.6°C 68.5°F20.3°C 98% Calm Calm 3.7 mph6.0 kmh 30.08 in1018.6 mb 0.00 in0.0 mm 0.00 in0.0 mm 0.00 in0.0 mm
03:31 AM 69.1°F20.6°C 68.5°F20.3°C 98% Calm Calm 3.7 mph6.0 kmh 30.08 in1018.6 mb 0.00 in0.0 mm 0.00 in0.0 mm 0.00 in0.0 mm
03:32 AM 69.1°F20.6°C 68.5°F20.3°C 98% Calm Calm 3.7 mph6.0 kmh 30.08 in1018.6 mb 0.00 in0.0 mm 0.00 in0.0 mm 0.00 in0.0 mm
03:33 AM 69.1°F20.6°C 68.5°F20.3°C 98% Calm Calm 3.7 mph6.0 kmh 30.08 in1018.6 mb 0.00 in0.0 mm 0.00 in0.0 mm 0.00 in0.0 mm
03:34 AM 69.1°F20.6°C 68.5°F20.3°C 98% 2.2 mph ESE3.5 kmh ESE 3.2 mph5.1 kmh 30.08 in1018.6 mb 0.00 in0.0 mm 0.00 in0.0 mm 0.00 in0.0 mm
03:35 AM 69.1°F20.6°C 68.5°F20.3°C 98% Calm Calm 3.2 mph5.1 kmh 30.08 in1018.6 mb 0.00 in0.0 mm 0.00 in0.0 mm 0.00 in0.0 mm
03:36 AM 69.1°F20.6°C 68.5°F20.3°C 98% Calm Calm 3.2 mph5.1 kmh 30.08 in1018.6 mb 0.00 in0.0 mm 0.00 in0.0 mm 0.00 in0.0 mm
03:37 AM 69.1°F20.6°C 68.5°F20.3°C 98% 1.7 mph E2.7 kmh E 3.2 mph5.1 kmh 30.08 in1018.6 mb 0.00 in0.0 mm 0.00 in0.0 mm 0.00 in0.0 mm
03:38 AM 69.1°F20.6°C 68.5°F20.3°C 98% Calm Calm 3.2 mph5.1 kmh 30.08 in1018.6 mb 0.00 in0.0 mm 0.00 in0.0 mm 0.00 in0.0 mm
03:39 AM 69.1°F20.6°C 68.5°F20.3°C 98% Calm Calm 3.2 mph5.1 kmh 30.08 in1018.6 mb 0.00 in0.0 mm 0.00 in0.0 mm 0.00 in0.0 mm
03:40 AM 69.1°F20.6°C 68.5°F20.3°C 98% 2.2 mph SE3.5 kmh SE 2.2 mph3.5 kmh 30.08 in1018.6 mb 0.00 in0.0 mm 0.00 in0.0 mm 0.00 in0.0 mm
03:41 AM 69.1°F20.6°C 68.5°F20.3°C 98% Calm Calm 2.2 mph3.5 kmh 30.08 in1018.6 mb 0.00 in0.0 mm 0.00 in0.0 mm 0.00 in0.0 mm
03:42 AM 69.1°F20.6°C 68.5°F20.3°C 98% Calm Calm 2.2 mph3.5 kmh 30.08 in1018.6 mb 0.00 in0.0 mm 0.00 in0.0 mm 0.00 in0.0 mm
03:43 AM 69.1°F20.6°C 68.5°F20.3°C 98% 2.2 mph ESE3.5 kmh ESE 2.2 mph3.5 kmh 30.08 in1018.6 mb 0.00 in0.0 mm 0.00 in0.0 mm 0.00 in0.0 mm
03:44 AM 69.1°F20.6°C 68.5°F20.3°C 98% 2.2 mph ESE3.5 kmh ESE 2.2 mph3.5 kmh 30.08 in1018.6 mb 0.00 in0.0 mm 0.00 in0.0 mm 0.00 in0.0 mm
03:45 AM 69.1°F20.6°C 68.5°F20.3°C 98% 3.7 mph ESE6.0 kmh ESE 3.7 mph6.0 kmh 30.08 in1018.6 mb 0.00 in0.0 mm 0.00 in0.0 mm 0.00 in0.0 mm
03:46 AM 69.1°F20.6°C 68.5°F20.3°C 98% 2.7 mph ESE4.3 kmh ESE 3.7 mph6.0 kmh 30.08 in1018.6 mb 0.00 in0.0 mm 0.00 in0.0 mm 0.00 in0.0 mm
03:47 AM 69.1°F20.6°C 68.5°F20.3°C 98% 2.2 mph ESE3.5 kmh ESE 3.7 mph6.0 kmh 30.08 in1018.6 mb 0.00 in0.0 mm 0.00 in0.0 mm 0.00 in0.0 mm
03:48 AM 69.1°F20.6°C 68.5°F20.3°C 98% 3.2 mph ESE5.1 kmh ESE 3.7 mph6.0 kmh 30.08 in1018.6 mb 0.00 in0.0 mm 0.00 in0.0 mm 0.00 in0.0 mm
03:49 AM 69.1°F20.6°C 68.5°F20.3°C 98% 3.7 mph E6.0 kmh E 5.3 mph8.5 kmh 30.08 in1018.6 mb 0.00 in0.0 mm 0.00 in0.0 mm 0.00 in0.0 mm
03:50 AM 69.1°F20.6°C 68.5°F20.3°C 98% 2.7 mph ESE4.3 kmh ESE 5.3 mph8.5 kmh 30.08 in1018.6 mb 0.00 in0.0 mm 0.00 in0.0 mm 0.00 in0.0 mm
03:51 AM 69.1°F20.6°C 68.5°F20.3°C 98% 2.2 mph E3.5 kmh E 5.3 mph8.5 kmh 30.08 in1018.6 mb 0.00 in0.0 mm 0.00 in0.0 mm 0.00 in0.0 mm
03:52 AM 69.1°F20.6°C 68.5°F20.3°C 98% 2.7 mph ESE4.3 kmh ESE 5.3 mph8.5 kmh 30.08 in1018.6 mb 0.00 in0.0 mm 0.00 in0.0 mm 0.00 in0.0 mm
03:53 AM 69.1°F20.6°C 68.5°F20.3°C 98% 2.7 mph SE4.3 kmh SE 5.3 mph8.5 kmh 30.08 in1018.6 mb 0.00 in0.0 mm 0.00 in0.0 mm 0.00 in0.0 mm
03:54 AM 69.1°F20.6°C 68.5°F20.3°C 98% 1.7 mph ESE2.7 kmh ESE 5.3 mph8.5 kmh 30.08 in1018.6 mb 0.00 in0.0 mm 0.00 in0.0 mm 0.00 in0.0 mm
03:55 AM 69.1°F20.6°C 68.5°F20.3°C 98% 2.2 mph ESE3.5 kmh ESE 5.3 mph8.5 kmh 30.08 in1018.6 mb 0.00 in0.0 mm 0.00 in0.0 mm 0.00 in0.0 mm
03:56 AM 69.1°F20.6°C 68.5°F20.3°C 98% 2.2 mph SE3.5 kmh SE 5.3 mph8.5 kmh 30.08 in1018.6 mb 0.00 in0.0 mm 0.00 in0.0 mm 0.00 in0.0 mm
03:57 AM 69.1°F20.6°C 68.5°F20.3°C 98% 2.7 mph ESE4.3 kmh ESE 5.3 mph8.5 kmh 30.08 in1018.6 mb 0.00 in0.0 mm 0.00 in0.0 mm 0.00 in0.0 mm
03:58 AM 69.1°F20.6°C 68.5°F20.3°C 98% 2.7 mph SSE4.3 kmh SSE 5.3 mph8.5 kmh 30.08 in1018.6 mb 0.00 in0.0 mm 0.00 in0.0 mm 0.00 in0.0 mm
03:59 AM 69.1°F20.6°C 68.5°F20.3°C 98% 1.7 mph ESE2.7 kmh ESE 3.2 mph5.1 kmh 30.08 in1018.6 mb 0.00 in0.0 mm 0.00 in0.0 mm 0.00 in0.0 mm
04:00 AM 69.1°F20.6°C 68.5°F20.3°C 98% 2.7 mph SE4.3 kmh SE 3.2 mph5.1 kmh 30.08 in1018.6 mb 0.00 in0.0 mm 0.00 in0.0 mm 0.00 in0.0 mm
04:01 AM 69.1°F20.6°C 68.5°F20.3°C 98% Calm Calm 3.2 mph5.1 kmh 30.08 in1018.6 mb 0.00 in0.0 mm 0.00 in0.0 mm 0.00 in0.0 mm
04:02 AM 69.1°F20.6°C 68.5°F20.3°C 98% Calm Calm 3.2 mph5.1 kmh 30.08 in1018.6 mb 0.00 in0.0 mm 0.00 in0.0 mm 0.00 in0.0 mm
04:03 AM 69.1°F20.6°C 68.5°F20.3°C 98% 2.7 mph ESE4.3 kmh ESE 3.2 mph5.1 kmh 30.08 in1018.6 mb 0.00 in0.0 mm 0.00 in0.0 mm 0.00 in0.0 mm
04:04 AM 69.1°F20.6°C 68.5°F20.3°C 98% 1.1 mph ESE1.8 kmh ESE 3.2 mph5.1 kmh 30.08 in1018.6 mb 0.00 in0.0 mm 0.00 in0.0 mm 0.00 in0.0 mm
04:05 AM 69.1°F20.6°C 68.5°F20.3°C 98% 2.7 mph ESE4.3 kmh ESE 3.2 mph5.1 kmh 30.08 in1018.6 mb 0.00 in0.0 mm 0.00 in0.0 mm 0.00 in0.0 mm
04:06 AM 69.1°F20.6°C 68.5°F20.3°C 98% Calm Calm 3.2 mph5.1 kmh 30.08 in1018.6 mb 0.00 in0.0 mm 0.00 in0.0 mm 0.00 in0.0 mm
04:07 AM 69.1°F20.6°C 68.5°F20.3°C 98% 2.2 mph ESE3.5 kmh ESE 2.7 mph4.3 kmh 30.08 in1018.6 mb 0.00 in0.0 mm 0.00 in0.0 mm 0.00 in0.0 mm
04:08 AM 69.1°F20.6°C 68.5°F20.3°C 98% 3.2 mph ESE5.1 kmh ESE 3.2 mph5.1 kmh 30.08 in1018.6 mb 0.00 in0.0 mm 0.00 in0.0 mm 0.00 in0.0 mm
04:09 AM 69.1°F20.6°C 68.5°F20.3°C 98% 2.7 mph ESE4.3 kmh ESE 3.7 mph6.0 kmh 30.08 in1018.6 mb 0.00 in0.0 mm 0.00 in0.0 mm 0.00 in0.0 mm
04:10 AM 69.1°F20.6°C 68.5°F20.3°C 98% 1.7 mph ESE2.7 kmh ESE 3.7 mph6.0 kmh 30.08 in1018.6 mb 0.00 in0.0 mm 0.00 in0.0 mm 0.00 in0.0 mm
04:11 AM 69.1°F20.6°C 68.5°F20.3°C 98% Calm Calm 3.7 mph6.0 kmh 30.08 in1018.6 mb 0.00 in0.0 mm 0.00 in0.0 mm 0.00 in0.0 mm
04:12 AM 69.1°F20.6°C 68.5°F20.3°C 98% Calm Calm 3.7 mph6.0 kmh 30.08 in1018.6 mb 0.00 in0.0 mm 0.00 in0.0 mm 0.00 in0.0 mm
04:13 AM 69.1°F20.6°C 68.5°F20.3°C 98% 3.7 mph E6.0 kmh E 3.7 mph6.0 kmh 30.08 in1018.6 mb 0.00 in0.0 mm 0.00 in0.0 mm 0.00 in0.0 mm
04:14 AM 69.1°F20.6°C 68.5°F20.3°C 98% 2.7 mph E4.3 kmh E 3.7 mph6.0 kmh 30.08 in1018.6 mb 0.00 in0.0 mm 0.00 in0.0 mm 0.00 in0.0 mm
04:15 AM 69.1°F20.6°C 68.5°F20.3°C 98% 3.7 mph ESE6.0 kmh ESE 4.7 mph7.6 kmh 30.08 in1018.6 mb 0.00 in0.0 mm 0.00 in0.0 mm 0.00 in0.0 mm
04:16 AM 69.1°F20.6°C 68.5°F20.3°C 98% 4.2 mph ESE6.8 kmh ESE 4.7 mph7.6 kmh 30.08 in1018.6 mb 0.00 in0.0 mm 0.00 in0.0 mm 0.00 in0.0 mm
04:17 AM 69.1°F20.6°C 68.5°F20.3°C 98% 2.7 mph ESE4.3 kmh ESE 4.7 mph7.6 kmh 30.08 in1018.6 mb 0.00 in0.0 mm 0.00 in0.0 mm 0.00 in0.0 mm
04:18 AM 69.1°F20.6°C 68.5°F20.3°C 98% Calm Calm 4.7 mph7.6 kmh 30.08 in1018.6 mb 0.00 in0.0 mm 0.00 in0.0 mm 0.00 in0.0 mm
04:19 AM 69.1°F20.6°C 68.5°F20.3°C 98% 3.7 mph ESE6.0 kmh ESE 4.7 mph7.6 kmh 30.08 in1018.6 mb 0.00 in0.0 mm 0.00 in0.0 mm 0.00 in0.0 mm
04:20 AM 69.1°F20.6°C 68.5°F20.3°C 98% 2.7 mph ESE4.3 kmh ESE 4.7 mph7.6 kmh 30.08 in1018.6 mb 0.00 in0.0 mm 0.00 in0.0 mm 0.00 in0.0 mm
04:21 AM 69.1°F20.6°C 68.5°F20.3°C 98% 4.2 mph ESE6.8 kmh ESE 4.7 mph7.6 kmh 30.08 in1018.6 mb 0.00 in0.0 mm 0.00 in0.0 mm 0.00 in0.0 mm
04:22 AM 69.1°F20.6°C 68.5°F20.3°C 98% 3.2 mph ESE5.1 kmh ESE 4.7 mph7.6 kmh 30.08 in1018.6 mb 0.00 in0.0 mm 0.00 in0.0 mm 0.00 in0.0 mm
04:23 AM 69.1°F20.6°C 68.5°F20.3°C 98% 4.7 mph ESE7.6 kmh ESE 4.7 mph7.6 kmh 30.08 in1018.6 mb 0.00 in0.0 mm 0.00 in0.0 mm 0.00 in0.0 mm
04:24 AM 69.1°F20.6°C 68.5°F20.3°C 98% 4.7 mph NNE7.6 kmh NNE 4.7 mph7.6 kmh 30.08 in1018.6 mb 0.00 in0.0 mm 0.00 in0.0 mm 0.00 in0.0 mm
04:25 AM 69.1°F20.6°C 68.5°F20.3°C 98% 4.7 mph ESE7.6 kmh ESE 6.3 mph10.1 kmh 30.08 in1018.6 mb 0.00 in0.0 mm 0.00 in0.0 mm 0.00 in0.0 mm
04:26 AM 69.1°F20.6°C 68.5°F20.3°C 98% 3.7 mph ESE6.0 kmh ESE 6.3 mph10.1 kmh 30.08 in1018.6 mb 0.00 in0.0 mm 0.00 in0.0 mm 0.00 in0.0 mm
04:27 AM 69.1°F20.6°C 68.5°F20.3°C 98% Calm Calm 6.3 mph10.1 kmh 30.08 in1018.6 mb 0.00 in0.0 mm 0.00 in0.0 mm 0.00 in0.0 mm
04:28 AM 69.1°F20.6°C 68.5°F20.3°C 98% 2.7 mph ESE4.3 kmh ESE 6.3 mph10.1 kmh 30.08 in1018.6 mb 0.00 in0.0 mm 0.00 in0.0 mm 0.00 in0.0 mm
04:29 AM 69.1°F20.6°C 68.5°F20.3°C 98% Calm Calm 6.3 mph10.1 kmh 30.08 in1018.6 mb 0.00 in0.0 mm 0.00 in0.0 mm 0.00 in0.0 mm
04:30 AM 69.1°F20.6°C 68.5°F20.3°C 98% 2.2 mph ESE3.5 kmh ESE 6.3 mph10.1 kmh 30.08 in1018.6 mb 0.00 in0.0 mm 0.00 in0.0 mm 0.00 in0.0 mm
04:31 AM 69.1°F20.6°C 68.5°F20.3°C 98% 2.7 mph SE4.3 kmh SE 6.3 mph10.1 kmh 30.08 in1018.6 mb 0.00 in0.0 mm 0.00 in0.0 mm 0.00 in0.0 mm
04:32 AM 69.1°F20.6°C 68.5°F20.3°C 98% 3.7 mph ESE6.0 kmh ESE 6.3 mph10.1 kmh 30.08 in1018.6 mb 0.00 in0.0 mm 0.00 in0.0 mm 0.00 in0.0 mm
04:33 AM 69.1°F20.6°C 68.5°F20.3°C 98% 3.7 mph ESE6.0 kmh ESE 6.3 mph10.1 kmh 30.08 in1018.6 mb 0.00 in0.0 mm 0.00 in0.0 mm 0.00 in0.0 mm
04:34 AM 69.1°F20.6°C 68.5°F20.3°C 98% 2.2 mph ESE3.5 kmh ESE 6.3 mph10.1 kmh 30.08 in1018.6 mb 0.00 in0.0 mm 0.00 in0.0 mm 0.00 in0.0 mm
04:35 AM 69.1°F20.6°C 68.5°F20.3°C 98% 2.2 mph ESE3.5 kmh ESE 5.3 mph8.5 kmh 30.08 in1018.6 mb 0.00 in0.0 mm 0.00 in0.0 mm 0.00 in0.0 mm
04:36 AM 69.1°F20.6°C 68.5°F20.3°C 98% 1.1 mph SE1.8 kmh SE 3.7 mph6.0 kmh 30.08 in1018.6 mb 0.00 in0.0 mm 0.00 in0.0 mm 0.00 in0.0 mm
04:37 AM 69.1°F20.6°C 68.5°F20.3°C 98% 3.2 mph ESE5.1 kmh ESE 3.7 mph6.0 kmh 30.08 in1018.6 mb 0.00 in0.0 mm 0.00 in0.0 mm 0.00 in0.0 mm
04:38 AM 69.1°F20.6°C 68.5°F20.3°C 98% 2.7 mph ESE4.3 kmh ESE 3.7 mph6.0 kmh 30.08 in1018.6 mb 0.00 in0.0 mm 0.00 in0.0 mm 0.00 in0.0 mm
04:39 AM 69.1°F20.6°C 68.5°F20.3°C 98% 2.2 mph ESE3.5 kmh ESE 3.7 mph6.0 kmh 30.08 in1018.6 mb 0.00 in0.0 mm 0.00 in0.0 mm 0.00 in0.0 mm
04:40 AM 69.3°F20.7°C 68.7°F20.4°C 98% 3.2 mph E5.1 kmh E 3.7 mph6.0 kmh 30.08 in1018.6 mb 0.00 in0.0 mm 0.00 in0.0 mm 0.00 in0.0 mm
04:41 AM 69.3°F20.7°C 68.7°F20.4°C 98% Calm Calm 3.7 mph6.0 kmh 30.08 in1018.6 mb 0.00 in0.0 mm 0.00 in0.0 mm 0.00 in0.0 mm
04:42 AM 69.3°F20.7°C 68.7°F20.4°C 98% 3.2 mph ESE5.1 kmh ESE 3.7 mph6.0 kmh 30.08 in1018.6 mb 0.00 in0.0 mm 0.00 in0.0 mm 0.00 in0.0 mm
04:43 AM 69.3°F20.7°C 68.7°F20.4°C 98% 3.7 mph ESE6.0 kmh ESE 4.2 mph6.8 kmh 30.08 in1018.6 mb 0.00 in0.0 mm 0.00 in0.0 mm 0.00 in0.0 mm
04:44 AM 69.3°F20.7°C 68.7°F20.4°C 98% 3.7 mph ESE6.0 kmh ESE 4.2 mph6.8 kmh 30.08 in1018.6 mb 0.00 in0.0 mm 0.00 in0.0 mm 0.00 in0.0 mm
04:45 AM 69.3°F20.7°C 68.7°F20.4°C 98% 2.2 mph ESE3.5 kmh ESE 4.2 mph6.8 kmh 30.08 in1018.6 mb 0.00 in0.0 mm 0.00 in0.0 mm 0.00 in0.0 mm
04:46 AM 69.3°F20.7°C 68.7°F20.4°C 98% 2.2 mph ESE3.5 kmh ESE 4.2 mph6.8 kmh 30.08 in1018.6 mb 0.00 in0.0 mm 0.00 in0.0 mm 0.00 in0.0 mm
04:47 AM 69.3°F20.7°C 68.7°F20.4°C 98% 3.2 mph ESE5.1 kmh ESE 4.2 mph6.8 kmh 30.08 in1018.6 mb 0.00 in0.0 mm 0.00 in0.0 mm 0.00 in0.0 mm
04:48 AM 69.3°F20.7°C 68.7°F20.4°C 98% 3.7 mph ESE6.0 kmh ESE 4.2 mph6.8 kmh 30.08 in1018.6 mb 0.00 in0.0 mm 0.00 in0.0 mm 0.00 in0.0 mm
04:49 AM 69.3°F20.7°C 68.7°F20.4°C 98% 3.2 mph ESE5.1 kmh ESE 4.2 mph6.8 kmh 30.08 in1018.6 mb 0.00 in0.0 mm 0.00 in0.0 mm 0.00 in0.0 mm
04:50 AM 69.3°F20.7°C 68.7°F20.4°C 98% 3.7 mph SE6.0 kmh SE 4.2 mph6.8 kmh 30.08 in1018.6 mb 0.00 in0.0 mm 0.00 in0.0 mm 0.00 in0.0 mm
04:51 AM 69.3°F20.7°C 68.7°F20.4°C 98% 2.7 mph ESE4.3 kmh ESE 4.2 mph6.8 kmh 30.08 in1018.6 mb 0.00 in0.0 mm 0.00 in0.0 mm 0.00 in0.0 mm
04:52 AM 69.3°F20.7°C 68.7°F20.4°C 98% 1.7 mph ENE2.7 kmh ENE 4.2 mph6.8 kmh 30.08 in1018.6 mb 0.00 in0.0 mm 0.00 in0.0 mm 0.00 in0.0 mm
04:53 AM 69.3°F20.7°C 68.7°F20.4°C 98% 4.2 mph ESE6.8 kmh ESE 4.2 mph6.8 kmh 30.08 in1018.6 mb 0.00 in0.0 mm 0.00 in0.0 mm 0.00 in0.0 mm
04:54 AM 69.3°F20.7°C 68.7°F20.4°C 98% 4.2 mph ESE6.8 kmh ESE 4.7 mph7.6 kmh 30.08 in1018.6 mb 0.00 in0.0 mm 0.00 in0.0 mm 0.00 in0.0 mm
04:55 AM 69.3°F20.7°C 68.7°F20.4°C 98% 3.2 mph E5.1 kmh E 4.7 mph7.6 kmh 30.08 in1018.6 mb 0.00 in0.0 mm 0.00 in0.0 mm 0.00 in0.0 mm
04:56 AM 69.3°F20.7°C 68.7°F20.4°C 98% 3.7 mph ESE6.0 kmh ESE 4.7 mph7.6 kmh 30.08 in1018.6 mb 0.00 in0.0 mm 0.00 in0.0 mm 0.00 in0.0 mm
04:57 AM 69.3°F20.7°C 68.7°F20.4°C 98% 2.7 mph ESE4.3 kmh ESE 4.7 mph7.6 kmh 30.08 in1018.6 mb 0.00 in0.0 mm 0.00 in0.0 mm 0.00 in0.0 mm
04:58 AM 69.3°F20.7°C 68.7°F20.4°C 98% 4.7 mph ESE7.6 kmh ESE 4.7 mph7.6 kmh 30.08 in1018.6 mb 0.00 in0.0 mm 0.00 in0.0 mm 0.00 in0.0 mm
04:59 AM 69.3°F20.7°C 68.7°F20.4°C 98% 4.7 mph ESE7.6 kmh ESE 4.7 mph7.6 kmh 30.08 in1018.6 mb 0.00 in0.0 mm 0.00 in0.0 mm 0.00 in0.0 mm
05:00 AM 69.3°F20.7°C 68.7°F20.4°C 98% Calm Calm 4.7 mph7.6 kmh 30.08 in1018.6 mb 0.00 in0.0 mm 0.00 in0.0 mm 0.00 in0.0 mm
05:01 AM 69.3°F20.7°C 68.7°F20.4°C 98% 4.2 mph ESE6.8 kmh ESE 4.7 mph7.6 kmh 30.08 in1018.6 mb 0.00 in0.0 mm 0.00 in0.0 mm 0.00 in0.0 mm
05:02 AM 69.3°F20.7°C 68.7°F20.4°C 98% 4.7 mph ESE7.6 kmh ESE 4.7 mph7.6 kmh 30.08 in1018.6 mb 0.00 in0.0 mm 0.00 in0.0 mm 0.00 in0.0 mm
05:03 AM 69.3°F20.7°C 68.7°F20.4°C 98% 2.7 mph ESE4.3 kmh ESE 5.3 mph8.5 kmh 30.08 in1018.6 mb 0.00 in0.0 mm 0.00 in0.0 mm 0.00 in0.0 mm
05:04 AM 69.3°F20.7°C 68.7°F20.4°C 98% 3.2 mph ESE5.1 kmh ESE 5.3 mph8.5 kmh 30.08 in1018.6 mb 0.00 in0.0 mm 0.00 in0.0 mm 0.00 in0.0 mm
05:05 AM 69.3°F20.7°C 68.7°F20.4°C 98% 2.7 mph ESE4.3 kmh ESE 5.3 mph8.5 kmh 30.08 in1018.6 mb 0.00 in0.0 mm 0.00 in0.0 mm 0.00 in0.0 mm
05:06 AM 69.3°F20.7°C 68.7°F20.4°C 98% 3.2 mph ESE5.1 kmh ESE 5.3 mph8.5 kmh 30.08 in1018.6 mb 0.00 in0.0 mm 0.00 in0.0 mm 0.00 in0.0 mm
05:07 AM 69.3°F20.7°C 68.7°F20.4°C 98% 2.7 mph E4.3 kmh E 5.3 mph8.5 kmh 30.08 in1018.6 mb 0.00 in0.0 mm 0.00 in0.0 mm 0.00 in0.0 mm
05:08 AM 69.3°F20.7°C 68.7°F20.4°C 98% 3.7 mph ESE6.0 kmh ESE 5.3 mph8.5 kmh 30.08 in1018.6 mb 0.00 in0.0 mm 0.00 in0.0 mm 0.00 in0.0 mm
05:09 AM 69.3°F20.7°C 68.7°F20.4°C 98% 4.2 mph ESE6.8 kmh ESE 5.3 mph8.5 kmh 30.08 in1018.6 mb 0.00 in0.0 mm 0.00 in0.0 mm 0.00 in0.0 mm
05:10 AM 69.1°F20.6°C 68.5°F20.3°C 98% 3.2 mph E5.1 kmh E 5.3 mph8.5 kmh 30.08 in1018.6 mb 0.00 in0.0 mm 0.00 in0.0 mm 0.00 in0.0 mm
05:11 AM 69.1°F20.6°C 68.5°F20.3°C 98% 3.2 mph E5.1 kmh E 5.3 mph8.5 kmh 30.08 in1018.6 mb 0.00 in0.0 mm 0.00 in0.0 mm 0.00 in0.0 mm
05:12 AM 69.1°F20.6°C 68.5°F20.3°C 98% 2.2 mph ESE3.5 kmh ESE 5.3 mph8.5 kmh 30.08 in1018.6 mb 0.00 in0.0 mm 0.00 in0.0 mm 0.00 in0.0 mm
05:13 AM 69.1°F20.6°C 68.5°F20.3°C 98% 2.7 mph ESE4.3 kmh ESE 5.3 mph8.5 kmh 30.08 in1018.6 mb 0.00 in0.0 mm 0.00 in0.0 mm 0.00 in0.0 mm
05:14 AM 69.1°F20.6°C 68.5°F20.3°C 98% Calm Calm 5.3 mph8.5 kmh 30.08 in1018.6 mb 0.00 in0.0 mm 0.00 in0.0 mm 0.00 in0.0 mm
05:15 AM 69.1°F20.6°C 68.5°F20.3°C 98% 3.2 mph ESE5.1 kmh ESE 5.3 mph8.5 kmh 30.08 in1018.6 mb 0.00 in0.0 mm 0.00 in0.0 mm 0.00 in0.0 mm
05:16 AM 69.1°F20.6°C 68.5°F20.3°C 98% 4.7 mph ESE7.6 kmh ESE 5.3 mph8.5 kmh 30.08 in1018.6 mb 0.00 in0.0 mm 0.00 in0.0 mm 0.00 in0.0 mm
05:17 AM 69.1°F20.6°C 68.5°F20.3°C 98% 3.7 mph SE6.0 kmh SE 5.3 mph8.5 kmh 30.08 in1018.6 mb 0.00 in0.0 mm 0.00 in0.0 mm 0.00 in0.0 mm
05:18 AM 69.1°F20.6°C 68.5°F20.3°C 98% 1.7 mph ESE2.7 kmh ESE 5.3 mph8.5 kmh 30.08 in1018.6 mb 0.00 in0.0 mm 0.00 in0.0 mm 0.00 in0.0 mm
05:19 AM 69.1°F20.6°C 68.5°F20.3°C 98% Calm Calm 5.3 mph8.5 kmh 30.08 in1018.6 mb 0.00 in0.0 mm 0.00 in0.0 mm 0.00 in0.0 mm
05:20 AM 69.1°F20.6°C 68.5°F20.3°C 98% Calm Calm 5.3 mph8.5 kmh 30.08 in1018.6 mb 0.00 in0.0 mm 0.00 in0.0 mm 0.00 in0.0 mm
05:21 AM 69.1°F20.6°C 68.5°F20.3°C 98% 4.2 mph ESE6.8 kmh ESE 4.7 mph7.6 kmh 30.08 in1018.6 mb 0.00 in0.0 mm 0.00 in0.0 mm 0.00 in0.0 mm
05:22 AM 69.1°F20.6°C 68.5°F20.3°C 98% 3.2 mph ESE5.1 kmh ESE 4.7 mph7.6 kmh 30.08 in1018.6 mb 0.00 in0.0 mm 0.00 in0.0 mm 0.00 in0.0 mm
05:23 AM 69.1°F20.6°C 68.5°F20.3°C 98% 2.7 mph ENE4.3 kmh ENE 4.7 mph7.6 kmh 30.08 in1018.6 mb 0.00 in0.0 mm 0.00 in0.0 mm 0.00 in0.0 mm
05:24 AM 69.1°F20.6°C 68.5°F20.3°C 98% 4.2 mph ESE6.8 kmh ESE 4.7 mph7.6 kmh 30.08 in1018.6 mb 0.00 in0.0 mm 0.00 in0.0 mm 0.00 in0.0 mm
05:25 AM 69.1°F20.6°C 68.5°F20.3°C 98% 1.7 mph ESE2.7 kmh ESE 4.7 mph7.6 kmh 30.08 in1018.6 mb 0.00 in0.0 mm 0.00 in0.0 mm 0.00 in0.0 mm
05:26 AM 69.1°F20.6°C 68.5°F20.3°C 98% 2.2 mph W3.5 kmh W 4.2 mph6.8 kmh 30.08 in1018.6 mb 0.00 in0.0 mm 0.00 in0.0 mm 0.00 in0.0 mm
05:27 AM 69.1°F20.6°C 68.5°F20.3°C 98% 4.7 mph ESE7.6 kmh ESE 4.7 mph7.6 kmh 30.08 in1018.6 mb 0.00 in0.0 mm 0.00 in0.0 mm 0.00 in0.0 mm
05:28 AM 69.1°F20.6°C 68.5°F20.3°C 98% 2.7 mph SE4.3 kmh SE 4.7 mph7.6 kmh 30.08 in1018.6 mb 0.00 in0.0 mm 0.00 in0.0 mm 0.00 in0.0 mm
05:29 AM 69.1°F20.6°C 68.5°F20.3°C 98% 2.2 mph ESE3.5 kmh ESE 4.7 mph7.6 kmh 30.08 in1018.6 mb 0.00 in0.0 mm 0.00 in0.0 mm 0.00 in0.0 mm
05:30 AM 69.1°F20.6°C 68.5°F20.3°C 98% 3.7 mph ESE6.0 kmh ESE 4.7 mph7.6 kmh 30.08 in1018.6 mb 0.00 in0.0 mm 0.00 in0.0 mm 0.00 in0.0 mm
05:31 AM 69.1°F20.6°C 68.5°F20.3°C 98% 2.7 mph SE4.3 kmh SE 4.7 mph7.6 kmh 30.08 in1018.6 mb 0.00 in0.0 mm 0.00 in0.0 mm 0.00 in0.0 mm
05:32 AM 69.1°F20.6°C 68.5°F20.3°C 98% 3.2 mph ESE5.1 kmh ESE 4.7 mph7.6 kmh 30.08 in1018.6 mb 0.00 in0.0 mm 0.00 in0.0 mm 0.00 in0.0 mm
05:33 AM 69.1°F20.6°C 68.5°F20.3°C 98% 3.2 mph ESE5.1 kmh ESE 4.7 mph7.6 kmh 30.08 in1018.6 mb 0.00 in0.0 mm 0.00 in0.0 mm 0.00 in0.0 mm
05:34 AM 69.1°F20.6°C 68.5°F20.3°C 98% 5.8 mph ESE9.3 kmh ESE 5.8 mph9.3 kmh 30.08 in1018.6 mb 0.00 in0.0 mm 0.00 in0.0 mm 0.00 in0.0 mm
05:35 AM 69.1°F20.6°C 68.5°F20.3°C 98% 4.2 mph ESE6.8 kmh ESE 5.8 mph9.3 kmh 30.08 in1018.6 mb 0.00 in0.0 mm 0.00 in0.0 mm 0.00 in0.0 mm
05:36 AM 69.1°F20.6°C 68.5°F20.3°C 98% 3.2 mph SE5.1 kmh SE 5.8 mph9.3 kmh 30.08 in1018.6 mb 0.00 in0.0 mm 0.00 in0.0 mm 0.00 in0.0 mm
05:37 AM 69.1°F20.6°C 68.5°F20.3°C 98% 4.2 mph ESE6.8 kmh ESE 5.8 mph9.3 kmh 30.08 in1018.6 mb 0.00 in0.0 mm 0.00 in0.0 mm 0.00 in0.0 mm
05:38 AM 68.9°F20.5°C 68.3°F20.2°C 98% 3.2 mph ESE5.1 kmh ESE 5.8 mph9.3 kmh 30.08 in1018.6 mb 0.00 in0.0 mm 0.00 in0.0 mm 0.00 in0.0 mm
05:39 AM 68.9°F20.5°C 68.3°F20.2°C 98% 3.7 mph ESE6.0 kmh ESE 5.8 mph9.3 kmh 30.08 in1018.6 mb 0.00 in0.0 mm 0.00 in0.0 mm 0.00 in0.0 mm
05:40 AM 68.9°F20.5°C 68.3°F20.2°C 98% Calm Calm 5.8 mph9.3 kmh 30.08 in1018.6 mb 0.00 in0.0 mm 0.00 in0.0 mm 0.00 in0.0 mm
05:41 AM 68.9°F20.5°C 68.3°F20.2°C 98% 3.7 mph ESE6.0 kmh ESE 5.8 mph9.3 kmh 30.09 in1019.0 mb 0.00 in0.0 mm 0.00 in0.0 mm 0.00 in0.0 mm
05:42 AM 68.9°F20.5°C 68.3°F20.2°C 98% 2.7 mph ESE4.3 kmh ESE 5.8 mph9.3 kmh 30.09 in1019.0 mb 0.00 in0.0 mm 0.00 in0.0 mm 0.00 in0.0 mm
05:43 AM 68.7°F20.4°C 68.1°F20.1°C 98% 3.2 mph ESE5.1 kmh ESE 5.8 mph9.3 kmh 30.09 in1019.0 mb 0.00 in0.0 mm 0.00 in0.0 mm 0.00 in0.0 mm
05:44 AM 68.7°F20.4°C 68.1°F20.1°C 98% 2.7 mph ESE4.3 kmh ESE 5.8 mph9.3 kmh 30.09 in1019.0 mb 0.00 in0.0 mm 0.00 in0.0 mm 0.00 in0.0 mm
05:45 AM 68.7°F20.4°C 68.1°F20.1°C 98% Calm Calm 4.7 mph7.6 kmh 30.09 in1019.0 mb 0.00 in0.0 mm 0.00 in0.0 mm 0.00 in0.0 mm
05:46 AM 68.7°F20.4°C 67.8°F19.9°C 97% Calm Calm 4.7 mph7.6 kmh 30.09 in1019.0 mb 0.00 in0.0 mm 0.00 in0.0 mm 0.00 in0.0 mm
05:47 AM 68.7°F20.4°C 67.8°F19.9°C 97% 3.2 mph ESE5.1 kmh ESE 4.7 mph7.6 kmh 30.09 in1019.0 mb 0.00 in0.0 mm 0.00 in0.0 mm 0.00 in0.0 mm
05:48 AM 68.5°F20.3°C 67.7°F19.8°C 97% 3.7 mph ESE6.0 kmh ESE 3.7 mph6.0 kmh 30.09 in1019.0 mb 0.00 in0.0 mm 0.00 in0.0 mm 0.00 in0.0 mm
05:49 AM 68.5°F20.3°C 67.7°F19.8°C 97% 2.7 mph ESE4.3 kmh ESE 3.7 mph6.0 kmh 30.09 in1019.0 mb 0.00 in0.0 mm 0.00 in0.0 mm 0.00 in0.0 mm
05:50 AM 68.5°F20.3°C 67.7°F19.8°C 97% 2.2 mph ESE3.5 kmh ESE 3.7 mph6.0 kmh 30.09 in1019.0 mb 0.00 in0.0 mm 0.00 in0.0 mm 0.00 in0.0 mm
05:51 AM 68.5°F20.3°C 67.7°F19.8°C 97% 2.7 mph ESE4.3 kmh ESE 3.7 mph6.0 kmh 30.09 in1019.0 mb 0.00 in0.0 mm 0.00 in0.0 mm 0.00 in0.0 mm
05:52 AM 68.5°F20.3°C 67.7°F19.8°C 97% 2.7 mph ESE4.3 kmh ESE 3.7 mph6.0 kmh 30.09 in1019.0 mb 0.00 in0.0 mm 0.00 in0.0 mm 0.00 in0.0 mm
05:53 AM 68.5°F20.3°C 67.7°F19.8°C 97% Calm Calm 3.7 mph6.0 kmh 30.08 in1018.6 mb 0.00 in0.0 mm 0.00 in0.0 mm 0.00 in0.0 mm
05:54 AM 68.4°F20.2°C 67.5°F19.7°C 97% Calm Calm 3.7 mph6.0 kmh 30.08 in1018.6 mb 0.00 in0.0 mm 0.00 in0.0 mm 0.00 in0.0 mm
05:55 AM 68.4°F20.2°C 67.5°F19.7°C 97% Calm Calm 3.7 mph6.0 kmh 30.08 in1018.6 mb 0.00 in0.0 mm 0.00 in0.0 mm 0.00 in0.0 mm
05:56 AM 68.4°F20.2°C 67.5°F19.7°C 97% Calm Calm 3.7 mph6.0 kmh 30.08 in1018.6 mb 0.00 in0.0 mm 0.00 in0.0 mm 0.00 in0.0 mm
05:57 AM 68.4°F20.2°C 67.5°F19.7°C 97% Calm Calm 3.7 mph6.0 kmh 30.08 in1018.6 mb 0.00 in0.0 mm 0.00 in0.0 mm 0.00 in0.0 mm
05:58 AM 68.4°F20.2°C 67.5°F19.7°C 97% Calm Calm 3.7 mph6.0 kmh 30.08 in1018.6 mb 0.00 in0.0 mm 0.00 in0.0 mm 0.00 in0.0 mm
05:59 AM 68.2°F20.1°C 67.3°F19.6°C 97% Calm Calm 2.7 mph4.3 kmh 30.08 in1018.6 mb 0.00 in0.0 mm 0.00 in0.0 mm 0.00 in0.0 mm
06:00 AM 68.2°F20.1°C 67.3°F19.6°C 97% Calm Calm 2.7 mph4.3 kmh 30.08 in1018.6 mb 0.00 in0.0 mm 0.00 in0.0 mm 0.00 in0.0 mm
06:01 AM 68.2°F20.1°C 67.3°F19.6°C 97% 1.7 mph ESE2.7 kmh ESE 2.7 mph4.3 kmh 30.08 in1018.6 mb 0.00 in0.0 mm 0.00 in0.0 mm 0.00 in0.0 mm
06:02 AM 68.2°F20.1°C 67.3°F19.6°C 97% Calm Calm 2.7 mph4.3 kmh 30.08 in1018.6 mb 0.00 in0.0 mm 0.00 in0.0 mm 0.00 in0.0 mm
06:03 AM 68.2°F20.1°C 67.3°F19.6°C 97% Calm Calm 2.2 mph3.5 kmh 30.08 in1018.6 mb 0.00 in0.0 mm 0.00 in0.0 mm 0.00 in0.0 mm
06:04 AM 68.2°F20.1°C 67.3°F19.6°C 97% Calm Calm 2.2 mph3.5 kmh 30.08 in1018.6 mb 0.00 in0.0 mm 0.00 in0.0 mm 0.00 in0.0 mm
06:05 AM 68.0°F20.0°C 67.1°F19.5°C 97% Calm Calm 2.2 mph3.5 kmh 30.09 in1019.0 mb 0.00 in0.0 mm 0.00 in0.0 mm 0.00 in0.0 mm
06:06 AM 68.0°F20.0°C 67.1°F19.5°C 97% Calm Calm 2.2 mph3.5 kmh 30.09 in1019.0 mb 0.00 in0.0 mm 0.00 in0.0 mm 0.00 in0.0 mm
06:07 AM 68.0°F20.0°C 67.1°F19.5°C 97% 3.2 mph E5.1 kmh E 3.7 mph6.0 kmh 30.09 in1019.0 mb 0.00 in0.0 mm 0.00 in0.0 mm 0.00 in0.0 mm
06:08 AM 68.0°F20.0°C 67.1°F19.5°C 97% 1.7 mph ESE2.7 kmh ESE 3.7 mph6.0 kmh 30.09 in1019.0 mb 0.00 in0.0 mm 0.00 in0.0 mm 0.00 in0.0 mm
06:09 AM 68.0°F20.0°C 67.1°F19.5°C 97% 2.7 mph ESE4.3 kmh ESE 3.7 mph6.0 kmh 30.09 in1019.0 mb 0.00 in0.0 mm 0.00 in0.0 mm 0.00 in0.0 mm
06:10 AM 68.0°F20.0°C 67.1°F19.5°C 97% 2.7 mph ESE4.3 kmh ESE 3.7 mph6.0 kmh 30.09 in1019.0 mb 0.00 in0.0 mm 0.00 in0.0 mm 0.00 in0.0 mm
06:11 AM 68.0°F20.0°C 67.1°F19.5°C 97% 1.7 mph ESE2.7 kmh ESE 3.7 mph6.0 kmh 30.09 in1019.0 mb 0.00 in0.0 mm 0.00 in0.0 mm 0.00 in0.0 mm
06:12 AM 68.0°F20.0°C 67.1°F19.5°C 97% 2.2 mph ENE3.5 kmh ENE 3.7 mph6.0 kmh 30.09 in1019.0 mb 0.00 in0.0 mm 0.00 in0.0 mm 0.00 in0.0 mm
06:13 AM 67.8°F19.9°C 66.9°F19.4°C 97% 2.2 mph ESE3.5 kmh ESE 3.7 mph6.0 kmh 30.09 in1019.0 mb 0.00 in0.0 mm 0.00 in0.0 mm 0.00 in0.0 mm
06:14 AM 67.8°F19.9°C 66.9°F19.4°C 97% 3.7 mph ESE6.0 kmh ESE 3.7 mph6.0 kmh 30.09 in1019.0 mb 0.00 in0.0 mm 0.00 in0.0 mm 0.00 in0.0 mm
06:15 AM 67.8°F19.9°C 66.9°F19.4°C 97% 2.7 mph ESE4.3 kmh ESE 3.7 mph6.0 kmh 30.09 in1019.0 mb 0.00 in0.0 mm 0.00 in0.0 mm 0.00 in0.0 mm
06:16 AM 67.8°F19.9°C 66.9°F19.4°C 97% 3.7 mph ESE6.0 kmh ESE 3.7 mph6.0 kmh 30.09 in1019.0 mb 0.00 in0.0 mm 0.00 in0.0 mm 0.00 in0.0 mm
06:17 AM 67.8°F19.9°C 66.9°F19.4°C 97% 2.7 mph ESE4.3 kmh ESE 4.7 mph7.6 kmh 30.09 in1019.0 mb 0.00 in0.0 mm 0.00 in0.0 mm 0.00 in0.0 mm
06:18 AM 67.8°F19.9°C 66.9°F19.4°C 97% 3.2 mph ESE5.1 kmh ESE 4.7 mph7.6 kmh 30.09 in1019.0 mb 0.00 in0.0 mm 0.00 in0.0 mm 0.00 in0.0 mm
06:19 AM 67.8°F19.9°C 66.9°F19.4°C 97% 3.7 mph ESE6.0 kmh ESE 4.7 mph7.6 kmh 30.09 in1019.0 mb 0.00 in0.0 mm 0.00 in0.0 mm 0.00 in0.0 mm
06:20 AM 67.8°F19.9°C 66.9°F19.4°C 97% 2.7 mph ESE4.3 kmh ESE 4.7 mph7.6 kmh 30.09 in1019.0 mb 0.00 in0.0 mm 0.00 in0.0 mm 0.00 in0.0 mm
06:21 AM 67.8°F19.9°C 66.9°F19.4°C 97% Calm Calm 4.7 mph7.6 kmh 30.09 in1019.0 mb 0.00 in0.0 mm 0.00 in0.0 mm 0.00 in0.0 mm
06:22 AM 67.8°F19.9°C 66.9°F19.4°C 97% Calm Calm 4.7 mph7.6 kmh 30.09 in1019.0 mb 0.00 in0.0 mm 0.00 in0.0 mm 0.00 in0.0 mm
06:23 AM 67.8°F19.9°C 66.9°F19.4°C 97% Calm Calm 4.7 mph7.6 kmh 30.09 in1019.0 mb 0.00 in0.0 mm 0.00 in0.0 mm 0.00 in0.0 mm
06:24 AM 67.8°F19.9°C 66.9°F19.4°C 97% 2.2 mph ENE3.5 kmh ENE 4.7 mph7.6 kmh 30.09 in1019.0 mb 0.00 in0.0 mm 0.00 in0.0 mm 0.00 in0.0 mm
06:25 AM 67.8°F19.9°C 66.9°F19.4°C 97% 3.7 mph ESE6.0 kmh ESE 4.7 mph7.6 kmh 30.09 in1019.0 mb 0.00 in0.0 mm 0.00 in0.0 mm 0.00 in0.0 mm
06:26 AM 67.8°F19.9°C 66.9°F19.4°C 97% 2.7 mph ESE4.3 kmh ESE 4.7 mph7.6 kmh 30.09 in1019.0 mb 0.00 in0.0 mm 0.00 in0.0 mm 0.00 in0.0 mm
06:27 AM 67.8°F19.9°C 66.9°F19.4°C 97% 3.2 mph ESE5.1 kmh ESE 3.7 mph6.0 kmh 30.09 in1019.0 mb 0.00 in0.0 mm 0.00 in0.0 mm 0.00 in0.0 mm
06:28 AM 67.8°F19.9°C 66.9°F19.4°C 97% 3.2 mph ESE5.1 kmh ESE 3.7 mph6.0 kmh 30.09 in1019.0 mb 0.00 in0.0 mm 0.00 in0.0 mm 0.00 in0.0 mm
06:29 AM 67.8°F19.9°C 66.9°F19.4°C 97% 3.7 mph ESE6.0 kmh ESE 3.7 mph6.0 kmh 30.08 in1018.6 mb 0.00 in0.0 mm 0.00 in0.0 mm 0.00 in0.0 mm
06:30 AM 67.8°F19.9°C 66.9°F19.4°C 97% 2.7 mph ESE4.3 kmh ESE 3.7 mph6.0 kmh 30.08 in1018.6 mb 0.00 in0.0 mm 0.00 in0.0 mm 0.00 in0.0 mm
06:31 AM 67.8°F19.9°C 66.9°F19.4°C 97% 2.7 mph ESE4.3 kmh ESE 3.7 mph6.0 kmh 30.08 in1018.6 mb 0.00 in0.0 mm 0.00 in0.0 mm 0.00 in0.0 mm
06:32 AM 67.8°F19.9°C 66.9°F19.4°C 97% 2.2 mph E3.5 kmh E 3.7 mph6.0 kmh 30.08 in1018.6 mb 0.00 in0.0 mm 0.00 in0.0 mm 0.00 in0.0 mm
06:33 AM 67.8°F19.9°C 66.9°F19.4°C 97% 4.2 mph ESE6.8 kmh ESE 4.2 mph6.8 kmh 30.08 in1018.6 mb 0.00 in0.0 mm 0.00 in0.0 mm 0.00 in0.0 mm
06:34 AM 67.8°F19.9°C 66.9°F19.4°C 97% 2.7 mph ESE4.3 kmh ESE 4.2 mph6.8 kmh 30.08 in1018.6 mb 0.00 in0.0 mm 0.00 in0.0 mm 0.00 in0.0 mm
06:35 AM 67.8°F19.9°C 66.9°F19.4°C 97% 2.2 mph ESE3.5 kmh ESE 4.2 mph6.8 kmh 30.08 in1018.6 mb 0.00 in0.0 mm 0.00 in0.0 mm 0.00 in0.0 mm
06:36 AM 67.8°F19.9°C 66.9°F19.4°C 97% 2.7 mph ESE4.3 kmh ESE 4.2 mph6.8 kmh 30.08 in1018.6 mb 0.00 in0.0 mm 0.00 in0.0 mm 0.00 in0.0 mm
06:37 AM 67.8°F19.9°C 66.9°F19.4°C 97% 3.2 mph ESE5.1 kmh ESE 4.2 mph6.8 kmh 30.08 in1018.6 mb 0.00 in0.0 mm 0.00 in0.0 mm 0.00 in0.0 mm
06:38 AM 67.8°F19.9°C 66.9°F19.4°C 97% 2.2 mph ESE3.5 kmh ESE 4.2 mph6.8 kmh 30.08 in1018.6 mb 0.00 in0.0 mm 0.00 in0.0 mm 0.00 in0.0 mm
06:39 AM 67.8°F19.9°C 66.9°F19.4°C 97% 3.2 mph ESE5.1 kmh ESE 4.2 mph6.8 kmh 30.08 in1018.6 mb 0.00 in0.0 mm 0.00 in0.0 mm 0.00 in0.0 mm
06:40 AM 67.8°F19.9°C 66.9°F19.4°C 97% 4.7 mph E7.6 kmh E 4.7 mph7.6 kmh 30.08 in1018.6 mb 0.00 in0.0 mm 0.00 in0.0 mm 0.00 in0.0 mm
06:41 AM 67.8°F19.9°C 66.9°F19.4°C 97% 3.7 mph ESE6.0 kmh ESE 4.7 mph7.6 kmh 30.08 in1018.6 mb 0.00 in0.0 mm 0.00 in0.0 mm 0.00 in0.0 mm
06:42 AM 67.8°F19.9°C 66.9°F19.4°C 97% 3.2 mph ESE5.1 kmh ESE 5.8 mph9.3 kmh 30.08 in1018.6 mb 0.00 in0.0 mm 0.00 in0.0 mm 0.00 in0.0 mm
06:43 AM 67.8°F19.9°C 66.9°F19.4°C 97% 3.7 mph ESE6.0 kmh ESE 5.8 mph9.3 kmh 30.08 in1018.6 mb 0.00 in0.0 mm 0.00 in0.0 mm 0.00 in0.0 mm
06:44 AM 67.8°F19.9°C 66.9°F19.4°C 97% 2.7 mph ESE4.3 kmh ESE 5.8 mph9.3 kmh 30.08 in1018.6 mb 0.00 in0.0 mm 0.00 in0.0 mm 0.00 in0.0 mm
06:45 AM 67.8°F19.9°C 66.9°F19.4°C 97% 3.7 mph ESE6.0 kmh ESE 5.8 mph9.3 kmh 30.08 in1018.6 mb 0.00 in0.0 mm 0.00 in0.0 mm 0.00 in0.0 mm
06:46 AM 67.8°F19.9°C 66.9°F19.4°C 97% 4.2 mph SSE6.8 kmh SSE 5.8 mph9.3 kmh 30.08 in1018.6 mb 0.00 in0.0 mm 0.00 in0.0 mm 0.00 in0.0 mm
06:47 AM 67.8°F19.9°C 66.9°F19.4°C 97% 3.7 mph ESE6.0 kmh ESE 5.8 mph9.3 kmh 30.08 in1018.6 mb 0.00 in0.0 mm 0.00 in0.0 mm 0.00 in0.0 mm
06:48 AM 67.8°F19.9°C 66.9°F19.4°C 97% 6.3 mph ESE10.1 kmh ESE 6.3 mph10.1 kmh 30.08 in1018.6 mb 0.00 in0.0 mm 0.00 in0.0 mm 0.00 in0.0 mm
06:49 AM 67.8°F19.9°C 66.9°F19.4°C 97% 4.7 mph ESE7.6 kmh ESE 6.3 mph10.1 kmh 30.08 in1018.6 mb 0.00 in0.0 mm 0.00 in0.0 mm 0.00 in0.0 mm
06:50 AM 67.8°F19.9°C 66.9°F19.4°C 97% 4.7 mph SE7.6 kmh SE 6.8 mph10.9 kmh 30.08 in1018.6 mb 0.00 in0.0 mm 0.00 in0.0 mm 0.00 in0.0 mm
06:51 AM 67.8°F19.9°C 66.9°F19.4°C 97% 4.2 mph ESE6.8 kmh ESE 6.8 mph10.9 kmh 30.08 in1018.6 mb 0.00 in0.0 mm 0.00 in0.0 mm 0.00 in0.0 mm
06:52 AM 68.0°F20.0°C 67.1°F19.5°C 97% 5.3 mph ESE8.5 kmh ESE 6.8 mph10.9 kmh 30.08 in1018.6 mb 0.00 in0.0 mm 0.00 in0.0 mm 0.00 in0.0 mm
06:53 AM 68.0°F20.0°C 67.1°F19.5°C 97% 3.2 mph ESE5.1 kmh ESE 6.8 mph10.9 kmh 30.08 in1018.6 mb 0.00 in0.0 mm 0.00 in0.0 mm 0.00 in0.0 mm
06:54 AM 68.0°F20.0°C 67.1°F19.5°C 97% 3.2 mph SE5.1 kmh SE 6.8 mph10.9 kmh 30.08 in1018.6 mb 0.00 in0.0 mm 0.00 in0.0 mm 0.00 in0.0 mm
06:55 AM 68.0°F20.0°C 67.1°F19.5°C 97% 1.7 mph E2.7 kmh E 6.8 mph10.9 kmh 30.08 in1018.6 mb 0.00 in0.0 mm 0.00 in0.0 mm 0.00 in0.0 mm
06:56 AM 68.2°F20.1°C 67.3°F19.6°C 97% 3.7 mph SE6.0 kmh SE 6.8 mph10.9 kmh 30.08 in1018.6 mb 0.00 in0.0 mm 0.00 in0.0 mm 0.00 in0.0 mm
06:57 AM 68.2°F20.1°C 67.3°F19.6°C 97% 2.7 mph ESE4.3 kmh ESE 6.8 mph10.9 kmh 30.08 in1018.6 mb 0.00 in0.0 mm 0.00 in0.0 mm 0.00 in0.0 mm
06:58 AM 68.2°F20.1°C 67.3°F19.6°C 97% 3.7 mph ESE6.0 kmh ESE 6.8 mph10.9 kmh 30.08 in1018.6 mb 0.00 in0.0 mm 0.00 in0.0 mm 0.00 in0.0 mm
06:59 AM 68.2°F20.1°C 67.3°F19.6°C 97% 3.2 mph ESE5.1 kmh ESE 6.8 mph10.9 kmh 30.08 in1018.6 mb 0.00 in0.0 mm 0.00 in0.0 mm 0.00 in0.0 mm
07:00 AM 68.2°F20.1°C 67.3°F19.6°C 97% 2.7 mph ESE4.3 kmh ESE 5.3 mph8.5 kmh 30.08 in1018.6 mb 0.00 in0.0 mm 0.00 in0.0 mm 0.00 in0.0 mm
07:01 AM 68.4°F20.2°C 67.5°F19.7°C 97% Calm Calm 5.3 mph8.5 kmh 30.08 in1018.6 mb 0.00 in0.0 mm 0.00 in0.0 mm 0.00 in0.0 mm
07:02 AM 68.4°F20.2°C 67.5°F19.7°C 97% Calm Calm 5.3 mph8.5 kmh 30.08 in1018.6 mb 0.00 in0.0 mm 0.00 in0.0 mm 0.00 in0.0 mm
07:03 AM 68.4°F20.2°C 67.5°F19.7°C 97% 4.7 mph ESE7.6 kmh ESE 4.7 mph7.6 kmh 30.08 in1018.6 mb 0.00 in0.0 mm 0.00 in0.0 mm 0.00 in0.0 mm
07:04 AM 68.4°F20.2°C 67.5°F19.7°C 97% 3.2 mph ESE5.1 kmh ESE 4.7 mph7.6 kmh 30.08 in1018.6 mb 0.00 in0.0 mm 0.00 in0.0 mm 0.00 in0.0 mm
07:05 AM 68.4°F20.2°C 67.5°F19.7°C 97% 3.2 mph ESE5.1 kmh ESE 4.7 mph7.6 kmh 30.09 in1019.0 mb 0.00 in0.0 mm 0.00 in0.0 mm 0.00 in0.0 mm
07:06 AM 68.4°F20.2°C 67.5°F19.7°C 97% 2.7 mph ESE4.3 kmh ESE 4.7 mph7.6 kmh 30.09 in1019.0 mb 0.00 in0.0 mm 0.00 in0.0 mm 0.00 in0.0 mm
07:07 AM 68.5°F20.3°C 67.7°F19.8°C 97% 3.7 mph ESE6.0 kmh ESE 4.7 mph7.6 kmh 30.09 in1019.0 mb 0.00 in0.0 mm 0.00 in0.0 mm 0.00 in0.0 mm
07:08 AM 68.5°F20.3°C 67.7°F19.8°C 97% 2.7 mph ESE4.3 kmh ESE 4.7 mph7.6 kmh 30.09 in1019.0 mb 0.00 in0.0 mm 0.00 in0.0 mm 0.00 in0.0 mm
07:09 AM 68.7°F20.4°C 67.8°F19.9°C 97% 2.7 mph ESE4.3 kmh ESE 4.7 mph7.6 kmh 30.09 in1019.0 mb 0.00 in0.0 mm 0.00 in0.0 mm 0.00 in0.0 mm
07:10 AM 68.7°F20.4°C 67.5°F19.7°C 96% 3.7 mph ESE6.0 kmh ESE 4.7 mph7.6 kmh 30.09 in1019.0 mb 0.00 in0.0 mm 0.00 in0.0 mm 0.00 in0.0 mm
07:11 AM 68.7°F20.4°C 67.5°F19.7°C 96% 2.2 mph SE3.5 kmh SE 4.7 mph7.6 kmh 30.09 in1019.0 mb 0.00 in0.0 mm 0.00 in0.0 mm 0.00 in0.0 mm
07:12 AM 68.9°F20.5°C 67.7°F19.8°C 96% 2.2 mph ESE3.5 kmh ESE 4.7 mph7.6 kmh 30.09 in1019.0 mb 0.00 in0.0 mm 0.00 in0.0 mm 0.00 in0.0 mm
07:13 AM 68.9°F20.5°C 67.7°F19.8°C 96% 4.2 mph ESE6.8 kmh ESE 4.7 mph7.6 kmh 30.09 in1019.0 mb 0.00 in0.0 mm 0.00 in0.0 mm 0.00 in0.0 mm
07:14 AM 69.1°F20.6°C 67.9°F19.9°C 96% 2.2 mph SE3.5 kmh SE 4.2 mph6.8 kmh 30.09 in1019.0 mb 0.00 in0.0 mm 0.00 in0.0 mm 0.00 in0.0 mm
07:15 AM 69.3°F20.7°C 68.1°F20.1°C 96% 3.2 mph ESE5.1 kmh ESE 4.7 mph7.6 kmh 30.09 in1019.0 mb 0.00 in0.0 mm 0.00 in0.0 mm 0.00 in0.0 mm
07:16 AM 69.3°F20.7°C 68.1°F20.1°C 96% 4.2 mph ESE6.8 kmh ESE 4.7 mph7.6 kmh 30.09 in1019.0 mb 0.00 in0.0 mm 0.00 in0.0 mm 0.00 in0.0 mm
07:17 AM 69.4°F20.8°C 67.9°F19.9°C 95% 4.2 mph ESE6.8 kmh ESE 4.7 mph7.6 kmh 30.10 in1019.3 mb 0.00 in0.0 mm 0.00 in0.0 mm 0.00 in0.0 mm
07:18 AM 69.8°F21.0°C 68.3°F20.2°C 95% 4.2 mph ESE6.8 kmh ESE 4.7 mph7.6 kmh 30.10 in1019.3 mb 0.00 in0.0 mm 0.00 in0.0 mm 0.00 in0.0 mm
07:19 AM 69.8°F21.0°C 68.3°F20.2°C 95% 3.2 mph ESE5.1 kmh ESE 4.7 mph7.6 kmh 30.10 in1019.3 mb 0.00 in0.0 mm 0.00 in0.0 mm 0.00 in0.0 mm
07:20 AM 69.8°F21.0°C 68.0°F20.0°C 94% 3.2 mph ESE5.1 kmh ESE 4.7 mph7.6 kmh 30.10 in1019.3 mb 0.00 in0.0 mm 0.00 in0.0 mm 0.00 in0.0 mm
07:21 AM 70.0°F21.1°C 67.9°F19.9°C 93% 3.2 mph ESE5.1 kmh ESE 5.8 mph9.3 kmh 30.10 in1019.3 mb 0.00 in0.0 mm 0.00 in0.0 mm 0.00 in0.0 mm
07:22 AM 70.2°F21.2°C 68.0°F20.0°C 93% 5.8 mph ESE9.3 kmh ESE 5.8 mph9.3 kmh 30.10 in1019.3 mb 0.00 in0.0 mm 0.00 in0.0 mm 0.00 in0.0 mm
07:23 AM 70.3°F21.3°C 67.9°F19.9°C 92% 5.3 mph SE8.5 kmh SE 5.8 mph9.3 kmh 30.10 in1019.3 mb 0.00 in0.0 mm 0.00 in0.0 mm 0.00 in0.0 mm
07:24 AM 70.3°F21.3°C 67.9°F19.9°C 92% 5.3 mph ESE8.5 kmh ESE 5.8 mph9.3 kmh 30.10 in1019.3 mb 0.00 in0.0 mm 0.00 in0.0 mm 0.00 in0.0 mm
07:25 AM 70.5°F21.4°C 68.1°F20.1°C 92% 4.7 mph ESE7.6 kmh ESE 5.8 mph9.3 kmh 30.10 in1019.3 mb 0.00 in0.0 mm 0.00 in0.0 mm 0.00 in0.0 mm
07:26 AM 70.5°F21.4°C 68.1°F20.1°C 92% 3.7 mph SE6.0 kmh SE 5.8 mph9.3 kmh 30.10 in1019.3 mb 0.00 in0.0 mm 0.00 in0.0 mm 0.00 in0.0 mm
07:27 AM 70.5°F21.4°C 68.1°F20.1°C 92% 4.7 mph ESE7.6 kmh ESE 5.8 mph9.3 kmh 30.10 in1019.3 mb 0.00 in0.0 mm 0.00 in0.0 mm 0.00 in0.0 mm
07:28 AM 70.7°F21.5°C 68.3°F20.2°C 92% 3.7 mph ESE6.0 kmh ESE 5.8 mph9.3 kmh 30.10 in1019.3 mb 0.00 in0.0 mm 0.00 in0.0 mm 0.00 in0.0 mm
07:29 AM 70.9°F21.6°C 68.1°F20.1°C 91% 2.7 mph ESE4.3 kmh ESE 5.8 mph9.3 kmh 30.10 in1019.3 mb 0.00 in0.0 mm 0.00 in0.0 mm 0.00 in0.0 mm
07:30 AM 70.9°F21.6°C 68.1°F20.1°C 91% 4.2 mph ESE6.8 kmh ESE 5.8 mph9.3 kmh 30.10 in1019.3 mb 0.00 in0.0 mm 0.00 in0.0 mm 0.00 in0.0 mm
07:31 AM 71.4°F21.9°C 68.3°F20.2°C 90% 4.7 mph ESE7.6 kmh ESE 5.8 mph9.3 kmh 30.10 in1019.3 mb 0.00 in0.0 mm 0.00 in0.0 mm 0.00 in0.0 mm
07:32 AM 71.6°F22.0°C 68.5°F20.3°C 90% 4.2 mph ESE6.8 kmh ESE 5.8 mph9.3 kmh 30.10 in1019.3 mb 0.00 in0.0 mm 0.00 in0.0 mm 0.00 in0.0 mm
07:33 AM 71.6°F22.0°C 68.5°F20.3°C 90% 3.7 mph ESE6.0 kmh ESE 5.8 mph9.3 kmh 30.10 in1019.3 mb 0.00 in0.0 mm 0.00 in0.0 mm 0.00 in0.0 mm
07:34 AM 71.6°F22.0°C 68.5°F20.3°C 90% 4.2 mph ESE6.8 kmh ESE 5.8 mph9.3 kmh 30.10 in1019.3 mb 0.00 in0.0 mm 0.00 in0.0 mm 0.00 in0.0 mm
07:35 AM 71.6°F22.0°C 68.5°F20.3°C 90% 4.2 mph ESE6.8 kmh ESE 5.8 mph9.3 kmh 30.10 in1019.3 mb 0.00 in0.0 mm 0.00 in0.0 mm 0.00 in0.0 mm
07:36 AM 71.6°F22.0°C 68.2°F20.1°C 89% 5.3 mph SSE8.5 kmh SSE 5.8 mph9.3 kmh 30.10 in1019.3 mb 0.00 in0.0 mm 0.00 in0.0 mm 0.00 in0.0 mm
07:37 AM 71.6°F22.0°C 68.2°F20.1°C 89% 5.3 mph ESE8.5 kmh ESE 6.3 mph10.1 kmh 30.10 in1019.3 mb 0.00 in0.0 mm 0.00 in0.0 mm 0.00 in0.0 mm
07:38 AM 71.6°F22.0°C 68.2°F20.1°C 89% 4.7 mph ESE7.6 kmh ESE 6.3 mph10.1 kmh 30.10 in1019.3 mb 0.00 in0.0 mm 0.00 in0.0 mm 0.00 in0.0 mm
07:39 AM 72.0°F22.2°C 68.5°F20.3°C 89% 3.7 mph ESE6.0 kmh ESE 6.3 mph10.1 kmh 30.10 in1019.3 mb 0.00 in0.0 mm 0.00 in0.0 mm 0.00 in0.0 mm
07:40 AM 72.1°F22.3°C 68.7°F20.4°C 89% 3.2 mph ESE5.1 kmh ESE 6.3 mph10.1 kmh 30.10 in1019.3 mb 0.00 in0.0 mm 0.00 in0.0 mm 0.00 in0.0 mm
07:41 AM 72.1°F22.3°C 68.7°F20.4°C 89% 3.2 mph ESE5.1 kmh ESE 6.3 mph10.1 kmh 30.10 in1019.3 mb 0.00 in0.0 mm 0.00 in0.0 mm 0.00 in0.0 mm
07:42 AM 72.1°F22.3°C 68.7°F20.4°C 89% 4.7 mph SE7.6 kmh SE 6.3 mph10.1 kmh 30.10 in1019.3 mb 0.00 in0.0 mm 0.00 in0.0 mm 0.00 in0.0 mm
07:43 AM 72.1°F22.3°C 68.7°F20.4°C 89% 5.3 mph ESE8.5 kmh ESE 6.3 mph10.1 kmh 30.10 in1019.3 mb 0.00 in0.0 mm 0.00 in0.0 mm 0.00 in0.0 mm
07:44 AM 72.3°F22.4°C 68.6°F20.3°C 88% 5.3 mph ESE8.5 kmh ESE 6.8 mph10.9 kmh 30.10 in1019.3 mb 0.00 in0.0 mm 0.00 in0.0 mm 0.00 in0.0 mm
07:45 AM 72.1°F22.3°C 68.4°F20.2°C 88% 2.2 mph ESE3.5 kmh ESE 6.8 mph10.9 kmh 30.10 in1019.3 mb 0.00 in0.0 mm 0.00 in0.0 mm 0.00 in0.0 mm
07:46 AM 72.3°F22.4°C 68.6°F20.3°C 88% 6.3 mph E10.1 kmh E 6.8 mph10.9 kmh 30.10 in1019.3 mb 0.00 in0.0 mm 0.00 in0.0 mm 0.00 in0.0 mm
07:47 AM 72.5°F22.5°C 68.7°F20.4°C 88% 3.2 mph ESE5.1 kmh ESE 6.8 mph10.9 kmh 30.10 in1019.3 mb 0.00 in0.0 mm 0.00 in0.0 mm 0.00 in0.0 mm
07:48 AM 72.7°F22.6°C 68.6°F20.3°C 87% 5.3 mph ESE8.5 kmh ESE 6.8 mph10.9 kmh 30.10 in1019.3 mb 0.00 in0.0 mm 0.00 in0.0 mm 0.00 in0.0 mm
07:49 AM 72.7°F22.6°C 68.6°F20.3°C 87% 6.8 mph ESE10.9 kmh ESE 6.8 mph10.9 kmh 30.10 in1019.3 mb 0.00 in0.0 mm 0.00 in0.0 mm 0.00 in0.0 mm
07:50 AM 72.7°F22.6°C 68.6°F20.3°C 87% 4.7 mph ESE7.6 kmh ESE 6.8 mph10.9 kmh 30.10 in1019.3 mb 0.00 in0.0 mm 0.00 in0.0 mm 0.00 in0.0 mm
07:51 AM 72.7°F22.6°C 68.6°F20.3°C 87% 4.7 mph ESE7.6 kmh ESE 6.8 mph10.9 kmh 30.10 in1019.3 mb 0.00 in0.0 mm 0.00 in0.0 mm 0.00 in0.0 mm
07:52 AM 73.0°F22.8°C 68.9°F20.5°C 87% 4.7 mph ESE7.6 kmh ESE 6.8 mph10.9 kmh 30.10 in1019.3 mb 0.00 in0.0 mm 0.00 in0.0 mm 0.00 in0.0 mm
07:53 AM 73.2°F22.9°C 69.1°F20.6°C 87% 4.2 mph SSE6.8 kmh SSE 6.8 mph10.9 kmh 30.10 in1019.3 mb 0.00 in0.0 mm 0.00 in0.0 mm 0.00 in0.0 mm
07:54 AM 73.4°F23.0°C 69.3°F20.7°C 87% 3.7 mph SSE6.0 kmh SSE 6.8 mph10.9 kmh 30.10 in1019.3 mb 0.00 in0.0 mm 0.00 in0.0 mm 0.00 in0.0 mm
07:55 AM 73.6°F23.1°C 69.1°F20.6°C 86% 4.2 mph ESE6.8 kmh ESE 6.8 mph10.9 kmh 30.10 in1019.3 mb 0.00 in0.0 mm 0.00 in0.0 mm 0.00 in0.0 mm
07:56 AM 73.9°F23.3°C 69.5°F20.8°C 86% 2.7 mph ESE4.3 kmh ESE 6.8 mph10.9 kmh 30.10 in1019.3 mb 0.00 in0.0 mm 0.00 in0.0 mm 0.00 in0.0 mm
07:57 AM 74.1°F23.4°C 69.7°F20.9°C 86% 3.2 mph SSE5.1 kmh SSE 6.8 mph10.9 kmh 30.10 in1019.3 mb 0.00 in0.0 mm 0.00 in0.0 mm 0.00 in0.0 mm
07:58 AM 74.3°F23.5°C 69.5°F20.8°C 85% 5.8 mph ESE9.3 kmh ESE 6.8 mph10.9 kmh 30.10 in1019.3 mb 0.00 in0.0 mm 0.00 in0.0 mm 0.00 in0.0 mm
07:59 AM 74.5°F23.6°C 69.3°F20.7°C 84% 7.3 mph ESE11.7 kmh ESE 7.3 mph11.7 kmh 30.10 in1019.3 mb 0.00 in0.0 mm 0.00 in0.0 mm 0.00 in0.0 mm
08:00 AM 74.5°F23.6°C 69.3°F20.7°C 84% 7.3 mph SE11.7 kmh SE 7.3 mph11.7 kmh 30.10 in1019.3 mb 0.00 in0.0 mm 0.00 in0.0 mm 0.00 in0.0 mm
08:01 AM 74.7°F23.7°C 69.5°F20.8°C 84% 5.3 mph SE8.5 kmh SE 7.3 mph11.7 kmh 30.10 in1019.3 mb 0.00 in0.0 mm 0.00 in0.0 mm 0.00 in0.0 mm
08:02 AM 74.7°F23.7°C 69.5°F20.8°C 84% 5.3 mph S8.5 kmh S 8.9 mph14.3 kmh 30.10 in1019.3 mb 0.00 in0.0 mm 0.00 in0.0 mm 0.00 in0.0 mm
08:03 AM 74.8°F23.8°C 69.3°F20.7°C 83% 5.3 mph ESE8.5 kmh ESE 9.4 mph15.1 kmh 30.10 in1019.3 mb 0.00 in0.0 mm 0.00 in0.0 mm 0.00 in0.0 mm
08:04 AM 75.0°F23.9°C 69.5°F20.8°C 83% 4.7 mph ESE7.6 kmh ESE 9.4 mph15.1 kmh 30.10 in1019.3 mb 0.00 in0.0 mm 0.00 in0.0 mm 0.00 in0.0 mm
08:05 AM 75.0°F23.9°C 69.5°F20.8°C 83% 9.9 mph SE15.9 kmh SE 9.9 mph15.9 kmh 30.10 in1019.3 mb 0.00 in0.0 mm 0.00 in0.0 mm 0.00 in0.0 mm
08:06 AM 75.2°F24.0°C 69.3°F20.7°C 82% 8.9 mph ESE14.3 kmh ESE 10.9 mph17.5 kmh 30.10 in1019.3 mb 0.00 in0.0 mm 0.00 in0.0 mm 0.00 in0.0 mm
08:07 AM 75.0°F23.9°C 69.1°F20.6°C 82% 7.3 mph ESE11.7 kmh ESE 10.9 mph17.5 kmh 30.10 in1019.3 mb 0.00 in0.0 mm 0.00 in0.0 mm 0.00 in0.0 mm
08:08 AM 75.2°F24.0°C 69.3°F20.7°C 82% 6.8 mph ESE10.9 kmh ESE 10.9 mph17.5 kmh 30.10 in1019.3 mb 0.00 in0.0 mm 0.00 in0.0 mm 0.00 in0.0 mm
08:09 AM 75.2°F24.0°C 69.3°F20.7°C 82% 5.3 mph ESE8.5 kmh ESE 10.9 mph17.5 kmh 30.10 in1019.3 mb 0.00 in0.0 mm 0.00 in0.0 mm 0.00 in0.0 mm
08:10 AM 75.2°F24.0°C 69.3°F20.7°C 82% 6.8 mph SE10.9 kmh SE 10.9 mph17.5 kmh 30.10 in1019.3 mb 0.00 in0.0 mm 0.00 in0.0 mm 0.00 in0.0 mm
08:11 AM 75.6°F24.2°C 69.7°F20.9°C 82% 4.7 mph SE7.6 kmh SE 10.9 mph17.5 kmh 30.10 in1019.3 mb 0.00 in0.0 mm 0.00 in0.0 mm 0.00 in0.0 mm
08:12 AM 75.6°F24.2°C 69.3°F20.7°C 81% 8.9 mph SE14.3 kmh SE 10.9 mph17.5 kmh 30.10 in1019.3 mb 0.00 in0.0 mm 0.00 in0.0 mm 0.00 in0.0 mm
08:13 AM 75.6°F24.2°C 69.3°F20.7°C 81% 4.2 mph SSE6.8 kmh SSE 10.9 mph17.5 kmh 30.10 in1019.3 mb 0.00 in0.0 mm 0.00 in0.0 mm 0.00 in0.0 mm
08:14 AM 75.6°F24.2°C 69.3°F20.7°C 81% 4.7 mph SSE7.6 kmh SSE 10.9 mph17.5 kmh 30.10 in1019.3 mb 0.00 in0.0 mm 0.00 in0.0 mm 0.00 in0.0 mm
08:15 AM 75.6°F24.2°C 69.3°F20.7°C 81% 6.3 mph SSE10.1 kmh SSE 10.9 mph17.5 kmh 30.10 in1019.3 mb 0.00 in0.0 mm 0.00 in0.0 mm 0.00 in0.0 mm
08:16 AM 75.6°F24.2°C 69.3°F20.7°C 81% 6.3 mph ESE10.1 kmh ESE 8.9 mph14.3 kmh 30.10 in1019.3 mb 0.00 in0.0 mm 0.00 in0.0 mm 0.00 in0.0 mm
08:17 AM 75.6°F24.2°C 69.3°F20.7°C 81% 3.2 mph SSE5.1 kmh SSE 9.4 mph15.1 kmh 30.11 in1019.6 mb 0.00 in0.0 mm 0.00 in0.0 mm 0.00 in0.0 mm
08:18 AM 75.6°F24.2°C 69.3°F20.7°C 81% 6.8 mph SSE10.9 kmh SSE 9.4 mph15.1 kmh 30.11 in1019.6 mb 0.00 in0.0 mm 0.00 in0.0 mm 0.00 in0.0 mm
08:19 AM 75.6°F24.2°C 69.3°F20.7°C 81% 5.8 mph S9.3 kmh S 9.4 mph15.1 kmh 30.11 in1019.6 mb 0.00 in0.0 mm 0.00 in0.0 mm 0.00 in0.0 mm
08:20 AM 75.7°F24.3°C 69.5°F20.8°C 81% 6.8 mph ESE10.9 kmh ESE 9.4 mph15.1 kmh 30.11 in1019.6 mb 0.00 in0.0 mm 0.00 in0.0 mm 0.00 in0.0 mm
08:21 AM 75.9°F24.4°C 69.7°F20.9°C 81% 7.8 mph ESE12.6 kmh ESE 9.4 mph15.1 kmh 30.11 in1019.6 mb 0.00 in0.0 mm 0.00 in0.0 mm 0.00 in0.0 mm
08:22 AM 76.1°F24.5°C 69.5°F20.8°C 80% 9.4 mph S15.1 kmh S 9.4 mph15.1 kmh 30.11 in1019.6 mb 0.00 in0.0 mm 0.00 in0.0 mm 0.00 in0.0 mm
08:23 AM 76.1°F24.5°C 69.5°F20.8°C 80% 6.8 mph SE10.9 kmh SE 10.4 mph16.7 kmh 30.11 in1019.6 mb 0.00 in0.0 mm 0.00 in0.0 mm 0.00 in0.0 mm
08:24 AM 76.1°F24.5°C 69.5°F20.8°C 80% 5.8 mph SSE9.3 kmh SSE 10.4 mph16.7 kmh 30.11 in1019.6 mb 0.00 in0.0 mm 0.00 in0.0 mm 0.00 in0.0 mm
08:25 AM 76.3°F24.6°C 69.6°F20.9°C 80% 5.8 mph E9.3 kmh E 10.4 mph16.7 kmh 30.11 in1019.6 mb 0.00 in0.0 mm 0.00 in0.0 mm 0.00 in0.0 mm
08:26 AM 76.5°F24.7°C 69.8°F21.0°C 80% 4.7 mph SSE7.6 kmh SSE 10.4 mph16.7 kmh 30.11 in1019.6 mb 0.00 in0.0 mm 0.00 in0.0 mm 0.00 in0.0 mm
08:27 AM 76.5°F24.7°C 69.8°F21.0°C 80% 9.4 mph SSE15.1 kmh SSE 10.4 mph16.7 kmh 30.11 in1019.6 mb 0.00 in0.0 mm 0.00 in0.0 mm 0.00 in0.0 mm
08:28 AM 76.6°F24.8°C 69.6°F20.9°C 79% 5.3 mph S8.5 kmh S 10.4 mph16.7 kmh 30.11 in1019.6 mb 0.00 in0.0 mm 0.00 in0.0 mm 0.00 in0.0 mm
08:29 AM 76.3°F24.6°C 69.6°F20.9°C 80% 4.7 mph SSE7.6 kmh SSE 10.4 mph16.7 kmh 30.11 in1019.6 mb 0.00 in0.0 mm 0.00 in0.0 mm 0.00 in0.0 mm
08:30 AM 76.1°F24.5°C 69.5°F20.8°C 80% 7.3 mph SSE11.7 kmh SSE 10.4 mph16.7 kmh 30.11 in1019.6 mb 0.00 in0.0 mm 0.00 in0.0 mm 0.00 in0.0 mm
08:31 AM 75.9°F24.4°C 69.3°F20.7°C 80% 6.8 mph SE10.9 kmh SE 10.4 mph16.7 kmh 30.11 in1019.6 mb 0.00 in0.0 mm 0.00 in0.0 mm 0.00 in0.0 mm
08:32 AM 76.1°F24.5°C 69.5°F20.8°C 80% 7.3 mph ESE11.7 kmh ESE 10.4 mph16.7 kmh 30.11 in1019.6 mb 0.00 in0.0 mm 0.00 in0.0 mm 0.00 in0.0 mm
08:33 AM 76.1°F24.5°C 69.5°F20.8°C 80% 9.4 mph ESE15.1 kmh ESE 9.9 mph15.9 kmh 30.11 in1019.6 mb 0.00 in0.0 mm 0.00 in0.0 mm 0.00 in0.0 mm
08:34 AM 76.3°F24.6°C 69.6°F20.9°C 80% 6.8 mph ESE10.9 kmh ESE 9.9 mph15.9 kmh 30.11 in1019.6 mb 0.00 in0.0 mm 0.00 in0.0 mm 0.00 in0.0 mm
08:35 AM 76.3°F24.6°C 69.6°F20.9°C 80% 5.8 mph SE9.3 kmh SE 9.9 mph15.9 kmh 30.11 in1019.6 mb 0.00 in0.0 mm 0.00 in0.0 mm 0.00 in0.0 mm
08:36 AM 76.3°F24.6°C 69.6°F20.9°C 80% 7.8 mph ESE12.6 kmh ESE 9.9 mph15.9 kmh 30.11 in1019.6 mb 0.00 in0.0 mm 0.00 in0.0 mm 0.00 in0.0 mm
08:37 AM 76.3°F24.6°C 69.6°F20.9°C 80% 5.3 mph ESE8.5 kmh ESE 9.9 mph15.9 kmh 30.11 in1019.6 mb 0.00 in0.0 mm 0.00 in0.0 mm 0.00 in0.0 mm
08:38 AM 76.3°F24.6°C 69.6°F20.9°C 80% 9.4 mph ESE15.1 kmh ESE 9.9 mph15.9 kmh 30.11 in1019.6 mb 0.00 in0.0 mm 0.00 in0.0 mm 0.00 in0.0 mm
08:39 AM 76.5°F24.7°C 69.4°F20.8°C 79% 9.4 mph SSE15.1 kmh SSE 9.9 mph15.9 kmh 30.11 in1019.6 mb 0.00 in0.0 mm 0.00 in0.0 mm 0.00 in0.0 mm
08:40 AM 76.3°F24.6°C 69.3°F20.7°C 79% 7.8 mph ESE12.6 kmh ESE 9.9 mph15.9 kmh 30.11 in1019.6 mb 0.00 in0.0 mm 0.00 in0.0 mm 0.00 in0.0 mm
08:41 AM 76.3°F24.6°C 69.3°F20.7°C 79% 6.8 mph SSE10.9 kmh SSE 9.9 mph15.9 kmh 30.11 in1019.6 mb 0.00 in0.0 mm 0.00 in0.0 mm 0.00 in0.0 mm
08:42 AM 76.6°F24.8°C 69.6°F20.9°C 79% 7.3 mph ESE11.7 kmh ESE 9.9 mph15.9 kmh 30.11 in1019.6 mb 0.00 in0.0 mm 0.00 in0.0 mm 0.00 in0.0 mm
08:43 AM 76.8°F24.9°C 69.8°F21.0°C 79% 6.3 mph SSE10.1 kmh SSE 9.4 mph15.1 kmh 30.11 in1019.6 mb 0.00 in0.0 mm 0.00 in0.0 mm 0.00 in0.0 mm
08:44 AM 77.2°F25.1°C 70.1°F21.2°C 79% 5.8 mph SE9.3 kmh SE 9.4 mph15.1 kmh 30.11 in1019.6 mb 0.00 in0.0 mm 0.00 in0.0 mm 0.00 in0.0 mm
08:45 AM 77.2°F25.1°C 70.1°F21.2°C 79% 9.4 mph ESE15.1 kmh ESE 10.4 mph16.7 kmh 30.11 in1019.6 mb 0.00 in0.0 mm 0.00 in0.0 mm 0.00 in0.0 mm
08:46 AM 76.8°F24.9°C 69.4°F20.8°C 78% 6.3 mph S10.1 kmh S 10.4 mph16.7 kmh 30.11 in1019.6 mb 0.00 in0.0 mm 0.00 in0.0 mm 0.00 in0.0 mm
08:47 AM 76.6°F24.8°C 69.6°F20.9°C 79% 7.3 mph SSE11.7 kmh SSE 10.4 mph16.7 kmh 30.11 in1019.6 mb 0.00 in0.0 mm 0.00 in0.0 mm 0.00 in0.0 mm
08:48 AM 76.5°F24.7°C 69.4°F20.8°C 79% 10.4 mph ESE16.7 kmh ESE 10.4 mph16.7 kmh 30.11 in1019.6 mb 0.00 in0.0 mm 0.00 in0.0 mm 0.00 in0.0 mm
08:49 AM 76.5°F24.7°C 69.4°F20.8°C 79% 7.3 mph SE11.7 kmh SE 10.4 mph16.7 kmh 30.11 in1019.6 mb 0.00 in0.0 mm 0.00 in0.0 mm 0.00 in0.0 mm
08:50 AM 76.5°F24.7°C 69.4°F20.8°C 79% 7.3 mph SSE11.7 kmh SSE 10.4 mph16.7 kmh 30.11 in1019.6 mb 0.00 in0.0 mm 0.00 in0.0 mm 0.00 in0.0 mm
08:51 AM 76.5°F24.7°C 69.4°F20.8°C 79% 4.2 mph ESE6.8 kmh ESE 10.4 mph16.7 kmh 30.11 in1019.6 mb 0.00 in0.0 mm 0.00 in0.0 mm 0.00 in0.0 mm
08:52 AM 76.5°F24.7°C 69.4°F20.8°C 79% 7.3 mph ESE11.7 kmh ESE 10.4 mph16.7 kmh 30.11 in1019.6 mb 0.00 in0.0 mm 0.00 in0.0 mm 0.00 in0.0 mm
08:53 AM 76.6°F24.8°C 69.6°F20.9°C 79% 6.3 mph SE10.1 kmh SE 10.4 mph16.7 kmh 30.10 in1019.3 mb 0.00 in0.0 mm 0.00 in0.0 mm 0.00 in0.0 mm
08:54 AM 77.0°F25.0°C 70.0°F21.1°C 79% 5.3 mph SSE8.5 kmh SSE 10.4 mph16.7 kmh 30.10 in1019.3 mb 0.00 in0.0 mm 0.00 in0.0 mm 0.00 in0.0 mm
08:55 AM 77.0°F25.0°C 70.0°F21.1°C 79% 7.3 mph ESE11.7 kmh ESE 10.4 mph16.7 kmh 30.10 in1019.3 mb 0.00 in0.0 mm 0.00 in0.0 mm 0.00 in0.0 mm
08:56 AM 77.0°F25.0°C 70.0°F21.1°C 79% 5.8 mph S9.3 kmh S 10.4 mph16.7 kmh 30.10 in1019.3 mb 0.00 in0.0 mm 0.00 in0.0 mm 0.00 in0.0 mm
08:57 AM 77.0°F25.0°C 69.6°F20.9°C 78% 5.3 mph ESE8.5 kmh ESE 10.4 mph16.7 kmh 30.10 in1019.3 mb 0.00 in0.0 mm 0.00 in0.0 mm 0.00 in0.0 mm
08:58 AM 77.4°F25.2°C 69.9°F21.1°C 78% 7.8 mph S12.6 kmh S 10.4 mph16.7 kmh 30.10 in1019.3 mb 0.00 in0.0 mm 0.00 in0.0 mm 0.00 in0.0 mm
08:59 AM 77.2°F25.1°C 69.8°F21.0°C 78% 9.4 mph S15.1 kmh S 10.4 mph16.7 kmh 30.10 in1019.3 mb 0.00 in0.0 mm 0.00 in0.0 mm 0.00 in0.0 mm
09:00 AM 77.0°F25.0°C 69.6°F20.9°C 78% 6.8 mph ESE10.9 kmh ESE 10.4 mph16.7 kmh 30.10 in1019.3 mb 0.00 in0.0 mm 0.00 in0.0 mm 0.00 in0.0 mm
09:01 AM 77.2°F25.1°C 69.8°F21.0°C 78% 7.3 mph SSE11.7 kmh SSE 10.4 mph16.7 kmh 30.10 in1019.3 mb 0.00 in0.0 mm 0.00 in0.0 mm 0.00 in0.0 mm
09:02 AM 77.2°F25.1°C 69.8°F21.0°C 78% 6.8 mph SE10.9 kmh SE 10.4 mph16.7 kmh 30.10 in1019.3 mb 0.00 in0.0 mm 0.00 in0.0 mm 0.00 in0.0 mm
09:03 AM 77.4°F25.2°C 69.9°F21.1°C 78% 8.3 mph ESE13.4 kmh ESE 9.9 mph15.9 kmh 30.10 in1019.3 mb 0.00 in0.0 mm 0.00 in0.0 mm 0.00 in0.0 mm
09:04 AM 77.4°F25.2°C 69.9°F21.1°C 78% 6.8 mph SE10.9 kmh SE 9.9 mph15.9 kmh 30.10 in1019.3 mb 0.00 in0.0 mm 0.00 in0.0 mm 0.00 in0.0 mm
09:05 AM 77.4°F25.2°C 69.9°F21.1°C 78% 7.8 mph SSE12.6 kmh SSE 9.9 mph15.9 kmh 30.11 in1019.6 mb 0.00 in0.0 mm 0.00 in0.0 mm 0.00 in0.0 mm
09:06 AM 77.4°F25.2°C 69.9°F21.1°C 78% 6.3 mph SSE10.1 kmh SSE 9.9 mph15.9 kmh 30.11 in1019.6 mb 0.00 in0.0 mm 0.00 in0.0 mm 0.00 in0.0 mm
09:07 AM 77.5°F25.3°C 69.7°F20.9°C 77% 4.7 mph SSE7.6 kmh SSE 10.4 mph16.7 kmh 30.11 in1019.6 mb 0.00 in0.0 mm 0.00 in0.0 mm 0.00 in0.0 mm
09:08 AM 77.7°F25.4°C 69.9°F21.1°C 77% 6.3 mph SSE10.1 kmh SSE 10.4 mph16.7 kmh 30.11 in1019.6 mb 0.00 in0.0 mm 0.00 in0.0 mm 0.00 in0.0 mm
09:09 AM 77.7°F25.4°C 69.9°F21.1°C 77% 6.8 mph ESE10.9 kmh ESE 10.4 mph16.7 kmh 30.11 in1019.6 mb 0.00 in0.0 mm 0.00 in0.0 mm 0.00 in0.0 mm
09:10 AM 77.7°F25.4°C 69.9°F21.1°C 77% 4.2 mph SE6.8 kmh SE 10.4 mph16.7 kmh 30.11 in1019.6 mb 0.00 in0.0 mm 0.00 in0.0 mm 0.00 in0.0 mm
09:11 AM 78.1°F25.6°C 70.3°F21.3°C 77% 7.3 mph ESE11.7 kmh ESE 10.4 mph16.7 kmh 30.11 in1019.6 mb 0.00 in0.0 mm 0.00 in0.0 mm 0.00 in0.0 mm
09:12 AM 78.1°F25.6°C 70.3°F21.3°C 77% 7.8 mph ESE12.6 kmh ESE 10.4 mph16.7 kmh 30.11 in1019.6 mb 0.00 in0.0 mm 0.00 in0.0 mm 0.00 in0.0 mm
09:13 AM 78.1°F25.6°C 70.3°F21.3°C 77% 5.8 mph S9.3 kmh S 10.4 mph16.7 kmh 30.11 in1019.6 mb 0.00 in0.0 mm 0.00 in0.0 mm 0.00 in0.0 mm
09:14 AM 78.1°F25.6°C 70.3°F21.3°C 77% 5.8 mph S9.3 kmh S 10.4 mph16.7 kmh 30.11 in1019.6 mb 0.00 in0.0 mm 0.00 in0.0 mm 0.00 in0.0 mm
09:15 AM 77.7°F25.4°C 69.9°F21.1°C 77% 4.2 mph SSE6.8 kmh SSE 10.4 mph16.7 kmh 30.11 in1019.6 mb 0.00 in0.0 mm 0.00 in0.0 mm 0.00 in0.0 mm
09:16 AM 78.1°F25.6°C 70.3°F21.3°C 77% 5.3 mph SE8.5 kmh SE 10.4 mph16.7 kmh 30.11 in1019.6 mb 0.00 in0.0 mm 0.00 in0.0 mm 0.00 in0.0 mm
09:17 AM 78.1°F25.6°C 70.3°F21.3°C 77% 7.3 mph ESE11.7 kmh ESE 9.9 mph15.9 kmh 30.11 in1019.6 mb 0.00 in0.0 mm 0.00 in0.0 mm 0.00 in0.0 mm
09:18 AM 78.1°F25.6°C 70.3°F21.3°C 77% 6.3 mph SSE10.1 kmh SSE 9.9 mph15.9 kmh 30.11 in1019.6 mb 0.00 in0.0 mm 0.00 in0.0 mm 0.00 in0.0 mm
09:19 AM 77.9°F25.5°C 70.1°F21.2°C 77% 8.3 mph SSE13.4 kmh SSE 9.9 mph15.9 kmh 30.11 in1019.6 mb 0.00 in0.0 mm 0.00 in0.0 mm 0.00 in0.0 mm
09:20 AM 77.9°F25.5°C 70.1°F21.2°C 77% 4.7 mph SSE7.6 kmh SSE 9.9 mph15.9 kmh 30.11 in1019.6 mb 0.00 in0.0 mm 0.00 in0.0 mm 0.00 in0.0 mm
09:21 AM 78.3°F25.7°C 70.4°F21.3°C 77% 6.3 mph S10.1 kmh S 9.9 mph15.9 kmh 30.11 in1019.6 mb 0.00 in0.0 mm 0.00 in0.0 mm 0.00 in0.0 mm
09:22 AM 78.3°F25.7°C 70.1°F21.2°C 76% 7.3 mph S11.7 kmh S 9.9 mph15.9 kmh 30.11 in1019.6 mb 0.00 in0.0 mm 0.00 in0.0 mm 0.00 in0.0 mm
09:23 AM 78.4°F25.8°C 70.2°F21.2°C 76% 7.3 mph ESE11.7 kmh ESE 9.9 mph15.9 kmh 30.11 in1019.6 mb 0.00 in0.0 mm 0.00 in0.0 mm 0.00 in0.0 mm
09:24 AM 78.3°F25.7°C 70.1°F21.2°C 76% 9.9 mph ESE15.9 kmh ESE 9.9 mph15.9 kmh 30.11 in1019.6 mb 0.00 in0.0 mm 0.00 in0.0 mm 0.00 in0.0 mm
09:25 AM 78.3°F25.7°C 70.1°F21.2°C 76% 9.4 mph S15.1 kmh S 9.9 mph15.9 kmh 30.11 in1019.6 mb 0.00 in0.0 mm 0.00 in0.0 mm 0.00 in0.0 mm
09:26 AM 78.1°F25.6°C 69.9°F21.1°C 76% 6.3 mph SSE10.1 kmh SSE 9.9 mph15.9 kmh 30.11 in1019.6 mb 0.00 in0.0 mm 0.00 in0.0 mm 0.00 in0.0 mm
09:27 AM 78.1°F25.6°C 69.9°F21.1°C 76% 6.3 mph SSE10.1 kmh SSE 9.9 mph15.9 kmh 30.11 in1019.6 mb 0.00 in0.0 mm 0.00 in0.0 mm 0.00 in0.0 mm
09:28 AM 78.4°F25.8°C 70.2°F21.2°C 76% 3.7 mph ESE6.0 kmh ESE 9.9 mph15.9 kmh 30.11 in1019.6 mb 0.00 in0.0 mm 0.00 in0.0 mm 0.00 in0.0 mm
09:29 AM 78.6°F25.9°C 70.4°F21.3°C 76% 6.3 mph SE10.1 kmh SE 9.9 mph15.9 kmh 30.11 in1019.6 mb 0.00 in0.0 mm 0.00 in0.0 mm 0.00 in0.0 mm
09:30 AM 78.6°F25.9°C 70.4°F21.3°C 76% 4.7 mph ESE7.6 kmh ESE 9.9 mph15.9 kmh 30.11 in1019.6 mb 0.00 in0.0 mm 0.00 in0.0 mm 0.00 in0.0 mm
09:31 AM 78.6°F25.9°C 70.4°F21.3°C 76% 8.3 mph SSE13.4 kmh SSE 9.9 mph15.9 kmh 30.11 in1019.6 mb 0.00 in0.0 mm 0.00 in0.0 mm 0.00 in0.0 mm
09:32 AM 78.4°F25.8°C 70.2°F21.2°C 76% 7.8 mph ESE12.6 kmh ESE 9.9 mph15.9 kmh 30.11 in1019.6 mb 0.00 in0.0 mm 0.00 in0.0 mm 0.00 in0.0 mm
09:33 AM 78.3°F25.7°C 70.1°F21.2°C 76% 5.8 mph S9.3 kmh S 9.9 mph15.9 kmh 30.11 in1019.6 mb 0.00 in0.0 mm 0.00 in0.0 mm 0.00 in0.0 mm
09:34 AM 78.1°F25.6°C 70.3°F21.3°C 77% 9.9 mph S15.9 kmh S 9.9 mph15.9 kmh 30.11 in1019.6 mb 0.00 in0.0 mm 0.00 in0.0 mm 0.00 in0.0 mm
09:35 AM 78.1°F25.6°C 70.3°F21.3°C 77% 7.8 mph S12.6 kmh S 9.9 mph15.9 kmh 30.11 in1019.6 mb 0.00 in0.0 mm 0.00 in0.0 mm 0.00 in0.0 mm
09:36 AM 77.7°F25.4°C 69.9°F21.1°C 77% 5.8 mph SSE9.3 kmh SSE 10.9 mph17.5 kmh 30.11 in1019.6 mb 0.00 in0.0 mm 0.00 in0.0 mm 0.00 in0.0 mm
09:37 AM 77.9°F25.5°C 70.1°F21.2°C 77% 7.8 mph S12.6 kmh S 10.9 mph17.5 kmh 30.11 in1019.6 mb 0.00 in0.0 mm 0.00 in0.0 mm 0.00 in0.0 mm
09:38 AM 78.1°F25.6°C 70.3°F21.3°C 77% 6.3 mph S10.1 kmh S 10.9 mph17.5 kmh 30.11 in1019.6 mb 0.00 in0.0 mm 0.00 in0.0 mm 0.00 in0.0 mm
09:39 AM 78.3°F25.7°C 70.4°F21.3°C 77% 4.7 mph ESE7.6 kmh ESE 10.9 mph17.5 kmh 30.11 in1019.6 mb 0.00 in0.0 mm 0.00 in0.0 mm 0.00 in0.0 mm
09:40 AM 78.6°F25.9°C 70.4°F21.3°C 76% 5.3 mph SSE8.5 kmh SSE 10.9 mph17.5 kmh 30.11 in1019.6 mb 0.00 in0.0 mm 0.00 in0.0 mm 0.00 in0.0 mm
09:41 AM 78.8°F26.0°C 70.6°F21.4°C 76% 6.3 mph ESE10.1 kmh ESE 10.9 mph17.5 kmh 30.11 in1019.6 mb 0.00 in0.0 mm 0.00 in0.0 mm 0.00 in0.0 mm
09:42 AM 79.0°F26.1°C 70.8°F21.6°C 76% 4.7 mph ESE7.6 kmh ESE 10.9 mph17.5 kmh 30.11 in1019.6 mb 0.00 in0.0 mm 0.00 in0.0 mm 0.00 in0.0 mm
09:43 AM 79.3°F26.3°C 70.3°F21.3°C 74% 8.3 mph SSE13.4 kmh SSE 10.9 mph17.5 kmh 30.11 in1019.6 mb 0.00 in0.0 mm 0.00 in0.0 mm 0.00 in0.0 mm
09:44 AM 79.2°F26.2°C 70.1°F21.2°C 74% 7.3 mph SSE11.7 kmh SSE 10.9 mph17.5 kmh 30.11 in1019.6 mb 0.00 in0.0 mm 0.00 in0.0 mm 0.00 in0.0 mm
09:45 AM 79.2°F26.2°C 70.5°F21.4°C 75% 12.0 mph ESE19.3 kmh ESE 11.9 mph19.2 kmh 30.11 in1019.6 mb 0.00 in0.0 mm 0.00 in0.0 mm 0.00 in0.0 mm
09:46 AM 79.2°F26.2°C 70.1°F21.2°C 74% 6.8 mph ESE10.9 kmh ESE 11.9 mph19.2 kmh 30.11 in1019.6 mb 0.00 in0.0 mm 0.00 in0.0 mm 0.00 in0.0 mm
09:47 AM 79.2°F26.2°C 70.1°F21.2°C 74% 7.3 mph ESE11.7 kmh ESE 11.9 mph19.2 kmh 30.11 in1019.6 mb 0.00 in0.0 mm 0.00 in0.0 mm 0.00 in0.0 mm
09:48 AM 79.3°F26.3°C 70.3°F21.3°C 74% 7.3 mph SE11.7 kmh SE 11.9 mph19.2 kmh 30.11 in1019.6 mb 0.00 in0.0 mm 0.00 in0.0 mm 0.00 in0.0 mm
09:49 AM 79.3°F26.3°C 70.3°F21.3°C 74% 9.9 mph S15.9 kmh S 11.9 mph19.2 kmh 30.11 in1019.6 mb 0.00 in0.0 mm 0.00 in0.0 mm 0.00 in0.0 mm
09:50 AM 79.2°F26.2°C 70.1°F21.2°C 74% 5.8 mph SW9.3 kmh SW 11.9 mph19.2 kmh 30.11 in1019.6 mb 0.00 in0.0 mm 0.00 in0.0 mm 0.00 in0.0 mm
09:51 AM 79.2°F26.2°C 70.1°F21.2°C 74% 6.8 mph ESE10.9 kmh ESE 11.9 mph19.2 kmh 30.11 in1019.6 mb 0.00 in0.0 mm 0.00 in0.0 mm 0.00 in0.0 mm
09:52 AM 79.0°F26.1°C 70.0°F21.1°C 74% 7.3 mph SSE11.7 kmh SSE 11.9 mph19.2 kmh 30.11 in1019.6 mb 0.00 in0.0 mm 0.00 in0.0 mm 0.00 in0.0 mm
09:53 AM 79.0°F26.1°C 70.4°F21.3°C 75% 6.3 mph SSE10.1 kmh SSE 11.9 mph19.2 kmh 30.11 in1019.6 mb 0.00 in0.0 mm 0.00 in0.0 mm 0.00 in0.0 mm
09:54 AM 79.3°F26.3°C 70.7°F21.5°C 75% 6.3 mph ESE10.1 kmh ESE 11.9 mph19.2 kmh 30.11 in1019.6 mb 0.00 in0.0 mm 0.00 in0.0 mm 0.00 in0.0 mm
09:55 AM 79.5°F26.4°C 70.9°F21.6°C 75% 5.3 mph SE8.5 kmh SE 11.9 mph19.2 kmh 30.11 in1019.6 mb 0.00 in0.0 mm 0.00 in0.0 mm 0.00 in0.0 mm
09:56 AM 79.3°F26.3°C 70.7°F21.5°C 75% 7.8 mph SSE12.6 kmh SSE 10.4 mph16.7 kmh 30.11 in1019.6 mb 0.00 in0.0 mm 0.00 in0.0 mm 0.00 in0.0 mm
09:57 AM 79.5°F26.4°C 70.9°F21.6°C 75% 7.8 mph SSE12.6 kmh SSE 10.4 mph16.7 kmh 30.11 in1019.6 mb 0.00 in0.0 mm 0.00 in0.0 mm 0.00 in0.0 mm
09:58 AM 79.3°F26.3°C 70.7°F21.5°C 75% 7.3 mph ESE11.7 kmh ESE 10.4 mph16.7 kmh 30.11 in1019.6 mb 0.00 in0.0 mm 0.00 in0.0 mm 0.00 in0.0 mm
09:59 AM 79.2°F26.2°C 70.5°F21.4°C 75% 7.8 mph SE12.6 kmh SE 10.4 mph16.7 kmh 30.11 in1019.6 mb 0.00 in0.0 mm 0.00 in0.0 mm 0.00 in0.0 mm
10:00 AM 78.8°F26.0°C 70.2°F21.2°C 75% 6.8 mph SSW10.9 kmh SSW 10.4 mph16.7 kmh 30.11 in1019.6 mb 0.00 in0.0 mm 0.00 in0.0 mm 0.00 in0.0 mm
10:01 AM 78.8°F26.0°C 70.2°F21.2°C 75% 7.3 mph S11.7 kmh S 9.9 mph15.9 kmh 30.11 in1019.6 mb 0.00 in0.0 mm 0.00 in0.0 mm 0.00 in0.0 mm
10:02 AM 79.0°F26.1°C 70.8°F21.6°C 76% 3.7 mph SSW6.0 kmh SSW 9.9 mph15.9 kmh 30.11 in1019.6 mb 0.00 in0.0 mm 0.00 in0.0 mm 0.00 in0.0 mm
10:03 AM 79.9°F26.6°C 70.8°F21.6°C 74% 5.8 mph ESE9.3 kmh ESE 9.9 mph15.9 kmh 30.11 in1019.6 mb 0.00 in0.0 mm 0.00 in0.0 mm 0.00 in0.0 mm
10:04 AM 80.2°F26.8°C 71.2°F21.8°C 74% 6.8 mph ESE10.9 kmh ESE 9.9 mph15.9 kmh 30.11 in1019.6 mb 0.00 in0.0 mm 0.00 in0.0 mm 0.00 in0.0 mm
10:05 AM 80.1°F26.7°C 71.0°F21.7°C 74% 7.3 mph SE11.7 kmh SE 9.9 mph15.9 kmh 30.11 in1019.6 mb 0.00 in0.0 mm 0.00 in0.0 mm 0.00 in0.0 mm
10:06 AM 79.7°F26.5°C 70.7°F21.5°C 74% 8.9 mph S14.3 kmh S 11.4 mph18.3 kmh 30.11 in1019.6 mb 0.00 in0.0 mm 0.00 in0.0 mm 0.00 in0.0 mm
10:07 AM 79.7°F26.5°C 70.7°F21.5°C 74% 6.8 mph SSE10.9 kmh SSE 11.4 mph18.3 kmh 30.11 in1019.6 mb 0.00 in0.0 mm 0.00 in0.0 mm 0.00 in0.0 mm
10:08 AM 79.2°F26.2°C 70.5°F21.4°C 75% 4.2 mph SSE6.8 kmh SSE 11.4 mph18.3 kmh 30.11 in1019.6 mb 0.00 in0.0 mm 0.00 in0.0 mm 0.00 in0.0 mm
10:09 AM 79.3°F26.3°C 70.3°F21.3°C 74% 7.8 mph SSE12.6 kmh SSE 11.4 mph18.3 kmh 30.11 in1019.6 mb 0.00 in0.0 mm 0.00 in0.0 mm 0.00 in0.0 mm
10:10 AM 79.3°F26.3°C 70.3°F21.3°C 74% 9.4 mph SE15.1 kmh SE 11.4 mph18.3 kmh 30.11 in1019.6 mb 0.00 in0.0 mm 0.00 in0.0 mm 0.00 in0.0 mm
10:11 AM 79.2°F26.2°C 70.1°F21.2°C 74% 4.7 mph S7.6 kmh S 11.4 mph18.3 kmh 30.11 in1019.6 mb 0.00 in0.0 mm 0.00 in0.0 mm 0.00 in0.0 mm
10:12 AM 79.5°F26.4°C 70.5°F21.4°C 74% 7.8 mph ESE12.6 kmh ESE 11.4 mph18.3 kmh 30.11 in1019.6 mb 0.00 in0.0 mm 0.00 in0.0 mm 0.00 in0.0 mm
10:13 AM 79.5°F26.4°C 70.5°F21.4°C 74% 5.8 mph SSW9.3 kmh SSW 11.4 mph18.3 kmh 30.11 in1019.6 mb 0.00 in0.0 mm 0.00 in0.0 mm 0.00 in0.0 mm
10:14 AM 79.7°F26.5°C 70.3°F21.3°C 73% 8.9 mph SE14.3 kmh SE 11.4 mph18.3 kmh 30.11 in1019.6 mb 0.00 in0.0 mm 0.00 in0.0 mm 0.00 in0.0 mm
10:15 AM 79.9°F26.6°C 70.4°F21.3°C 73% 8.3 mph ESE13.4 kmh ESE 11.4 mph18.3 kmh 30.11 in1019.6 mb 0.00 in0.0 mm 0.00 in0.0 mm 0.00 in0.0 mm
10:16 AM 80.1°F26.7°C 70.6°F21.4°C 73% 5.8 mph SE9.3 kmh SE 10.9 mph17.5 kmh 30.11 in1019.6 mb 0.00 in0.0 mm 0.00 in0.0 mm 0.00 in0.0 mm
10:17 AM 79.9°F26.6°C 70.4°F21.3°C 73% 8.9 mph SE14.3 kmh SE 10.9 mph17.5 kmh 30.11 in1019.6 mb 0.00 in0.0 mm 0.00 in0.0 mm 0.00 in0.0 mm
10:18 AM 80.1°F26.7°C 70.2°F21.2°C 72% 6.8 mph ESE10.9 kmh ESE 10.9 mph17.5 kmh 30.11 in1019.6 mb 0.00 in0.0 mm 0.00 in0.0 mm 0.00 in0.0 mm
10:19 AM 79.9°F26.6°C 70.4°F21.3°C 73% 4.7 mph SSE7.6 kmh SSE 10.9 mph17.5 kmh 30.11 in1019.6 mb 0.00 in0.0 mm 0.00 in0.0 mm 0.00 in0.0 mm
10:20 AM 79.5°F26.4°C 69.7°F20.9°C 72% 12.5 mph S20.1 kmh S 12.5 mph20.1 kmh 30.11 in1019.6 mb 0.00 in0.0 mm 0.00 in0.0 mm 0.00 in0.0 mm
10:21 AM 79.5°F26.4°C 69.7°F20.9°C 72% 7.8 mph ESE12.6 kmh ESE 12.5 mph20.1 kmh 30.11 in1019.6 mb 0.00 in0.0 mm 0.00 in0.0 mm 0.00 in0.0 mm
10:22 AM 79.7°F26.5°C 70.3°F21.3°C 73% 4.7 mph SE7.6 kmh SE 12.5 mph20.1 kmh 30.11 in1019.6 mb 0.00 in0.0 mm 0.00 in0.0 mm 0.00 in0.0 mm
10:23 AM 80.4°F26.9°C 70.5°F21.4°C 72% 7.3 mph SE11.7 kmh SE 12.5 mph20.1 kmh 30.11 in1019.6 mb 0.00 in0.0 mm 0.00 in0.0 mm 0.00 in0.0 mm
10:24 AM 80.6°F27.0°C 70.3°F21.3°C 71% 7.3 mph SSE11.7 kmh SSE 12.5 mph20.1 kmh 30.11 in1019.6 mb 0.00 in0.0 mm 0.00 in0.0 mm 0.00 in0.0 mm
10:25 AM 80.6°F27.0°C 69.9°F21.1°C 70% 11.4 mph SSE18.3 kmh SSE 12.5 mph20.1 kmh 30.11 in1019.6 mb 0.00 in0.0 mm 0.00 in0.0 mm 0.00 in0.0 mm
10:26 AM 80.4°F26.9°C 70.1°F21.2°C 71% 5.8 mph S9.3 kmh S 12.5 mph20.1 kmh 30.11 in1019.6 mb 0.00 in0.0 mm 0.00 in0.0 mm 0.00 in0.0 mm
10:27 AM 80.2°F26.8°C 70.0°F21.1°C 71% 7.3 mph SSE11.7 kmh SSE 12.5 mph20.1 kmh 30.11 in1019.6 mb 0.00 in0.0 mm 0.00 in0.0 mm 0.00 in0.0 mm
10:28 AM 80.2°F26.8°C 70.4°F21.3°C 72% 8.9 mph S14.3 kmh S 12.5 mph20.1 kmh 30.11 in1019.6 mb 0.00 in0.0 mm 0.00 in0.0 mm 0.00 in0.0 mm
10:29 AM 80.4°F26.9°C 70.5°F21.4°C 72% 5.8 mph SSE9.3 kmh SSE 12.5 mph20.1 kmh 30.11 in1019.6 mb 0.00 in0.0 mm 0.00 in0.0 mm 0.00 in0.0 mm
10:30 AM 80.8°F27.1°C 70.9°F21.6°C 72% 6.3 mph ESE10.1 kmh ESE 11.4 mph18.3 kmh 30.11 in1019.6 mb 0.00 in0.0 mm 0.00 in0.0 mm 0.00 in0.0 mm
10:31 AM 80.8°F27.1°C 70.5°F21.4°C 71% 4.7 mph SSE7.6 kmh SSE 11.4 mph18.3 kmh 30.11 in1019.6 mb 0.00 in0.0 mm 0.00 in0.0 mm 0.00 in0.0 mm
10:32 AM 80.8°F27.1°C 70.5°F21.4°C 71% 5.3 mph ESE8.5 kmh ESE 11.4 mph18.3 kmh 30.11 in1019.6 mb 0.00 in0.0 mm 0.00 in0.0 mm 0.00 in0.0 mm
10:33 AM 81.0°F27.2°C 70.7°F21.5°C 71% 8.3 mph ESE13.4 kmh ESE 11.4 mph18.3 kmh 30.11 in1019.6 mb 0.00 in0.0 mm 0.00 in0.0 mm 0.00 in0.0 mm
10:34 AM 81.0°F27.2°C 70.7°F21.5°C 71% 6.3 mph ESE10.1 kmh ESE 11.4 mph18.3 kmh 30.11 in1019.6 mb 0.00 in0.0 mm 0.00 in0.0 mm 0.00 in0.0 mm
10:35 AM 80.6°F27.0°C 70.3°F21.3°C 71% 7.8 mph SSE12.6 kmh SSE 11.4 mph18.3 kmh 30.11 in1019.6 mb 0.00 in0.0 mm 0.00 in0.0 mm 0.00 in0.0 mm
10:36 AM 80.4°F26.9°C 70.1°F21.2°C 71% 8.9 mph ESE14.3 kmh ESE 11.4 mph18.3 kmh 30.11 in1019.6 mb 0.00 in0.0 mm 0.00 in0.0 mm 0.00 in0.0 mm
10:37 AM 80.6°F27.0°C 70.3°F21.3°C 71% 6.3 mph SSW10.1 kmh SSW 11.4 mph18.3 kmh 30.11 in1019.6 mb 0.00 in0.0 mm 0.00 in0.0 mm 0.00 in0.0 mm
10:38 AM 80.1°F26.7°C 70.2°F21.2°C 72% 6.8 mph ESE10.9 kmh ESE 11.4 mph18.3 kmh 30.11 in1019.6 mb 0.00 in0.0 mm 0.00 in0.0 mm 0.00 in0.0 mm
10:39 AM 80.2°F26.8°C 70.4°F21.3°C 72% 5.8 mph ESE9.3 kmh ESE 11.4 mph18.3 kmh 30.11 in1019.6 mb 0.00 in0.0 mm 0.00 in0.0 mm 0.00 in0.0 mm
10:40 AM 80.2°F26.8°C 70.4°F21.3°C 72% 6.3 mph SE10.1 kmh SE 11.4 mph18.3 kmh 30.11 in1019.6 mb 0.00 in0.0 mm 0.00 in0.0 mm 0.00 in0.0 mm
10:41 AM 80.4°F26.9°C 71.0°F21.7°C 73% 7.8 mph ESE12.6 kmh ESE 11.4 mph18.3 kmh 30.11 in1019.6 mb 0.00 in0.0 mm 0.00 in0.0 mm 0.00 in0.0 mm
10:42 AM 80.6°F27.0°C 70.7°F21.5°C 72% 8.3 mph SSE13.4 kmh SSE 11.4 mph18.3 kmh 30.11 in1019.6 mb 0.00 in0.0 mm 0.00 in0.0 mm 0.00 in0.0 mm
10:43 AM 81.1°F27.3°C 70.8°F21.6°C 71% 6.8 mph ESE10.9 kmh ESE 11.4 mph18.3 kmh 30.11 in1019.6 mb 0.00 in0.0 mm 0.00 in0.0 mm 0.00 in0.0 mm
10:44 AM 81.0°F27.2°C 70.7°F21.5°C 71% 6.3 mph SSE10.1 kmh SSE 10.4 mph16.7 kmh 30.11 in1019.6 mb 0.00 in0.0 mm 0.00 in0.0 mm 0.00 in0.0 mm
10:45 AM 80.8°F27.1°C 70.5°F21.4°C 71% 8.9 mph SSE14.3 kmh SSE 10.9 mph17.5 kmh 30.11 in1019.6 mb 0.00 in0.0 mm 0.00 in0.0 mm 0.00 in0.0 mm
10:46 AM 80.4°F26.9°C 70.5°F21.4°C 72% 8.9 mph SE14.3 kmh SE 10.9 mph17.5 kmh 30.11 in1019.6 mb 0.00 in0.0 mm 0.00 in0.0 mm 0.00 in0.0 mm
10:47 AM 80.6°F27.0°C 70.3°F21.3°C 71% 7.3 mph ESE11.7 kmh ESE 10.9 mph17.5 kmh 30.11 in1019.6 mb 0.00 in0.0 mm 0.00 in0.0 mm 0.00 in0.0 mm
10:48 AM 81.0°F27.2°C 70.2°F21.2°C 70% 6.8 mph S10.9 kmh S 10.9 mph17.5 kmh 30.11 in1019.6 mb 0.00 in0.0 mm 0.00 in0.0 mm 0.00 in0.0 mm
10:49 AM 80.8°F27.1°C 70.5°F21.4°C 71% 4.7 mph E7.6 kmh E 10.9 mph17.5 kmh 30.11 in1019.6 mb 0.00 in0.0 mm 0.00 in0.0 mm 0.00 in0.0 mm
10:50 AM 81.3°F27.4°C 70.6°F21.4°C 70% 7.8 mph SSE12.6 kmh SSE 10.9 mph17.5 kmh 30.11 in1019.6 mb 0.00 in0.0 mm 0.00 in0.0 mm 0.00 in0.0 mm
10:51 AM 81.5°F27.5°C 70.7°F21.5°C 70% 5.3 mph ESE8.5 kmh ESE 10.9 mph17.5 kmh 30.11 in1019.6 mb 0.00 in0.0 mm 0.00 in0.0 mm 0.00 in0.0 mm
10:52 AM 81.9°F27.7°C 71.1°F21.7°C 70% 5.3 mph SSE8.5 kmh SSE 10.9 mph17.5 kmh 30.11 in1019.6 mb 0.00 in0.0 mm 0.00 in0.0 mm 0.00 in0.0 mm
10:53 AM 82.4°F28.0°C 71.2°F21.8°C 69% 9.9 mph SSE15.9 kmh SSE 10.9 mph17.5 kmh 30.11 in1019.6 mb 0.00 in0.0 mm 0.00 in0.0 mm 0.00 in0.0 mm
10:54 AM 82.2°F27.9°C 70.6°F21.4°C 68% 6.8 mph ESE10.9 kmh ESE 10.9 mph17.5 kmh 30.11 in1019.6 mb 0.00 in0.0 mm 0.00 in0.0 mm 0.00 in0.0 mm
10:55 AM 81.5°F27.5°C 70.3°F21.3°C 69% 5.3 mph ESE8.5 kmh ESE 9.9 mph15.9 kmh 30.11 in1019.6 mb 0.00 in0.0 mm 0.00 in0.0 mm 0.00 in0.0 mm
10:56 AM 81.5°F27.5°C 70.7°F21.5°C 70% 5.8 mph S9.3 kmh S 9.9 mph15.9 kmh 30.11 in1019.6 mb 0.00 in0.0 mm 0.00 in0.0 mm 0.00 in0.0 mm
10:57 AM 81.9°F27.7°C 70.7°F21.5°C 69% 8.9 mph SSE14.3 kmh SSE 9.9 mph15.9 kmh 30.11 in1019.6 mb 0.00 in0.0 mm 0.00 in0.0 mm 0.00 in0.0 mm
10:58 AM 81.9°F27.7°C 70.7°F21.5°C 69% 5.8 mph SSW9.3 kmh SSW 9.9 mph15.9 kmh 30.11 in1019.6 mb 0.00 in0.0 mm 0.00 in0.0 mm 0.00 in0.0 mm
10:59 AM 81.3°F27.4°C 70.6°F21.4°C 70% 6.3 mph S10.1 kmh S 9.9 mph15.9 kmh 30.11 in1019.6 mb 0.00 in0.0 mm 0.00 in0.0 mm 0.00 in0.0 mm
11:00 AM 81.3°F27.4°C 70.6°F21.4°C 70% 7.3 mph SE11.7 kmh SE 10.9 mph17.5 kmh 30.11 in1019.6 mb 0.00 in0.0 mm 0.00 in0.0 mm 0.00 in0.0 mm
11:01 AM 80.8°F27.1°C 70.1°F21.2°C 70% 9.9 mph SE15.9 kmh SE 10.9 mph17.5 kmh 30.11 in1019.6 mb 0.00 in0.0 mm 0.00 in0.0 mm 0.00 in0.0 mm
11:02 AM 80.6°F27.0°C 70.3°F21.3°C 71% 9.4 mph ESE15.1 kmh ESE 10.9 mph17.5 kmh 30.11 in1019.6 mb 0.00 in0.0 mm 0.00 in0.0 mm 0.00 in0.0 mm
11:03 AM 80.1°F26.7°C 70.2°F21.2°C 72% 7.8 mph SSE12.6 kmh SSE 10.9 mph17.5 kmh 30.11 in1019.6 mb 0.00 in0.0 mm 0.00 in0.0 mm 0.00 in0.0 mm
11:04 AM 80.2°F26.8°C 70.4°F21.3°C 72% 3.7 mph ESE6.0 kmh ESE 10.9 mph17.5 kmh 30.11 in1019.6 mb 0.00 in0.0 mm 0.00 in0.0 mm 0.00 in0.0 mm
11:05 AM 80.4°F26.9°C 70.5°F21.4°C 72% 7.8 mph ESE12.6 kmh ESE 10.9 mph17.5 kmh 30.11 in1019.6 mb 0.00 in0.0 mm 0.00 in0.0 mm 0.00 in0.0 mm
11:06 AM 80.2°F26.8°C 70.4°F21.3°C 72% 7.3 mph ESE11.7 kmh ESE 11.9 mph19.2 kmh 30.11 in1019.6 mb 0.00 in0.0 mm 0.00 in0.0 mm 0.00 in0.0 mm
11:07 AM 80.8°F27.1°C 70.9°F21.6°C 72% 12.0 mph ESE19.3 kmh ESE 11.9 mph19.2 kmh 30.11 in1019.6 mb 0.00 in0.0 mm 0.00 in0.0 mm 0.00 in0.0 mm
11:08 AM 80.6°F27.0°C 70.7°F21.5°C 72% 6.3 mph S10.1 kmh S 11.9 mph19.2 kmh 30.11 in1019.6 mb 0.00 in0.0 mm 0.00 in0.0 mm 0.00 in0.0 mm
11:09 AM 80.4°F26.9°C 71.0°F21.7°C 73% 7.3 mph ESE11.7 kmh ESE 11.9 mph19.2 kmh 30.11 in1019.6 mb 0.00 in0.0 mm 0.00 in0.0 mm 0.00 in0.0 mm
11:10 AM 80.6°F27.0°C 70.7°F21.5°C 72% 13.5 mph ESE21.7 kmh ESE 13.5 mph21.7 kmh 30.11 in1019.6 mb 0.00 in0.0 mm 0.00 in0.0 mm 0.00 in0.0 mm
11:11 AM 80.4°F26.9°C 70.5°F21.4°C 72% 7.8 mph SSE12.6 kmh SSE 13.5 mph21.7 kmh 30.11 in1019.6 mb 0.00 in0.0 mm 0.00 in0.0 mm 0.00 in0.0 mm
11:12 AM 80.6°F27.0°C 70.7°F21.5°C 72% 8.9 mph ESE14.3 kmh ESE 13.5 mph21.7 kmh 30.11 in1019.6 mb 0.00 in0.0 mm 0.00 in0.0 mm 0.00 in0.0 mm
11:13 AM 80.4°F26.9°C 70.5°F21.4°C 72% 9.9 mph ESE15.9 kmh ESE 13.5 mph21.7 kmh 30.11 in1019.6 mb 0.00 in0.0 mm 0.00 in0.0 mm 0.00 in0.0 mm
11:14 AM 79.7°F26.5°C 70.7°F21.5°C 74% 10.9 mph SSE17.5 kmh SSE 13.5 mph21.7 kmh 30.11 in1019.6 mb 0.00 in0.0 mm 0.00 in0.0 mm 0.00 in0.0 mm
11:15 AM 79.3°F26.3°C 70.7°F21.5°C 75% 7.8 mph SSE12.6 kmh SSE 13.5 mph21.7 kmh 30.11 in1019.6 mb 0.00 in0.0 mm 0.00 in0.0 mm 0.00 in0.0 mm
11:16 AM 78.6°F25.9°C 70.4°F21.3°C 76% 6.3 mph S10.1 kmh S 13.5 mph21.7 kmh 30.11 in1019.6 mb 0.00 in0.0 mm 0.00 in0.0 mm 0.00 in0.0 mm
11:17 AM 78.4°F25.8°C 70.2°F21.2°C 76% 6.8 mph S10.9 kmh S 13.5 mph21.7 kmh 30.11 in1019.6 mb 0.00 in0.0 mm 0.00 in0.0 mm 0.00 in0.0 mm
11:18 AM 78.8°F26.0°C 70.6°F21.4°C 76% 6.8 mph S10.9 kmh S 13.5 mph21.7 kmh 30.11 in1019.6 mb 0.00 in0.0 mm 0.00 in0.0 mm 0.00 in0.0 mm
11:19 AM 79.5°F26.4°C 70.9°F21.6°C 75% 6.3 mph SSE10.1 kmh SSE 13.5 mph21.7 kmh 30.11 in1019.6 mb 0.00 in0.0 mm 0.00 in0.0 mm 0.00 in0.0 mm
11:20 AM 79.5°F26.4°C 70.9°F21.6°C 75% 5.3 mph SE8.5 kmh SE 13.5 mph21.7 kmh 30.11 in1019.6 mb 0.00 in0.0 mm 0.00 in0.0 mm 0.00 in0.0 mm
11:21 AM 79.9°F26.6°C 71.2°F21.8°C 75% 10.4 mph SSE16.7 kmh SSE 10.9 mph17.5 kmh 30.11 in1019.6 mb 0.00 in0.0 mm 0.00 in0.0 mm 0.00 in0.0 mm
11:22 AM 80.1°F26.7°C 71.0°F21.7°C 74% 6.8 mph S10.9 kmh S 10.9 mph17.5 kmh 30.11 in1019.6 mb 0.00 in0.0 mm 0.00 in0.0 mm 0.00 in0.0 mm
11:23 AM 80.2°F26.8°C 71.2°F21.8°C 74% 7.8 mph E12.6 kmh E 10.9 mph17.5 kmh 30.11 in1019.6 mb 0.00 in0.0 mm 0.00 in0.0 mm 0.00 in0.0 mm
11:24 AM 80.1°F26.7°C 71.0°F21.7°C 74% 6.3 mph SE10.1 kmh SE 10.4 mph16.7 kmh 30.11 in1019.6 mb 0.00 in0.0 mm 0.00 in0.0 mm 0.00 in0.0 mm
11:25 AM 79.9°F26.6°C 70.8°F21.6°C 74% 4.2 mph SSE6.8 kmh SSE 10.4 mph16.7 kmh 30.11 in1019.6 mb 0.00 in0.0 mm 0.00 in0.0 mm 0.00 in0.0 mm
11:26 AM 80.1°F26.7°C 71.0°F21.7°C 74% 5.8 mph SSE9.3 kmh SSE 10.4 mph16.7 kmh 30.11 in1019.6 mb 0.00 in0.0 mm 0.00 in0.0 mm 0.00 in0.0 mm
11:27 AM 80.2°F26.8°C 71.2°F21.8°C 74% 7.8 mph S12.6 kmh S 10.4 mph16.7 kmh 30.11 in1019.6 mb 0.00 in0.0 mm 0.00 in0.0 mm 0.00 in0.0 mm
11:28 AM 79.7°F26.5°C 70.7°F21.5°C 74% 4.7 mph SE7.6 kmh SE 10.4 mph16.7 kmh 30.11 in1019.6 mb 0.00 in0.0 mm 0.00 in0.0 mm 0.00 in0.0 mm
11:29 AM 79.9°F26.6°C 70.8°F21.6°C 74% 4.7 mph ESE7.6 kmh ESE 10.4 mph16.7 kmh 30.10 in1019.3 mb 0.00 in0.0 mm 0.00 in0.0 mm 0.00 in0.0 mm
11:30 AM 80.2°F26.8°C 71.2°F21.8°C 74% 5.3 mph SE8.5 kmh SE 10.4 mph16.7 kmh 30.10 in1019.3 mb 0.00 in0.0 mm 0.00 in0.0 mm 0.00 in0.0 mm
11:31 AM 80.4°F26.9°C 71.4°F21.9°C 74% 7.3 mph ESE11.7 kmh ESE 10.4 mph16.7 kmh 30.10 in1019.3 mb 0.00 in0.0 mm 0.00 in0.0 mm 0.00 in0.0 mm
11:32 AM 80.4°F26.9°C 71.0°F21.7°C 73% 13.0 mph SE20.9 kmh SE 13.0 mph20.9 kmh 30.10 in1019.3 mb 0.00 in0.0 mm 0.00 in0.0 mm 0.00 in0.0 mm
11:33 AM 79.9°F26.6°C 70.8°F21.6°C 74% 6.3 mph SE10.1 kmh SE 13.0 mph20.9 kmh 30.10 in1019.3 mb 0.00 in0.0 mm 0.00 in0.0 mm 0.00 in0.0 mm
11:34 AM 79.9°F26.6°C 70.8°F21.6°C 74% 7.3 mph SSW11.7 kmh SSW 13.0 mph20.9 kmh 30.10 in1019.3 mb 0.00 in0.0 mm 0.00 in0.0 mm 0.00 in0.0 mm
11:35 AM 80.1°F26.7°C 71.0°F21.7°C 74% 7.3 mph SSE11.7 kmh SSE 13.0 mph20.9 kmh 30.10 in1019.3 mb 0.00 in0.0 mm 0.00 in0.0 mm 0.00 in0.0 mm
11:36 AM 80.2°F26.8°C 71.2°F21.8°C 74% 6.3 mph S10.1 kmh S 13.0 mph20.9 kmh 30.10 in1019.3 mb 0.00 in0.0 mm 0.00 in0.0 mm 0.00 in0.0 mm
11:37 AM 80.2°F26.8°C 71.2°F21.8°C 74% 11.4 mph ESE18.3 kmh ESE 13.0 mph20.9 kmh 30.10 in1019.3 mb 0.00 in0.0 mm 0.00 in0.0 mm 0.00 in0.0 mm
11:38 AM 79.7°F26.5°C 70.7°F21.5°C 74% 5.8 mph SSE9.3 kmh SSE 14.0 mph22.5 kmh 30.10 in1019.3 mb 0.00 in0.0 mm 0.00 in0.0 mm 0.00 in0.0 mm
11:39 AM 79.9°F26.6°C 70.8°F21.6°C 74% 10.9 mph SSE17.5 kmh SSE 14.0 mph22.5 kmh 30.10 in1019.3 mb 0.00 in0.0 mm 0.00 in0.0 mm 0.00 in0.0 mm
11:40 AM 79.9°F26.6°C 70.8°F21.6°C 74% 10.4 mph SSE16.7 kmh SSE 14.0 mph22.5 kmh 30.10 in1019.3 mb 0.00 in0.0 mm 0.00 in0.0 mm 0.00 in0.0 mm
11:41 AM 79.9°F26.6°C 70.8°F21.6°C 74% 9.9 mph S15.9 kmh S 14.0 mph22.5 kmh 30.10 in1019.3 mb 0.00 in0.0 mm 0.00 in0.0 mm 0.00 in0.0 mm
11:42 AM 80.2°F26.8°C 71.2°F21.8°C 74% 8.3 mph SE13.4 kmh SE 14.0 mph22.5 kmh 30.10 in1019.3 mb 0.00 in0.0 mm 0.00 in0.0 mm 0.00 in0.0 mm
11:43 AM 80.1°F26.7°C 71.0°F21.7°C 74% 8.3 mph SSE13.4 kmh SSE 14.0 mph22.5 kmh 30.10 in1019.3 mb 0.00 in0.0 mm 0.00 in0.0 mm 0.00 in0.0 mm
11:44 AM 80.1°F26.7°C 71.0°F21.7°C 74% 10.9 mph S17.5 kmh S 14.0 mph22.5 kmh 30.10 in1019.3 mb 0.00 in0.0 mm 0.00 in0.0 mm 0.00 in0.0 mm
11:45 AM 80.1°F26.7°C 71.0°F21.7°C 74% 9.9 mph SSE15.9 kmh SSE 14.0 mph22.5 kmh 30.10 in1019.3 mb 0.00 in0.0 mm 0.00 in0.0 mm 0.00 in0.0 mm
11:46 AM 79.9°F26.6°C 70.8°F21.6°C 74% 8.9 mph SSE14.3 kmh SSE 14.0 mph22.5 kmh 30.10 in1019.3 mb 0.00 in0.0 mm 0.00 in0.0 mm 0.00 in0.0 mm
11:47 AM 79.5°F26.4°C 70.5°F21.4°C 74% 7.3 mph SSE11.7 kmh SSE 14.0 mph22.5 kmh 30.10 in1019.3 mb 0.00 in0.0 mm 0.00 in0.0 mm 0.00 in0.0 mm
11:48 AM 79.7°F26.5°C 70.7°F21.5°C 74% 6.3 mph ESE10.1 kmh ESE 10.9 mph17.5 kmh 30.10 in1019.3 mb 0.00 in0.0 mm 0.00 in0.0 mm 0.00 in0.0 mm
11:49 AM 80.2°F26.8°C 71.2°F21.8°C 74% 9.9 mph SSE15.9 kmh SSE 10.9 mph17.5 kmh 30.10 in1019.3 mb 0.00 in0.0 mm 0.00 in0.0 mm 0.00 in0.0 mm
11:50 AM 80.2°F26.8°C 70.8°F21.6°C 73% 8.9 mph SSE14.3 kmh SSE 10.9 mph17.5 kmh 30.10 in1019.3 mb 0.00 in0.0 mm 0.00 in0.0 mm 0.00 in0.0 mm
11:51 AM 80.6°F27.0°C 71.1°F21.7°C 73% 7.8 mph ESE12.6 kmh ESE 10.9 mph17.5 kmh 30.10 in1019.3 mb 0.00 in0.0 mm 0.00 in0.0 mm 0.00 in0.0 mm
11:52 AM 81.1°F27.3°C 71.2°F21.8°C 72% 10.4 mph ESE16.7 kmh ESE 10.9 mph17.5 kmh 30.10 in1019.3 mb 0.00 in0.0 mm 0.00 in0.0 mm 0.00 in0.0 mm
11:53 AM 80.8°F27.1°C 70.9°F21.6°C 72% 10.4 mph SSE16.7 kmh SSE 11.4 mph18.3 kmh 30.09 in1019.0 mb 0.00 in0.0 mm 0.00 in0.0 mm 0.00 in0.0 mm
11:54 AM 80.1°F26.7°C 71.0°F21.7°C 74% 8.9 mph ESE14.3 kmh ESE 11.4 mph18.3 kmh 30.09 in1019.0 mb 0.00 in0.0 mm 0.00 in0.0 mm 0.00 in0.0 mm
11:55 AM 80.4°F26.9°C 71.0°F21.7°C 73% 6.8 mph SSE10.9 kmh SSE 11.4 mph18.3 kmh 30.09 in1019.0 mb 0.00 in0.0 mm 0.00 in0.0 mm 0.00 in0.0 mm
11:56 AM 80.4°F26.9°C 71.0°F21.7°C 73% 7.3 mph SSE11.7 kmh SSE 11.4 mph18.3 kmh 30.09 in1019.0 mb 0.00 in0.0 mm 0.00 in0.0 mm 0.00 in0.0 mm
11:57 AM 80.2°F26.8°C 71.2°F21.8°C 74% 4.7 mph SSE7.6 kmh SSE 11.4 mph18.3 kmh 30.09 in1019.0 mb 0.00 in0.0 mm 0.00 in0.0 mm 0.00 in0.0 mm
11:58 AM 80.8°F27.1°C 71.3°F21.8°C 73% 8.3 mph ESE13.4 kmh ESE 11.4 mph18.3 kmh 30.09 in1019.0 mb 0.00 in0.0 mm 0.00 in0.0 mm 0.00 in0.0 mm
11:59 AM 81.0°F27.2°C 71.1°F21.7°C 72% 6.8 mph SSE10.9 kmh SSE 11.4 mph18.3 kmh 30.09 in1019.0 mb 0.00 in0.0 mm 0.00 in0.0 mm 0.00 in0.0 mm
12:00 PM 81.1°F27.3°C 71.2°F21.8°C 72% 7.3 mph SSE11.7 kmh SSE 11.4 mph18.3 kmh 30.09 in1019.0 mb 0.00 in0.0 mm 0.00 in0.0 mm 0.00 in0.0 mm
12:01 PM 81.0°F27.2°C 71.1°F21.7°C 72% 10.4 mph ESE16.7 kmh ESE 11.4 mph18.3 kmh 30.09 in1019.0 mb 0.00 in0.0 mm 0.00 in0.0 mm 0.00 in0.0 mm
12:02 PM 80.4°F26.9°C 71.0°F21.7°C 73% 8.9 mph ESE14.3 kmh ESE 11.4 mph18.3 kmh 30.09 in1019.0 mb 0.00 in0.0 mm 0.00 in0.0 mm 0.00 in0.0 mm
12:03 PM 80.1°F26.7°C 70.6°F21.4°C 73% 4.7 mph ESE7.6 kmh ESE 10.4 mph16.7 kmh 30.09 in1019.0 mb 0.00 in0.0 mm 0.00 in0.0 mm 0.00 in0.0 mm
12:04 PM 80.4°F26.9°C 71.0°F21.7°C 73% 8.3 mph ESE13.4 kmh ESE 10.4 mph16.7 kmh 30.09 in1019.0 mb 0.00 in0.0 mm 0.00 in0.0 mm 0.00 in0.0 mm
12:05 PM 79.7°F26.5°C 70.7°F21.5°C 74% 4.7 mph SSE7.6 kmh SSE 10.4 mph16.7 kmh 30.09 in1019.0 mb 0.00 in0.0 mm 0.00 in0.0 mm 0.00 in0.0 mm
12:06 PM 80.8°F27.1°C 71.3°F21.8°C 73% 10.4 mph ESE16.7 kmh ESE 10.4 mph16.7 kmh 30.09 in1019.0 mb 0.00 in0.0 mm 0.00 in0.0 mm 0.00 in0.0 mm
12:07 PM 80.8°F27.1°C 71.3°F21.8°C 73% 9.4 mph S15.1 kmh S 10.4 mph16.7 kmh 30.09 in1019.0 mb 0.00 in0.0 mm 0.00 in0.0 mm 0.00 in0.0 mm
12:08 PM 80.8°F27.1°C 71.3°F21.8°C 73% 5.8 mph ESE9.3 kmh ESE 10.4 mph16.7 kmh 30.09 in1019.0 mb 0.00 in0.0 mm 0.00 in0.0 mm 0.00 in0.0 mm
12:09 PM 80.8°F27.1°C 71.3°F21.8°C 73% 8.9 mph ESE14.3 kmh ESE 10.4 mph16.7 kmh 30.09 in1019.0 mb 0.00 in0.0 mm 0.00 in0.0 mm 0.00 in0.0 mm
12:10 PM 80.6°F27.0°C 71.1°F21.7°C 73% 6.8 mph SSE10.9 kmh SSE 10.4 mph16.7 kmh 30.09 in1019.0 mb 0.00 in0.0 mm 0.00 in0.0 mm 0.00 in0.0 mm
12:11 PM 80.4°F26.9°C 71.0°F21.7°C 73% 5.3 mph SSW8.5 kmh SSW 10.4 mph16.7 kmh 30.09 in1019.0 mb 0.00 in0.0 mm 0.00 in0.0 mm 0.00 in0.0 mm
12:12 PM 80.8°F27.1°C 70.9°F21.6°C 72% 8.9 mph SSE14.3 kmh SSE 10.9 mph17.5 kmh 30.09 in1019.0 mb 0.00 in0.0 mm 0.00 in0.0 mm 0.00 in0.0 mm
12:13 PM 80.1°F26.7°C 70.6°F21.4°C 73% 7.3 mph SE11.7 kmh SE 10.9 mph17.5 kmh 30.09 in1019.0 mb 0.00 in0.0 mm 0.00 in0.0 mm 0.00 in0.0 mm
12:14 PM 80.4°F26.9°C 71.0°F21.7°C 73% 8.3 mph SSE13.4 kmh SSE 10.9 mph17.5 kmh 30.09 in1019.0 mb 0.00 in0.0 mm 0.00 in0.0 mm 0.00 in0.0 mm
12:15 PM 80.2°F26.8°C 71.2°F21.8°C 74% 5.8 mph ENE9.3 kmh ENE 11.9 mph19.2 kmh 30.09 in1019.0 mb 0.00 in0.0 mm 0.00 in0.0 mm 0.00 in0.0 mm
12:16 PM 80.8°F27.1°C 71.3°F21.8°C 73% 5.3 mph SSE8.5 kmh SSE 11.9 mph19.2 kmh 30.09 in1019.0 mb 0.00 in0.0 mm 0.00 in0.0 mm 0.00 in0.0 mm
12:17 PM 80.8°F27.1°C 71.3°F21.8°C 73% 9.9 mph SSE15.9 kmh SSE 11.9 mph19.2 kmh 30.08 in1018.6 mb 0.00 in0.0 mm 0.00 in0.0 mm 0.00 in0.0 mm
12:18 PM 80.6°F27.0°C 71.1°F21.7°C 73% 7.3 mph SE11.7 kmh SE 11.9 mph19.2 kmh 30.08 in1018.6 mb 0.00 in0.0 mm 0.00 in0.0 mm 0.00 in0.0 mm
12:19 PM 80.8°F27.1°C 71.3°F21.8°C 73% 9.4 mph ESE15.1 kmh ESE 11.9 mph19.2 kmh 30.08 in1018.6 mb 0.00 in0.0 mm 0.00 in0.0 mm 0.00 in0.0 mm
12:20 PM 81.0°F27.2°C 71.1°F21.7°C 72% 9.4 mph SE15.1 kmh SE 11.9 mph19.2 kmh 30.08 in1018.6 mb 0.00 in0.0 mm 0.00 in0.0 mm 0.00 in0.0 mm
12:21 PM 81.0°F27.2°C 71.1°F21.7°C 72% 7.3 mph SSE11.7 kmh SSE 11.9 mph19.2 kmh 30.08 in1018.6 mb 0.00 in0.0 mm 0.00 in0.0 mm 0.00 in0.0 mm
12:22 PM 80.4°F26.9°C 71.0°F21.7°C 73% 12.5 mph SE20.1 kmh SE 12.5 mph20.1 kmh 30.08 in1018.6 mb 0.00 in0.0 mm 0.00 in0.0 mm 0.00 in0.0 mm
12:23 PM 80.8°F27.1°C 71.3°F21.8°C 73% 5.8 mph S9.3 kmh S 12.5 mph20.1 kmh 30.08 in1018.6 mb 0.00 in0.0 mm 0.00 in0.0 mm 0.00 in0.0 mm
12:24 PM 81.0°F27.2°C 71.5°F21.9°C 73% 7.8 mph SSE12.6 kmh SSE 12.5 mph20.1 kmh 30.08 in1018.6 mb 0.00 in0.0 mm 0.00 in0.0 mm 0.00 in0.0 mm
12:25 PM 80.8°F27.1°C 71.3°F21.8°C 73% 6.8 mph SSE10.9 kmh SSE 12.5 mph20.1 kmh 30.08 in1018.6 mb 0.00 in0.0 mm 0.00 in0.0 mm 0.00 in0.0 mm
12:26 PM 80.8°F27.1°C 71.3°F21.8°C 73% 10.4 mph ESE16.7 kmh ESE 12.5 mph20.1 kmh 30.08 in1018.6 mb 0.00 in0.0 mm 0.00 in0.0 mm 0.00 in0.0 mm
12:27 PM 81.0°F27.2°C 71.5°F21.9°C 73% 4.7 mph SE7.6 kmh SE 12.5 mph20.1 kmh 30.08 in1018.6 mb 0.00 in0.0 mm 0.00 in0.0 mm 0.00 in0.0 mm
12:28 PM 81.3°F27.4°C 71.4°F21.9°C 72% 4.7 mph ESE7.6 kmh ESE 12.5 mph20.1 kmh 30.08 in1018.6 mb 0.00 in0.0 mm 0.00 in0.0 mm 0.00 in0.0 mm
12:29 PM 81.9°F27.7°C 71.9°F22.2°C 72% 5.8 mph SE9.3 kmh SE 12.5 mph20.1 kmh 30.08 in1018.6 mb 0.00 in0.0 mm 0.00 in0.0 mm 0.00 in0.0 mm
12:30 PM 82.0°F27.8°C 71.7°F22.1°C 71% 6.3 mph SSE10.1 kmh SSE 12.5 mph20.1 kmh 30.08 in1018.6 mb 0.00 in0.0 mm 0.00 in0.0 mm 0.00 in0.0 mm
12:31 PM 81.7°F27.6°C 71.8°F22.1°C 72% 5.3 mph SSE8.5 kmh SSE 12.5 mph20.1 kmh 30.08 in1018.6 mb 0.00 in0.0 mm 0.00 in0.0 mm 0.00 in0.0 mm
12:32 PM 81.7°F27.6°C 71.8°F22.1°C 72% 5.8 mph S9.3 kmh S 12.5 mph20.1 kmh 30.08 in1018.6 mb 0.00 in0.0 mm 0.00 in0.0 mm 0.00 in0.0 mm
12:33 PM 81.7°F27.6°C 71.8°F22.1°C 72% 6.3 mph SE10.1 kmh SE 10.9 mph17.5 kmh 30.08 in1018.6 mb 0.00 in0.0 mm 0.00 in0.0 mm 0.00 in0.0 mm
12:34 PM 81.3°F27.4°C 71.4°F21.9°C 72% 5.3 mph S8.5 kmh S 10.9 mph17.5 kmh 30.08 in1018.6 mb 0.00 in0.0 mm 0.00 in0.0 mm 0.00 in0.0 mm
12:35 PM 81.0°F27.2°C 71.5°F21.9°C 73% 6.8 mph SSW10.9 kmh SSW 10.9 mph17.5 kmh 30.08 in1018.6 mb 0.00 in0.0 mm 0.00 in0.0 mm 0.00 in0.0 mm
12:36 PM 81.3°F27.4°C 71.8°F22.1°C 73% 9.4 mph S15.1 kmh S 10.4 mph16.7 kmh 30.08 in1018.6 mb 0.00 in0.0 mm 0.00 in0.0 mm 0.00 in0.0 mm
12:37 PM 81.3°F27.4°C 71.8°F22.1°C 73% 7.3 mph SSE11.7 kmh SSE 9.4 mph15.1 kmh 30.08 in1018.6 mb 0.00 in0.0 mm 0.00 in0.0 mm 0.00 in0.0 mm
12:38 PM 80.8°F27.1°C 71.3°F21.8°C 73% 4.2 mph SSE6.8 kmh SSE 9.4 mph15.1 kmh 30.08 in1018.6 mb 0.00 in0.0 mm 0.00 in0.0 mm 0.00 in0.0 mm
12:39 PM 80.1°F26.7°C 70.6°F21.4°C 73% 5.8 mph SSE9.3 kmh SSE 9.4 mph15.1 kmh 30.08 in1018.6 mb 0.00 in0.0 mm 0.00 in0.0 mm 0.00 in0.0 mm
12:40 PM 80.1°F26.7°C 70.6°F21.4°C 73% 4.7 mph SE7.6 kmh SE 9.4 mph15.1 kmh 30.08 in1018.6 mb 0.00 in0.0 mm 0.00 in0.0 mm 0.00 in0.0 mm
12:41 PM 79.7°F26.5°C 71.1°F21.7°C 75% 5.3 mph SSE8.5 kmh SSE 9.4 mph15.1 kmh 30.07 in1018.3 mb 0.00 in0.0 mm 0.00 in0.0 mm 0.00 in0.0 mm
12:42 PM 79.3°F26.3°C 71.1°F21.7°C 76% 7.3 mph SE11.7 kmh SE 10.4 mph16.7 kmh 30.07 in1018.3 mb 0.00 in0.0 mm 0.00 in0.0 mm 0.00 in0.0 mm
12:43 PM 79.5°F26.4°C 71.3°F21.8°C 76% 7.8 mph SSE12.6 kmh SSE 10.4 mph16.7 kmh 30.07 in1018.3 mb 0.00 in0.0 mm 0.00 in0.0 mm 0.00 in0.0 mm
12:44 PM 79.5°F26.4°C 71.3°F21.8°C 76% 7.3 mph SSE11.7 kmh SSE 10.4 mph16.7 kmh 30.07 in1018.3 mb 0.00 in0.0 mm 0.00 in0.0 mm 0.00 in0.0 mm
12:45 PM 79.9°F26.6°C 71.2°F21.8°C 75% 7.8 mph SE12.6 kmh SE 10.4 mph16.7 kmh 30.07 in1018.3 mb 0.00 in0.0 mm 0.00 in0.0 mm 0.00 in0.0 mm
12:46 PM 79.9°F26.6°C 71.2°F21.8°C 75% 3.7 mph S6.0 kmh S 10.4 mph16.7 kmh 30.07 in1018.3 mb 0.00 in0.0 mm 0.00 in0.0 mm 0.00 in0.0 mm
12:47 PM 80.4°F26.9°C 71.7°F22.1°C 75% 6.8 mph ESE10.9 kmh ESE 10.4 mph16.7 kmh 30.07 in1018.3 mb 0.00 in0.0 mm 0.00 in0.0 mm 0.00 in0.0 mm
12:48 PM 80.4°F26.9°C 71.7°F22.1°C 75% 6.3 mph ESE10.1 kmh ESE 10.4 mph16.7 kmh 30.07 in1018.3 mb 0.00 in0.0 mm 0.00 in0.0 mm 0.00 in0.0 mm
12:49 PM 80.1°F26.7°C 71.4°F21.9°C 75% 6.8 mph S10.9 kmh S 10.4 mph16.7 kmh 30.07 in1018.3 mb 0.00 in0.0 mm 0.00 in0.0 mm 0.00 in0.0 mm
12:50 PM 79.5°F26.4°C 71.3°F21.8°C 76% 6.3 mph SW10.1 kmh SW 10.4 mph16.7 kmh 30.07 in1018.3 mb 0.00 in0.0 mm 0.00 in0.0 mm 0.00 in0.0 mm
12:51 PM 79.7°F26.5°C 71.1°F21.7°C 75% 4.7 mph S7.6 kmh S 10.4 mph16.7 kmh 30.07 in1018.3 mb 0.00 in0.0 mm 0.00 in0.0 mm 0.00 in0.0 mm
12:52 PM 80.2°F26.8°C 71.6°F22.0°C 75% 9.4 mph S15.1 kmh S 9.9 mph15.9 kmh 30.07 in1018.3 mb 0.00 in0.0 mm 0.00 in0.0 mm 0.00 in0.0 mm
12:53 PM 80.2°F26.8°C 71.6°F22.0°C 75% 8.3 mph SSW13.4 kmh SSW 9.9 mph15.9 kmh 30.06 in1017.9 mb 0.00 in0.0 mm 0.00 in0.0 mm 0.00 in0.0 mm
12:54 PM 80.2°F26.8°C 71.6°F22.0°C 75% 8.3 mph SSW13.4 kmh SSW 9.9 mph15.9 kmh 30.06 in1017.9 mb 0.00 in0.0 mm 0.00 in0.0 mm 0.00 in0.0 mm
12:55 PM 80.2°F26.8°C 71.2°F21.8°C 74% 8.3 mph SSW13.4 kmh SSW 9.9 mph15.9 kmh 30.06 in1017.9 mb 0.00 in0.0 mm 0.00 in0.0 mm 0.00 in0.0 mm
12:56 PM 80.1°F26.7°C 71.4°F21.9°C 75% 4.2 mph S6.8 kmh S 9.4 mph15.1 kmh 30.06 in1017.9 mb 0.00 in0.0 mm 0.00 in0.0 mm 0.00 in0.0 mm
12:57 PM 80.8°F27.1°C 71.7°F22.1°C 74% 7.8 mph S12.6 kmh S 9.4 mph15.1 kmh 30.06 in1017.9 mb 0.00 in0.0 mm 0.00 in0.0 mm 0.00 in0.0 mm
12:58 PM 80.6°F27.0°C 71.5°F21.9°C 74% 7.3 mph SSW11.7 kmh SSW 9.4 mph15.1 kmh 30.06 in1017.9 mb 0.00 in0.0 mm 0.00 in0.0 mm 0.00 in0.0 mm
12:59 PM 80.4°F26.9°C 71.7°F22.1°C 75% 4.7 mph SSW7.6 kmh SSW 9.4 mph15.1 kmh 30.06 in1017.9 mb 0.00 in0.0 mm 0.00 in0.0 mm 0.00 in0.0 mm
01:00 PM 80.4°F26.9°C 71.7°F22.1°C 75% 6.8 mph SSW10.9 kmh SSW 9.4 mph15.1 kmh 30.06 in1017.9 mb 0.00 in0.0 mm 0.00 in0.0 mm 0.00 in0.0 mm
01:01 PM 80.4°F26.9°C 71.7°F22.1°C 75% 10.4 mph SSE16.7 kmh SSE 10.4 mph16.7 kmh 30.06 in1017.9 mb 0.00 in0.0 mm 0.00 in0.0 mm 0.00 in0.0 mm
01:02 PM 80.4°F26.9°C 71.7°F22.1°C 75% 7.8 mph S12.6 kmh S 10.4 mph16.7 kmh 30.06 in1017.9 mb 0.00 in0.0 mm 0.00 in0.0 mm 0.00 in0.0 mm
01:03 PM 80.8°F27.1°C 71.7°F22.1°C 74% 6.3 mph SSE10.1 kmh SSE 10.4 mph16.7 kmh 30.06 in1017.9 mb 0.00 in0.0 mm 0.00 in0.0 mm 0.00 in0.0 mm
01:04 PM 80.6°F27.0°C 71.5°F21.9°C 74% 6.8 mph S10.9 kmh S 10.4 mph16.7 kmh 30.06 in1017.9 mb 0.00 in0.0 mm 0.00 in0.0 mm 0.00 in0.0 mm
01:05 PM 80.6°F27.0°C 71.5°F21.9°C 74% 4.2 mph S6.8 kmh S 10.4 mph16.7 kmh 30.06 in1017.9 mb 0.00 in0.0 mm 0.00 in0.0 mm 0.00 in0.0 mm
01:06 PM 80.6°F27.0°C 71.5°F21.9°C 74% 5.8 mph ESE9.3 kmh ESE 10.4 mph16.7 kmh 30.06 in1017.9 mb 0.00 in0.0 mm 0.00 in0.0 mm 0.00 in0.0 mm
01:07 PM 80.8°F27.1°C 71.7°F22.1°C 74% 6.3 mph S10.1 kmh S 10.4 mph16.7 kmh 30.06 in1017.9 mb 0.00 in0.0 mm 0.00 in0.0 mm 0.00 in0.0 mm
01:08 PM 80.6°F27.0°C 71.5°F21.9°C 74% 5.3 mph S8.5 kmh S 10.4 mph16.7 kmh 30.06 in1017.9 mb 0.00 in0.0 mm 0.00 in0.0 mm 0.00 in0.0 mm
01:09 PM 80.8°F27.1°C 71.7°F22.1°C 74% 7.8 mph ESE12.6 kmh ESE 10.4 mph16.7 kmh 30.06 in1017.9 mb 0.00 in0.0 mm 0.00 in0.0 mm 0.00 in0.0 mm
01:10 PM 80.8°F27.1°C 71.7°F22.1°C 74% 7.8 mph S12.6 kmh S 10.4 mph16.7 kmh 30.06 in1017.9 mb 0.00 in0.0 mm 0.00 in0.0 mm 0.00 in0.0 mm
01:11 PM 80.4°F26.9°C 71.4°F21.9°C 74% 6.8 mph SSE10.9 kmh SSE 10.4 mph16.7 kmh 30.06 in1017.9 mb 0.00 in0.0 mm 0.00 in0.0 mm 0.00 in0.0 mm
01:12 PM 80.1°F26.7°C 71.4°F21.9°C 75% 7.8 mph SSW12.6 kmh SSW 9.9 mph15.9 kmh 30.06 in1017.9 mb 0.00 in0.0 mm 0.00 in0.0 mm 0.00 in0.0 mm
01:13 PM 79.9°F26.6°C 71.6°F22.0°C 76% 5.3 mph S8.5 kmh S 9.9 mph15.9 kmh 30.06 in1017.9 mb 0.00 in0.0 mm 0.00 in0.0 mm 0.00 in0.0 mm
01:14 PM 80.2°F26.8°C 72.0°F22.2°C 76% 8.9 mph SSE14.3 kmh SSE 9.9 mph15.9 kmh 30.06 in1017.9 mb 0.00 in0.0 mm 0.00 in0.0 mm 0.00 in0.0 mm
01:15 PM 80.2°F26.8°C 72.0°F22.2°C 76% 6.3 mph ESE10.1 kmh ESE 9.9 mph15.9 kmh 30.06 in1017.9 mb 0.00 in0.0 mm 0.00 in0.0 mm 0.00 in0.0 mm
01:16 PM 80.6°F27.0°C 71.9°F22.2°C 75% 10.4 mph SSE16.7 kmh SSE 10.4 mph16.7 kmh 30.06 in1017.9 mb 0.00 in0.0 mm 0.00 in0.0 mm 0.00 in0.0 mm
01:17 PM 80.2°F26.8°C 71.6°F22.0°C 75% 6.3 mph SE10.1 kmh SE 10.4 mph16.7 kmh 30.05 in1017.6 mb 0.00 in0.0 mm 0.00 in0.0 mm 0.00 in0.0 mm
01:18 PM 80.4°F26.9°C 71.7°F22.1°C 75% 7.3 mph ESE11.7 kmh ESE 10.4 mph16.7 kmh 30.05 in1017.6 mb 0.00 in0.0 mm 0.00 in0.0 mm 0.00 in0.0 mm
01:19 PM 80.6°F27.0°C 71.9°F22.2°C 75% 5.8 mph SSE9.3 kmh SSE 10.4 mph16.7 kmh 30.05 in1017.6 mb 0.00 in0.0 mm 0.00 in0.0 mm 0.00 in0.0 mm
01:20 PM 79.9°F26.6°C 71.6°F22.0°C 76% 6.8 mph SSW10.9 kmh SSW 11.9 mph19.2 kmh 30.05 in1017.6 mb 0.00 in0.0 mm 0.00 in0.0 mm 0.00 in0.0 mm
01:21 PM 79.3°F26.3°C 71.5°F21.9°C 77% 4.2 mph SE6.8 kmh SE 11.9 mph19.2 kmh 30.05 in1017.6 mb 0.00 in0.0 mm 0.00 in0.0 mm 0.00 in0.0 mm
01:22 PM 79.3°F26.3°C 71.5°F21.9°C 77% 10.9 mph SSE17.5 kmh SSE 11.9 mph19.2 kmh 30.05 in1017.6 mb 0.00 in0.0 mm 0.00 in0.0 mm 0.00 in0.0 mm
01:23 PM 78.8°F26.0°C 71.3°F21.8°C 78% 7.3 mph S11.7 kmh S 11.9 mph19.2 kmh 30.05 in1017.6 mb 0.00 in0.0 mm 0.00 in0.0 mm 0.00 in0.0 mm
01:24 PM 79.0°F26.1°C 71.5°F21.9°C 78% 9.4 mph ESE15.1 kmh ESE 11.9 mph19.2 kmh 30.05 in1017.6 mb 0.00 in0.0 mm 0.00 in0.0 mm 0.00 in0.0 mm
01:25 PM 78.8°F26.0°C 71.3°F21.8°C 78% 5.3 mph S8.5 kmh S 11.9 mph19.2 kmh 30.05 in1017.6 mb 0.00 in0.0 mm 0.00 in0.0 mm 0.00 in0.0 mm
01:26 PM 79.3°F26.3°C 71.9°F22.2°C 78% 7.3 mph S11.7 kmh S 11.9 mph19.2 kmh 30.05 in1017.6 mb 0.00 in0.0 mm 0.00 in0.0 mm 0.00 in0.0 mm
01:27 PM 79.3°F26.3°C 71.9°F22.2°C 78% 10.9 mph ESE17.5 kmh ESE 11.9 mph19.2 kmh 30.05 in1017.6 mb 0.00 in0.0 mm 0.00 in0.0 mm 0.00 in0.0 mm
01:28 PM 79.2°F26.2°C 71.7°F22.1°C 78% 7.8 mph SE12.6 kmh SE 11.9 mph19.2 kmh 30.05 in1017.6 mb 0.00 in0.0 mm 0.00 in0.0 mm 0.00 in0.0 mm
01:29 PM 78.6°F25.9°C 71.5°F21.9°C 79% 6.3 mph S10.1 kmh S 11.9 mph19.2 kmh 30.05 in1017.6 mb 0.00 in0.0 mm 0.00 in0.0 mm 0.00 in0.0 mm
01:30 PM 78.6°F25.9°C 71.5°F21.9°C 79% 9.4 mph ESE15.1 kmh ESE 10.9 mph17.5 kmh 30.05 in1017.6 mb 0.00 in0.0 mm 0.00 in0.0 mm 0.00 in0.0 mm
01:31 PM 78.6°F25.9°C 71.5°F21.9°C 79% 6.3 mph SSE10.1 kmh SSE 10.9 mph17.5 kmh 30.05 in1017.6 mb 0.00 in0.0 mm 0.00 in0.0 mm 0.00 in0.0 mm
01:32 PM 78.8°F26.0°C 71.7°F22.1°C 79% 6.8 mph S10.9 kmh S 10.9 mph17.5 kmh 30.05 in1017.6 mb 0.00 in0.0 mm 0.00 in0.0 mm 0.00 in0.0 mm
01:33 PM 79.0°F26.1°C 71.5°F21.9°C 78% 10.9 mph SSW17.5 kmh SSW 10.9 mph17.5 kmh 30.05 in1017.6 mb 0.00 in0.0 mm 0.00 in0.0 mm 0.00 in0.0 mm
01:34 PM 78.8°F26.0°C 71.3°F21.8°C 78% 7.3 mph S11.7 kmh S 10.9 mph17.5 kmh 30.05 in1017.6 mb 0.00 in0.0 mm 0.00 in0.0 mm 0.00 in0.0 mm
01:35 PM 78.8°F26.0°C 71.3°F21.8°C 78% 8.9 mph ESE14.3 kmh ESE 10.9 mph17.5 kmh 30.05 in1017.6 mb 0.00 in0.0 mm 0.00 in0.0 mm 0.00 in0.0 mm
01:36 PM 79.0°F26.1°C 71.5°F21.9°C 78% 10.4 mph S16.7 kmh S 11.4 mph18.3 kmh 30.05 in1017.6 mb 0.00 in0.0 mm 0.00 in0.0 mm 0.00 in0.0 mm
01:37 PM 79.0°F26.1°C 71.5°F21.9°C 78% 8.9 mph SE14.3 kmh SE 11.4 mph18.3 kmh 30.05 in1017.6 mb 0.00 in0.0 mm 0.00 in0.0 mm 0.00 in0.0 mm
01:38 PM 78.4°F25.8°C 71.4°F21.9°C 79% 9.9 mph SE15.9 kmh SE 11.4 mph18.3 kmh 30.05 in1017.6 mb 0.00 in0.0 mm 0.00 in0.0 mm 0.00 in0.0 mm
01:39 PM 78.3°F25.7°C 71.2°F21.8°C 79% 7.3 mph SSE11.7 kmh SSE 11.4 mph18.3 kmh 30.05 in1017.6 mb 0.00 in0.0 mm 0.00 in0.0 mm 0.00 in0.0 mm
01:40 PM 78.1°F25.6°C 71.0°F21.7°C 79% 8.3 mph SSE13.4 kmh SSE 11.4 mph18.3 kmh 30.05 in1017.6 mb 0.00 in0.0 mm 0.00 in0.0 mm 0.00 in0.0 mm
01:41 PM 78.1°F25.6°C 71.0°F21.7°C 79% 7.3 mph SE11.7 kmh SE 11.4 mph18.3 kmh 30.05 in1017.6 mb 0.00 in0.0 mm 0.00 in0.0 mm 0.00 in0.0 mm
01:42 PM 78.3°F25.7°C 71.2°F21.8°C 79% 4.7 mph SSW7.6 kmh SSW 11.4 mph18.3 kmh 30.05 in1017.6 mb 0.00 in0.0 mm 0.00 in0.0 mm 0.00 in0.0 mm
01:43 PM 78.4°F25.8°C 71.4°F21.9°C 79% 2.7 mph S4.3 kmh S 11.4 mph18.3 kmh 30.05 in1017.6 mb 0.00 in0.0 mm 0.00 in0.0 mm 0.00 in0.0 mm
01:44 PM 78.8°F26.0°C 71.3°F21.8°C 78% 6.8 mph S10.9 kmh S 11.4 mph18.3 kmh 30.05 in1017.6 mb 0.00 in0.0 mm 0.00 in0.0 mm 0.00 in0.0 mm
01:45 PM 78.8°F26.0°C 71.3°F21.8°C 78% 4.2 mph SSE6.8 kmh SSE 11.4 mph18.3 kmh 30.05 in1017.6 mb 0.00 in0.0 mm 0.00 in0.0 mm 0.00 in0.0 mm
01:46 PM 79.2°F26.2°C 71.3°F21.8°C 77% 6.3 mph SSE10.1 kmh SSE 9.9 mph15.9 kmh 30.05 in1017.6 mb 0.00 in0.0 mm 0.00 in0.0 mm 0.00 in0.0 mm
01:47 PM 79.2°F26.2°C 71.3°F21.8°C 77% 7.3 mph S11.7 kmh S 9.9 mph15.9 kmh 30.05 in1017.6 mb 0.00 in0.0 mm 0.00 in0.0 mm 0.00 in0.0 mm
01:48 PM 79.2°F26.2°C 71.3°F21.8°C 77% 4.2 mph S6.8 kmh S 9.9 mph15.9 kmh 30.05 in1017.6 mb 0.00 in0.0 mm 0.00 in0.0 mm 0.00 in0.0 mm
01:49 PM 79.0°F26.1°C 71.1°F21.7°C 77% 7.3 mph SE11.7 kmh SE 9.9 mph15.9 kmh 30.05 in1017.6 mb 0.00 in0.0 mm 0.00 in0.0 mm 0.00 in0.0 mm
01:50 PM 79.2°F26.2°C 71.3°F21.8°C 77% 5.3 mph S8.5 kmh S 9.9 mph15.9 kmh 30.05 in1017.6 mb 0.00 in0.0 mm 0.00 in0.0 mm 0.00 in0.0 mm
01:51 PM 79.0°F26.1°C 71.1°F21.7°C 77% 7.8 mph S12.6 kmh S 9.9 mph15.9 kmh 30.05 in1017.6 mb 0.00 in0.0 mm 0.00 in0.0 mm 0.00 in0.0 mm
01:52 PM 78.8°F26.0°C 71.3°F21.8°C 78% 4.7 mph SW7.6 kmh SW 9.9 mph15.9 kmh 30.05 in1017.6 mb 0.00 in0.0 mm 0.00 in0.0 mm 0.00 in0.0 mm
01:53 PM 79.0°F26.1°C 71.5°F21.9°C 78% 7.8 mph SW12.6 kmh SW 9.9 mph15.9 kmh 30.05 in1017.6 mb 0.00 in0.0 mm 0.00 in0.0 mm 0.00 in0.0 mm
01:54 PM 79.3°F26.3°C 71.5°F21.9°C 77% 10.9 mph ESE17.5 kmh ESE 10.9 mph17.5 kmh 30.05 in1017.6 mb 0.00 in0.0 mm 0.00 in0.0 mm 0.00 in0.0 mm
01:55 PM 79.2°F26.2°C 71.3°F21.8°C 77% 5.8 mph SE9.3 kmh SE 10.9 mph17.5 kmh 30.05 in1017.6 mb 0.00 in0.0 mm 0.00 in0.0 mm 0.00 in0.0 mm
01:56 PM 79.5°F26.4°C 71.7°F22.1°C 77% 4.7 mph SE7.6 kmh SE 10.9 mph17.5 kmh 30.05 in1017.6 mb 0.00 in0.0 mm 0.00 in0.0 mm 0.00 in0.0 mm
01:57 PM 79.7°F26.5°C 71.4°F21.9°C 76% 4.7 mph SSE7.6 kmh SSE 10.9 mph17.5 kmh 30.05 in1017.6 mb 0.00 in0.0 mm 0.00 in0.0 mm 0.00 in0.0 mm
01:58 PM 79.9°F26.6°C 71.6°F22.0°C 76% 7.3 mph ESE11.7 kmh ESE 10.9 mph17.5 kmh 30.05 in1017.6 mb 0.00 in0.0 mm 0.00 in0.0 mm 0.00 in0.0 mm
01:59 PM 79.9°F26.6°C 71.6°F22.0°C 76% 5.8 mph E9.3 kmh E 10.9 mph17.5 kmh 30.05 in1017.6 mb 0.00 in0.0 mm 0.00 in0.0 mm 0.00 in0.0 mm
02:00 PM 79.5°F26.4°C 71.3°F21.8°C 76% 5.3 mph E8.5 kmh E 10.9 mph17.5 kmh 30.05 in1017.6 mb 0.00 in0.0 mm 0.00 in0.0 mm 0.00 in0.0 mm
02:01 PM 79.2°F26.2°C 71.3°F21.8°C 77% 5.3 mph ESE8.5 kmh ESE 10.9 mph17.5 kmh 30.05 in1017.6 mb 0.00 in0.0 mm 0.00 in0.0 mm 0.00 in0.0 mm
02:02 PM 79.2°F26.2°C 71.3°F21.8°C 77% 6.3 mph S10.1 kmh S 10.9 mph17.5 kmh 30.05 in1017.6 mb 0.00 in0.0 mm 0.00 in0.0 mm 0.00 in0.0 mm
02:03 PM 79.0°F26.1°C 71.1°F21.7°C 77% 5.8 mph SSW9.3 kmh SSW 10.9 mph17.5 kmh 30.05 in1017.6 mb 0.00 in0.0 mm 0.00 in0.0 mm 0.00 in0.0 mm
02:04 PM 78.8°F26.0°C 71.3°F21.8°C 78% 7.8 mph SSE12.6 kmh SSE 10.9 mph17.5 kmh 30.05 in1017.6 mb 0.00 in0.0 mm 0.00 in0.0 mm 0.00 in0.0 mm
02:05 PM 78.8°F26.0°C 71.3°F21.8°C 78% 6.8 mph ESE10.9 kmh ESE 9.9 mph15.9 kmh 30.05 in1017.6 mb 0.00 in0.0 mm 0.00 in0.0 mm 0.00 in0.0 mm
02:06 PM 78.8°F26.0°C 71.3°F21.8°C 78% 6.3 mph SE10.1 kmh SE 9.9 mph15.9 kmh 30.05 in1017.6 mb 0.00 in0.0 mm 0.00 in0.0 mm 0.00 in0.0 mm
02:07 PM 78.8°F26.0°C 71.3°F21.8°C 78% 6.3 mph SW10.1 kmh SW 9.9 mph15.9 kmh 30.05 in1017.6 mb 0.00 in0.0 mm 0.00 in0.0 mm 0.00 in0.0 mm
02:08 PM 78.8°F26.0°C 71.3°F21.8°C 78% 7.3 mph S11.7 kmh S 9.9 mph15.9 kmh 30.05 in1017.6 mb 0.00 in0.0 mm 0.00 in0.0 mm 0.00 in0.0 mm
02:09 PM 78.4°F25.8°C 71.0°F21.7°C 78% 5.8 mph S9.3 kmh S 9.4 mph15.1 kmh 30.05 in1017.6 mb 0.00 in0.0 mm 0.00 in0.0 mm 0.00 in0.0 mm
02:10 PM 78.4°F25.8°C 71.0°F21.7°C 78% 3.7 mph S6.0 kmh S 9.4 mph15.1 kmh 30.05 in1017.6 mb 0.00 in0.0 mm 0.00 in0.0 mm 0.00 in0.0 mm
02:11 PM 78.6°F25.9°C 71.5°F21.9°C 79% 5.8 mph S9.3 kmh S 9.4 mph15.1 kmh 30.05 in1017.6 mb 0.00 in0.0 mm 0.00 in0.0 mm 0.00 in0.0 mm
02:12 PM 78.8°F26.0°C 71.7°F22.1°C 79% 4.7 mph E7.6 kmh E 9.4 mph15.1 kmh 30.05 in1017.6 mb 0.00 in0.0 mm 0.00 in0.0 mm 0.00 in0.0 mm
02:13 PM 79.2°F26.2°C 71.7°F22.1°C 78% 8.3 mph SE13.4 kmh SE 9.4 mph15.1 kmh 30.05 in1017.6 mb 0.00 in0.0 mm 0.00 in0.0 mm 0.00 in0.0 mm
02:14 PM 79.3°F26.3°C 71.5°F21.9°C 77% 5.3 mph ESE8.5 kmh ESE 9.4 mph15.1 kmh 30.05 in1017.6 mb 0.00 in0.0 mm 0.00 in0.0 mm 0.00 in0.0 mm
02:15 PM 79.2°F26.2°C 71.3°F21.8°C 77% 6.3 mph S10.1 kmh S 10.4 mph16.7 kmh 30.05 in1017.6 mb 0.00 in0.0 mm 0.00 in0.0 mm 0.00 in0.0 mm
02:16 PM 79.3°F26.3°C 71.5°F21.9°C 77% 7.3 mph S11.7 kmh S 10.4 mph16.7 kmh 30.05 in1017.6 mb 0.00 in0.0 mm 0.00 in0.0 mm 0.00 in0.0 mm
02:17 PM 79.3°F26.3°C 71.5°F21.9°C 77% 7.8 mph S12.6 kmh S 10.4 mph16.7 kmh 30.05 in1017.6 mb 0.00 in0.0 mm 0.00 in0.0 mm 0.00 in0.0 mm
02:18 PM 79.3°F26.3°C 71.5°F21.9°C 77% 5.8 mph ESE9.3 kmh ESE 10.4 mph16.7 kmh 30.05 in1017.6 mb 0.00 in0.0 mm 0.00 in0.0 mm 0.00 in0.0 mm
02:19 PM 80.2°F26.8°C 72.0°F22.2°C 76% 4.7 mph SE7.6 kmh SE 10.4 mph16.7 kmh 30.05 in1017.6 mb 0.00 in0.0 mm 0.00 in0.0 mm 0.00 in0.0 mm
02:20 PM 80.4°F26.9°C 71.7°F22.1°C 75% 6.3 mph S10.1 kmh S 10.4 mph16.7 kmh 30.05 in1017.6 mb 0.00 in0.0 mm 0.00 in0.0 mm 0.00 in0.0 mm
02:21 PM 80.1°F26.7°C 71.8°F22.1°C 76% 5.8 mph SSE9.3 kmh SSE 10.4 mph16.7 kmh 30.05 in1017.6 mb 0.00 in0.0 mm 0.00 in0.0 mm 0.00 in0.0 mm
02:22 PM 80.2°F26.8°C 72.0°F22.2°C 76% 4.7 mph ESE7.6 kmh ESE 10.4 mph16.7 kmh 30.05 in1017.6 mb 0.00 in0.0 mm 0.00 in0.0 mm 0.00 in0.0 mm
02:23 PM 80.8°F27.1°C 72.1°F22.3°C 75% 5.8 mph SE9.3 kmh SE 10.4 mph16.7 kmh 30.05 in1017.6 mb 0.00 in0.0 mm 0.00 in0.0 mm 0.00 in0.0 mm
02:24 PM 81.0°F27.2°C 72.3°F22.4°C 75% 3.2 mph S5.1 kmh S 10.4 mph16.7 kmh 30.05 in1017.6 mb 0.00 in0.0 mm 0.00 in0.0 mm 0.00 in0.0 mm
02:25 PM 81.7°F27.6°C 72.6°F22.6°C 74% 6.8 mph SE10.9 kmh SE 8.3 mph13.4 kmh 30.05 in1017.6 mb 0.00 in0.0 mm 0.00 in0.0 mm 0.00 in0.0 mm
02:26 PM 81.3°F27.4°C 72.2°F22.3°C 74% 4.7 mph S7.6 kmh S 8.3 mph13.4 kmh 30.05 in1017.6 mb 0.00 in0.0 mm 0.00 in0.0 mm 0.00 in0.0 mm
02:27 PM 81.1°F27.3°C 72.0°F22.2°C 74% 7.3 mph WSW11.7 kmh WSW 8.9 mph14.3 kmh 30.05 in1017.6 mb 0.00 in0.0 mm 0.00 in0.0 mm 0.00 in0.0 mm
02:28 PM 80.6°F27.0°C 71.9°F22.2°C 75% 6.3 mph SE10.1 kmh SE 8.9 mph14.3 kmh 30.05 in1017.6 mb 0.00 in0.0 mm 0.00 in0.0 mm 0.00 in0.0 mm
02:29 PM 80.4°F26.9°C 71.7°F22.1°C 75% 5.3 mph S8.5 kmh S 8.9 mph14.3 kmh 30.05 in1017.6 mb 0.00 in0.0 mm 0.00 in0.0 mm 0.00 in0.0 mm
02:30 PM 80.1°F26.7°C 71.8°F22.1°C 76% 6.3 mph SSE10.1 kmh SSE 8.9 mph14.3 kmh 30.05 in1017.6 mb 0.00 in0.0 mm 0.00 in0.0 mm 0.00 in0.0 mm
02:31 PM 80.2°F26.8°C 72.0°F22.2°C 76% 5.3 mph S8.5 kmh S 8.9 mph14.3 kmh 30.05 in1017.6 mb 0.00 in0.0 mm 0.00 in0.0 mm 0.00 in0.0 mm
02:32 PM 80.6°F27.0°C 72.3°F22.4°C 76% 6.3 mph SSE10.1 kmh SSE 8.9 mph14.3 kmh 30.05 in1017.6 mb 0.00 in0.0 mm 0.00 in0.0 mm 0.00 in0.0 mm
02:33 PM 80.2°F26.8°C 71.6°F22.0°C 75% 4.7 mph S7.6 kmh S 8.9 mph14.3 kmh 30.05 in1017.6 mb 0.00 in0.0 mm 0.00 in0.0 mm 0.00 in0.0 mm
02:34 PM 80.2°F26.8°C 71.6°F22.0°C 75% 7.3 mph SSE11.7 kmh SSE 8.9 mph14.3 kmh 30.05 in1017.6 mb 0.00 in0.0 mm 0.00 in0.0 mm 0.00 in0.0 mm
02:35 PM 80.4°F26.9°C 72.1°F22.3°C 76% 6.3 mph ESE10.1 kmh ESE 8.9 mph14.3 kmh 30.05 in1017.6 mb 0.00 in0.0 mm 0.00 in0.0 mm 0.00 in0.0 mm
02:36 PM 80.1°F26.7°C 71.8°F22.1°C 76% 6.3 mph SSW10.1 kmh SSW 8.9 mph14.3 kmh 30.05 in1017.6 mb 0.00 in0.0 mm 0.00 in0.0 mm 0.00 in0.0 mm
02:37 PM 80.1°F26.7°C 71.8°F22.1°C 76% 5.3 mph S8.5 kmh S 9.4 mph15.1 kmh 30.05 in1017.6 mb 0.00 in0.0 mm 0.00 in0.0 mm 0.00 in0.0 mm
02:38 PM 79.9°F26.6°C 71.6°F22.0°C 76% 6.3 mph S10.1 kmh S 9.4 mph15.1 kmh 30.05 in1017.6 mb 0.00 in0.0 mm 0.00 in0.0 mm 0.00 in0.0 mm
02:39 PM 80.2°F26.8°C 71.6°F22.0°C 75% 7.8 mph SSE12.6 kmh SSE 9.4 mph15.1 kmh 30.05 in1017.6 mb 0.00 in0.0 mm 0.00 in0.0 mm 0.00 in0.0 mm
02:40 PM 80.1°F26.7°C 71.4°F21.9°C 75% 8.3 mph S13.4 kmh S 9.4 mph15.1 kmh 30.05 in1017.6 mb 0.00 in0.0 mm 0.00 in0.0 mm 0.00 in0.0 mm
02:41 PM 79.9°F26.6°C 71.6°F22.0°C 76% 4.7 mph SE7.6 kmh SE 9.4 mph15.1 kmh 30.04 in1017.3 mb 0.00 in0.0 mm 0.00 in0.0 mm 0.00 in0.0 mm
02:42 PM 80.1°F26.7°C 71.8°F22.1°C 76% 8.3 mph ESE13.4 kmh ESE 9.4 mph15.1 kmh 30.04 in1017.3 mb 0.00 in0.0 mm 0.00 in0.0 mm 0.00 in0.0 mm
02:43 PM 80.2°F26.8°C 72.0°F22.2°C 76% 7.3 mph ESE11.7 kmh ESE 9.4 mph15.1 kmh 30.04 in1017.3 mb 0.00 in0.0 mm 0.00 in0.0 mm 0.00 in0.0 mm
02:44 PM 80.1°F26.7°C 71.4°F21.9°C 75% 6.3 mph S10.1 kmh S 9.4 mph15.1 kmh 30.04 in1017.3 mb 0.00 in0.0 mm 0.00 in0.0 mm 0.00 in0.0 mm
02:45 PM 80.1°F26.7°C 71.4°F21.9°C 75% 5.8 mph SSW9.3 kmh SSW 9.4 mph15.1 kmh 30.04 in1017.3 mb 0.00 in0.0 mm 0.00 in0.0 mm 0.00 in0.0 mm
02:46 PM 79.9°F26.6°C 71.6°F22.0°C 76% 4.7 mph S7.6 kmh S 9.4 mph15.1 kmh 30.04 in1017.3 mb 0.00 in0.0 mm 0.00 in0.0 mm 0.00 in0.0 mm
02:47 PM 79.7°F26.5°C 71.4°F21.9°C 76% 7.8 mph S12.6 kmh S 8.9 mph14.3 kmh 30.04 in1017.3 mb 0.00 in0.0 mm 0.00 in0.0 mm 0.00 in0.0 mm
02:48 PM 79.7°F26.5°C 71.4°F21.9°C 76% 3.7 mph SE6.0 kmh SE 8.9 mph14.3 kmh 30.04 in1017.3 mb 0.00 in0.0 mm 0.00 in0.0 mm 0.00 in0.0 mm
02:49 PM 79.9°F26.6°C 71.6°F22.0°C 76% 5.8 mph ESE9.3 kmh ESE 10.4 mph16.7 kmh 30.04 in1017.3 mb 0.00 in0.0 mm 0.00 in0.0 mm 0.00 in0.0 mm
02:50 PM 79.9°F26.6°C 71.6°F22.0°C 76% 6.8 mph S10.9 kmh S 10.4 mph16.7 kmh 30.04 in1017.3 mb 0.00 in0.0 mm 0.00 in0.0 mm 0.00 in0.0 mm
02:51 PM 79.5°F26.4°C 71.3°F21.8°C 76% 4.7 mph WSW7.6 kmh WSW 10.4 mph16.7 kmh 30.04 in1017.3 mb 0.00 in0.0 mm 0.00 in0.0 mm 0.00 in0.0 mm
02:52 PM 79.7°F26.5°C 71.4°F21.9°C 76% 6.8 mph SSW10.9 kmh SSW 10.4 mph16.7 kmh 30.04 in1017.3 mb 0.00 in0.0 mm 0.00 in0.0 mm 0.00 in0.0 mm
02:53 PM 79.9°F26.6°C 71.6°F22.0°C 76% 5.3 mph SSE8.5 kmh SSE 10.4 mph16.7 kmh 30.04 in1017.3 mb 0.00 in0.0 mm 0.00 in0.0 mm 0.00 in0.0 mm
02:54 PM 80.1°F26.7°C 71.8°F22.1°C 76% 5.8 mph SSW9.3 kmh SSW 10.4 mph16.7 kmh 30.04 in1017.3 mb 0.00 in0.0 mm 0.00 in0.0 mm 0.00 in0.0 mm
02:55 PM 80.1°F26.7°C 71.8°F22.1°C 76% 4.2 mph S6.8 kmh S 10.4 mph16.7 kmh 30.04 in1017.3 mb 0.00 in0.0 mm 0.00 in0.0 mm 0.00 in0.0 mm
02:56 PM 80.1°F26.7°C 71.8°F22.1°C 76% 8.9 mph ESE14.3 kmh ESE 10.4 mph16.7 kmh 30.04 in1017.3 mb 0.00 in0.0 mm 0.00 in0.0 mm 0.00 in0.0 mm
02:57 PM 79.5°F26.4°C 71.7°F22.1°C 77% 10.4 mph SSE16.7 kmh SSE 10.4 mph16.7 kmh 30.04 in1017.3 mb 0.00 in0.0 mm 0.00 in0.0 mm 0.00 in0.0 mm
02:58 PM 79.5°F26.4°C 71.7°F22.1°C 77% 8.3 mph SE13.4 kmh SE 10.4 mph16.7 kmh 30.04 in1017.3 mb 0.00 in0.0 mm 0.00 in0.0 mm 0.00 in0.0 mm
02:59 PM 79.3°F26.3°C 71.5°F21.9°C 77% 7.8 mph SSE12.6 kmh SSE 10.4 mph16.7 kmh 30.04 in1017.3 mb 0.00 in0.0 mm 0.00 in0.0 mm 0.00 in0.0 mm
03:00 PM 79.2°F26.2°C 71.7°F22.1°C 78% 3.7 mph SE6.0 kmh SE 10.4 mph16.7 kmh 30.04 in1017.3 mb 0.00 in0.0 mm 0.00 in0.0 mm 0.00 in0.0 mm
03:01 PM 78.8°F26.0°C 71.3°F21.8°C 78% 6.8 mph S10.9 kmh S 10.4 mph16.7 kmh 30.04 in1017.3 mb 0.00 in0.0 mm 0.00 in0.0 mm 0.00 in0.0 mm
03:02 PM 78.8°F26.0°C 71.3°F21.8°C 78% 7.3 mph SSW11.7 kmh SSW 10.4 mph16.7 kmh 30.04 in1017.3 mb 0.00 in0.0 mm 0.00 in0.0 mm 0.00 in0.0 mm
03:03 PM 79.2°F26.2°C 71.7°F22.1°C 78% 8.9 mph SW14.3 kmh SW 10.4 mph16.7 kmh 30.04 in1017.3 mb 0.00 in0.0 mm 0.00 in0.0 mm 0.00 in0.0 mm
03:04 PM 79.0°F26.1°C 71.5°F21.9°C 78% 5.8 mph SE9.3 kmh SE 10.4 mph16.7 kmh 30.04 in1017.3 mb 0.00 in0.0 mm 0.00 in0.0 mm 0.00 in0.0 mm
03:05 PM 79.0°F26.1°C 71.5°F21.9°C 78% 5.3 mph SSE8.5 kmh SSE 10.4 mph16.7 kmh 30.04 in1017.3 mb 0.00 in0.0 mm 0.00 in0.0 mm 0.00 in0.0 mm
03:06 PM 79.2°F26.2°C 71.7°F22.1°C 78% 4.7 mph S7.6 kmh S 10.4 mph16.7 kmh 30.04 in1017.3 mb 0.00 in0.0 mm 0.00 in0.0 mm 0.00 in0.0 mm
03:07 PM 79.5°F26.4°C 71.7°F22.1°C 77% 3.2 mph S5.1 kmh S 10.4 mph16.7 kmh 30.04 in1017.3 mb 0.00 in0.0 mm 0.00 in0.0 mm 0.00 in0.0 mm
03:08 PM 79.5°F26.4°C 71.7°F22.1°C 77% 7.3 mph SSE11.7 kmh SSE 8.9 mph14.3 kmh 30.04 in1017.3 mb 0.00 in0.0 mm 0.00 in0.0 mm 0.00 in0.0 mm
03:09 PM 79.3°F26.3°C 71.5°F21.9°C 77% 5.3 mph SSE8.5 kmh SSE 8.9 mph14.3 kmh 30.04 in1017.3 mb 0.00 in0.0 mm 0.00 in0.0 mm 0.00 in0.0 mm
03:10 PM 79.7°F26.5°C 71.8°F22.1°C 77% 3.7 mph S6.0 kmh S 8.9 mph14.3 kmh 30.04 in1017.3 mb 0.00 in0.0 mm 0.00 in0.0 mm 0.00 in0.0 mm
03:11 PM 79.9°F26.6°C 72.0°F22.2°C 77% 7.8 mph S12.6 kmh S 8.9 mph14.3 kmh 30.04 in1017.3 mb 0.00 in0.0 mm 0.00 in0.0 mm 0.00 in0.0 mm
03:12 PM 79.7°F26.5°C 71.8°F22.1°C 77% 5.8 mph S9.3 kmh S 8.9 mph14.3 kmh 30.04 in1017.3 mb 0.00 in0.0 mm 0.00 in0.0 mm 0.00 in0.0 mm
03:13 PM 79.7°F26.5°C 71.8°F22.1°C 77% 4.7 mph S7.6 kmh S 8.9 mph14.3 kmh 30.04 in1017.3 mb 0.00 in0.0 mm 0.00 in0.0 mm 0.00 in0.0 mm
03:14 PM 79.3°F26.3°C 71.5°F21.9°C 77% 7.3 mph SSW11.7 kmh SSW 8.9 mph14.3 kmh 30.04 in1017.3 mb 0.00 in0.0 mm 0.00 in0.0 mm 0.00 in0.0 mm
03:15 PM 79.2°F26.2°C 71.3°F21.8°C 77% 7.8 mph S12.6 kmh S 8.9 mph14.3 kmh 30.04 in1017.3 mb 0.00 in0.0 mm 0.00 in0.0 mm 0.00 in0.0 mm
03:16 PM 78.8°F26.0°C 71.3°F21.8°C 78% 7.3 mph S11.7 kmh S 8.9 mph14.3 kmh 30.04 in1017.3 mb 0.00 in0.0 mm 0.00 in0.0 mm 0.00 in0.0 mm
03:17 PM 78.8°F26.0°C 71.3°F21.8°C 78% 5.8 mph ESE9.3 kmh ESE 8.9 mph14.3 kmh 30.05 in1017.6 mb 0.00 in0.0 mm 0.00 in0.0 mm 0.00 in0.0 mm
03:18 PM 78.8°F26.0°C 71.3°F21.8°C 78% 6.3 mph SE10.1 kmh SE 8.9 mph14.3 kmh 30.05 in1017.6 mb 0.00 in0.0 mm 0.00 in0.0 mm 0.00 in0.0 mm
03:19 PM 78.8°F26.0°C 71.3°F21.8°C 78% 5.3 mph SSW8.5 kmh SSW 10.9 mph17.5 kmh 30.05 in1017.6 mb 0.00 in0.0 mm 0.00 in0.0 mm 0.00 in0.0 mm
03:20 PM 79.5°F26.4°C 72.0°F22.2°C 78% 6.8 mph ESE10.9 kmh ESE 10.9 mph17.5 kmh 30.05 in1017.6 mb 0.00 in0.0 mm 0.00 in0.0 mm 0.00 in0.0 mm
03:21 PM 79.2°F26.2°C 71.7°F22.1°C 78% 8.9 mph ESE14.3 kmh ESE 10.9 mph17.5 kmh 30.05 in1017.6 mb 0.00 in0.0 mm 0.00 in0.0 mm 0.00 in0.0 mm
03:22 PM 79.2°F26.2°C 71.7°F22.1°C 78% 7.3 mph S11.7 kmh S 10.9 mph17.5 kmh 30.05 in1017.6 mb 0.00 in0.0 mm 0.00 in0.0 mm 0.00 in0.0 mm
03:23 PM 79.0°F26.1°C 71.5°F21.9°C 78% 7.3 mph SSE11.7 kmh SSE 10.9 mph17.5 kmh 30.05 in1017.6 mb 0.00 in0.0 mm 0.00 in0.0 mm 0.00 in0.0 mm
03:24 PM 78.8°F26.0°C 71.3°F21.8°C 78% 6.3 mph SSE10.1 kmh SSE 10.9 mph17.5 kmh 30.05 in1017.6 mb 0.00 in0.0 mm 0.00 in0.0 mm 0.00 in0.0 mm
03:25 PM 78.4°F25.8°C 71.4°F21.9°C 79% 8.9 mph SSW14.3 kmh SSW 10.9 mph17.5 kmh 30.05 in1017.6 mb 0.00 in0.0 mm 0.00 in0.0 mm 0.00 in0.0 mm
03:26 PM 78.4°F25.8°C 71.4°F21.9°C 79% 4.2 mph SSE6.8 kmh SSE 10.9 mph17.5 kmh 30.05 in1017.6 mb 0.00 in0.0 mm 0.00 in0.0 mm 0.00 in0.0 mm
03:27 PM 78.6°F25.9°C 71.5°F21.9°C 79% 5.8 mph NNE9.3 kmh NNE 10.9 mph17.5 kmh 30.05 in1017.6 mb 0.00 in0.0 mm 0.00 in0.0 mm 0.00 in0.0 mm
03:28 PM 78.8°F26.0°C 71.7°F22.1°C 79% 6.8 mph SSE10.9 kmh SSE 10.9 mph17.5 kmh 30.05 in1017.6 mb 0.00 in0.0 mm 0.00 in0.0 mm 0.00 in0.0 mm
03:29 PM 78.8°F26.0°C 71.7°F22.1°C 79% 5.8 mph S9.3 kmh S 10.9 mph17.5 kmh 30.05 in1017.6 mb 0.00 in0.0 mm 0.00 in0.0 mm 0.00 in0.0 mm
03:30 PM 78.8°F26.0°C 71.7°F22.1°C 79% 7.8 mph S12.6 kmh S 10.9 mph17.5 kmh 30.05 in1017.6 mb 0.00 in0.0 mm 0.00 in0.0 mm 0.00 in0.0 mm
03:31 PM 78.6°F25.9°C 71.5°F21.9°C 79% 4.2 mph ESE6.8 kmh ESE 8.9 mph14.3 kmh 30.05 in1017.6 mb 0.00 in0.0 mm 0.00 in0.0 mm 0.00 in0.0 mm
03:32 PM 78.4°F25.8°C 71.4°F21.9°C 79% 9.4 mph ESE15.1 kmh ESE 10.4 mph16.7 kmh 30.05 in1017.6 mb 0.00 in0.0 mm 0.00 in0.0 mm 0.00 in0.0 mm
03:33 PM 78.4°F25.8°C 71.7°F22.1°C 80% 4.7 mph SE7.6 kmh SE 10.4 mph16.7 kmh 30.05 in1017.6 mb 0.00 in0.0 mm 0.00 in0.0 mm 0.00 in0.0 mm
03:34 PM 78.6°F25.9°C 71.9°F22.2°C 80% 4.7 mph SSE7.6 kmh SSE 10.4 mph16.7 kmh 30.05 in1017.6 mb 0.00 in0.0 mm 0.00 in0.0 mm 0.00 in0.0 mm
03:35 PM 79.0°F26.1°C 71.9°F22.2°C 79% 2.7 mph SSW4.3 kmh SSW 10.4 mph16.7 kmh 30.05 in1017.6 mb 0.00 in0.0 mm 0.00 in0.0 mm 0.00 in0.0 mm
03:36 PM 79.3°F26.3°C 71.9°F22.2°C 78% 5.8 mph SSE9.3 kmh SSE 10.4 mph16.7 kmh 30.05 in1017.6 mb 0.00 in0.0 mm 0.00 in0.0 mm 0.00 in0.0 mm
03:37 PM 79.3°F26.3°C 71.9°F22.2°C 78% 5.3 mph ESE8.5 kmh ESE 10.4 mph16.7 kmh 30.05 in1017.6 mb 0.00 in0.0 mm 0.00 in0.0 mm 0.00 in0.0 mm
03:38 PM 78.8°F26.0°C 71.7°F22.1°C 79% 6.3 mph SSE10.1 kmh SSE 10.4 mph16.7 kmh 30.05 in1017.6 mb 0.00 in0.0 mm 0.00 in0.0 mm 0.00 in0.0 mm
03:39 PM 78.6°F25.9°C 71.5°F21.9°C 79% 6.8 mph SSE10.9 kmh SSE 10.4 mph16.7 kmh 30.05 in1017.6 mb 0.00 in0.0 mm 0.00 in0.0 mm 0.00 in0.0 mm
03:40 PM 78.3°F25.7°C 71.2°F21.8°C 79% 7.8 mph ESE12.6 kmh ESE 10.4 mph16.7 kmh 30.05 in1017.6 mb 0.00 in0.0 mm 0.00 in0.0 mm 0.00 in0.0 mm
03:41 PM 78.3°F25.7°C 71.6°F22.0°C 80% 5.8 mph SSE9.3 kmh SSE 10.4 mph16.7 kmh 30.05 in1017.6 mb 0.00 in0.0 mm 0.00 in0.0 mm 0.00 in0.0 mm
03:42 PM 78.3°F25.7°C 71.6°F22.0°C 80% 5.8 mph S9.3 kmh S 10.4 mph16.7 kmh 30.05 in1017.6 mb 0.00 in0.0 mm 0.00 in0.0 mm 0.00 in0.0 mm
03:43 PM 78.4°F25.8°C 71.7°F22.1°C 80% 5.8 mph S9.3 kmh S 10.4 mph16.7 kmh 30.05 in1017.6 mb 0.00 in0.0 mm 0.00 in0.0 mm 0.00 in0.0 mm
03:44 PM 78.3°F25.7°C 71.6°F22.0°C 80% 4.7 mph S7.6 kmh S 10.4 mph16.7 kmh 30.05 in1017.6 mb 0.00 in0.0 mm 0.00 in0.0 mm 0.00 in0.0 mm
03:45 PM 78.3°F25.7°C 71.6°F22.0°C 80% 3.7 mph S6.0 kmh S 10.4 mph16.7 kmh 30.05 in1017.6 mb 0.00 in0.0 mm 0.00 in0.0 mm 0.00 in0.0 mm
03:46 PM 78.3°F25.7°C 71.6°F22.0°C 80% 5.8 mph S9.3 kmh S 10.4 mph16.7 kmh 30.05 in1017.6 mb 0.00 in0.0 mm 0.00 in0.0 mm 0.00 in0.0 mm
03:47 PM 78.3°F25.7°C 71.6°F22.0°C 80% 5.8 mph SSE9.3 kmh SSE 10.4 mph16.7 kmh 30.05 in1017.6 mb 0.00 in0.0 mm 0.00 in0.0 mm 0.00 in0.0 mm
03:48 PM 78.3°F25.7°C 71.6°F22.0°C 80% 5.8 mph SE9.3 kmh SE 10.4 mph16.7 kmh 30.05 in1017.6 mb 0.00 in0.0 mm 0.00 in0.0 mm 0.00 in0.0 mm
03:49 PM 78.3°F25.7°C 71.6°F22.0°C 80% 4.7 mph S7.6 kmh S 10.4 mph16.7 kmh 30.05 in1017.6 mb 0.00 in0.0 mm 0.00 in0.0 mm 0.00 in0.0 mm
03:50 PM 78.4°F25.8°C 71.7°F22.1°C 80% 8.9 mph SE14.3 kmh SE 10.4 mph16.7 kmh 30.05 in1017.6 mb 0.00 in0.0 mm 0.00 in0.0 mm 0.00 in0.0 mm
03:51 PM 78.3°F25.7°C 71.6°F22.0°C 80% 4.7 mph ESE7.6 kmh ESE 10.4 mph16.7 kmh 30.05 in1017.6 mb 0.00 in0.0 mm 0.00 in0.0 mm 0.00 in0.0 mm
03:52 PM 78.3°F25.7°C 71.6°F22.0°C 80% 7.3 mph SSE11.7 kmh SSE 8.9 mph14.3 kmh 30.05 in1017.6 mb 0.00 in0.0 mm 0.00 in0.0 mm 0.00 in0.0 mm
03:53 PM 77.9°F25.5°C 71.6°F22.0°C 81% 3.7 mph SSE6.0 kmh SSE 8.9 mph14.3 kmh 30.04 in1017.3 mb 0.00 in0.0 mm 0.00 in0.0 mm 0.00 in0.0 mm
03:54 PM 78.1°F25.6°C 71.8°F22.1°C 81% 4.2 mph ESE6.8 kmh ESE 8.9 mph14.3 kmh 30.04 in1017.3 mb 0.00 in0.0 mm 0.00 in0.0 mm 0.00 in0.0 mm
03:55 PM 77.9°F25.5°C 71.6°F22.0°C 81% 5.8 mph SSE9.3 kmh SSE 8.9 mph14.3 kmh 30.04 in1017.3 mb 0.00 in0.0 mm 0.00 in0.0 mm 0.00 in0.0 mm
03:56 PM 77.9°F25.5°C 71.6°F22.0°C 81% 4.7 mph SE7.6 kmh SE 8.9 mph14.3 kmh 30.04 in1017.3 mb 0.00 in0.0 mm 0.00 in0.0 mm 0.00 in0.0 mm
03:57 PM 77.9°F25.5°C 71.6°F22.0°C 81% 5.8 mph S9.3 kmh S 8.9 mph14.3 kmh 30.04 in1017.3 mb 0.00 in0.0 mm 0.00 in0.0 mm 0.00 in0.0 mm
03:58 PM 78.1°F25.6°C 71.8°F22.1°C 81% 7.3 mph S11.7 kmh S 8.9 mph14.3 kmh 30.04 in1017.3 mb 0.00 in0.0 mm 0.00 in0.0 mm 0.00 in0.0 mm
03:59 PM 78.1°F25.6°C 71.8°F22.1°C 81% 4.2 mph S6.8 kmh S 8.9 mph14.3 kmh 30.04 in1017.3 mb 0.00 in0.0 mm 0.00 in0.0 mm 0.00 in0.0 mm
04:00 PM 78.1°F25.6°C 71.8°F22.1°C 81% 5.8 mph SW9.3 kmh SW 7.8 mph12.6 kmh 30.04 in1017.3 mb 0.00 in0.0 mm 0.00 in0.0 mm 0.00 in0.0 mm
04:01 PM 78.1°F25.6°C 71.8°F22.1°C 81% 6.8 mph SE10.9 kmh SE 7.3 mph11.7 kmh 30.04 in1017.3 mb 0.00 in0.0 mm 0.00 in0.0 mm 0.00 in0.0 mm
04:02 PM 77.9°F25.5°C 71.6°F22.0°C 81% 4.2 mph SW6.8 kmh SW 7.3 mph11.7 kmh 30.04 in1017.3 mb 0.00 in0.0 mm 0.00 in0.0 mm 0.00 in0.0 mm
04:03 PM 77.9°F25.5°C 71.6°F22.0°C 81% 5.3 mph S8.5 kmh S 7.3 mph11.7 kmh 30.04 in1017.3 mb 0.00 in0.0 mm 0.00 in0.0 mm 0.00 in0.0 mm
04:04 PM 77.9°F25.5°C 71.6°F22.0°C 81% 7.8 mph SE12.6 kmh SE 7.8 mph12.6 kmh 30.04 in1017.3 mb 0.00 in0.0 mm 0.00 in0.0 mm 0.00 in0.0 mm
04:05 PM 77.7°F25.4°C 71.4°F21.9°C 81% 5.3 mph S8.5 kmh S 7.8 mph12.6 kmh 30.04 in1017.3 mb 0.00 in0.0 mm 0.00 in0.0 mm 0.00 in0.0 mm
04:06 PM 77.7°F25.4°C 71.4°F21.9°C 81% 4.2 mph S6.8 kmh S 7.8 mph12.6 kmh 30.04 in1017.3 mb 0.00 in0.0 mm 0.00 in0.0 mm 0.00 in0.0 mm
04:07 PM 77.7°F25.4°C 71.4°F21.9°C 81% 4.2 mph SSE6.8 kmh SSE 7.8 mph12.6 kmh 30.04 in1017.3 mb 0.00 in0.0 mm 0.00 in0.0 mm 0.00 in0.0 mm
04:08 PM 77.9°F25.5°C 71.6°F22.0°C 81% 5.8 mph S9.3 kmh S 7.8 mph12.6 kmh 30.04 in1017.3 mb 0.00 in0.0 mm 0.00 in0.0 mm 0.00 in0.0 mm
04:09 PM 77.9°F25.5°C 71.6°F22.0°C 81% 3.7 mph S6.0 kmh S 7.8 mph12.6 kmh 30.04 in1017.3 mb 0.00 in0.0 mm 0.00 in0.0 mm 0.00 in0.0 mm
04:10 PM 77.9°F25.5°C 71.6°F22.0°C 81% 7.3 mph ESE11.7 kmh ESE 7.8 mph12.6 kmh 30.04 in1017.3 mb 0.00 in0.0 mm 0.00 in0.0 mm 0.00 in0.0 mm
04:11 PM 77.7°F25.4°C 71.4°F21.9°C 81% 5.3 mph S8.5 kmh S 7.8 mph12.6 kmh 30.04 in1017.3 mb 0.00 in0.0 mm 0.00 in0.0 mm 0.00 in0.0 mm
04:12 PM 77.7°F25.4°C 71.4°F21.9°C 81% 7.3 mph SSE11.7 kmh SSE 7.8 mph12.6 kmh 30.04 in1017.3 mb 0.00 in0.0 mm 0.00 in0.0 mm 0.00 in0.0 mm
04:13 PM 77.7°F25.4°C 71.4°F21.9°C 81% 6.8 mph SE10.9 kmh SE 7.8 mph12.6 kmh 30.04 in1017.3 mb 0.00 in0.0 mm 0.00 in0.0 mm 0.00 in0.0 mm
04:14 PM 77.7°F25.4°C 71.4°F21.9°C 81% 7.8 mph ESE12.6 kmh ESE 7.8 mph12.6 kmh 30.04 in1017.3 mb 0.00 in0.0 mm 0.00 in0.0 mm 0.00 in0.0 mm
04:15 PM 77.7°F25.4°C 71.4°F21.9°C 81% 5.8 mph SSE9.3 kmh SSE 8.3 mph13.4 kmh 30.04 in1017.3 mb 0.00 in0.0 mm 0.00 in0.0 mm 0.00 in0.0 mm
04:16 PM 77.7°F25.4°C 71.4°F21.9°C 81% 5.8 mph SE9.3 kmh SE 8.3 mph13.4 kmh 30.04 in1017.3 mb 0.00 in0.0 mm 0.00 in0.0 mm 0.00 in0.0 mm
04:17 PM 77.9°F25.5°C 71.6°F22.0°C 81% 8.3 mph ESE13.4 kmh ESE 8.3 mph13.4 kmh 30.04 in1017.3 mb 0.00 in0.0 mm 0.00 in0.0 mm 0.00 in0.0 mm
04:18 PM 77.7°F25.4°C 71.4°F21.9°C 81% 8.9 mph ESE14.3 kmh ESE 8.9 mph14.3 kmh 30.04 in1017.3 mb 0.00 in0.0 mm 0.00 in0.0 mm 0.00 in0.0 mm
04:19 PM 77.7°F25.4°C 71.4°F21.9°C 81% 8.9 mph ESE14.3 kmh ESE 8.9 mph14.3 kmh 30.04 in1017.3 mb 0.00 in0.0 mm 0.00 in0.0 mm 0.00 in0.0 mm
04:20 PM 78.1°F25.6°C 71.8°F22.1°C 81% 7.3 mph ESE11.7 kmh ESE 8.9 mph14.3 kmh 30.04 in1017.3 mb 0.00 in0.0 mm 0.00 in0.0 mm 0.00 in0.0 mm
04:21 PM 77.9°F25.5°C 71.6°F22.0°C 81% 4.7 mph SSE7.6 kmh SSE 8.9 mph14.3 kmh 30.04 in1017.3 mb 0.00 in0.0 mm 0.00 in0.0 mm 0.00 in0.0 mm
04:22 PM 77.4°F25.2°C 71.1°F21.7°C 81% 5.3 mph SSE8.5 kmh SSE 8.9 mph14.3 kmh 30.04 in1017.3 mb 0.00 in0.0 mm 0.00 in0.0 mm 0.00 in0.0 mm
04:23 PM 77.4°F25.2°C 71.1°F21.7°C 81% 5.3 mph ESE8.5 kmh ESE 8.9 mph14.3 kmh 30.04 in1017.3 mb 0.00 in0.0 mm 0.00 in0.0 mm 0.00 in0.0 mm
04:24 PM 77.4°F25.2°C 71.1°F21.7°C 81% 5.3 mph ESE8.5 kmh ESE 8.9 mph14.3 kmh 30.04 in1017.3 mb 0.00 in0.0 mm 0.00 in0.0 mm 0.00 in0.0 mm
04:25 PM 77.4°F25.2°C 71.1°F21.7°C 81% 5.8 mph ESE9.3 kmh ESE 8.9 mph14.3 kmh 30.04 in1017.3 mb 0.00 in0.0 mm 0.00 in0.0 mm 0.00 in0.0 mm
04:26 PM 77.5°F25.3°C 71.2°F21.8°C 81% 4.2 mph S6.8 kmh S 8.9 mph14.3 kmh 30.04 in1017.3 mb 0.00 in0.0 mm 0.00 in0.0 mm 0.00 in0.0 mm
04:27 PM 77.9°F25.5°C 71.6°F22.0°C 81% 7.3 mph ESE11.7 kmh ESE 8.9 mph14.3 kmh 30.04 in1017.3 mb 0.00 in0.0 mm 0.00 in0.0 mm 0.00 in0.0 mm
04:28 PM 77.9°F25.5°C 71.2°F21.8°C 80% 6.8 mph SSE10.9 kmh SSE 8.9 mph14.3 kmh 30.04 in1017.3 mb 0.00 in0.0 mm 0.00 in0.0 mm 0.00 in0.0 mm
04:29 PM 77.7°F25.4°C 71.4°F21.9°C 81% 5.8 mph S9.3 kmh S 8.3 mph13.4 kmh 30.03 in1016.9 mb 0.00 in0.0 mm 0.00 in0.0 mm 0.00 in0.0 mm
04:30 PM 77.4°F25.2°C 71.4°F21.9°C 82% 4.7 mph S7.6 kmh S 8.3 mph13.4 kmh 30.03 in1016.9 mb 0.00 in0.0 mm 0.00 in0.0 mm 0.00 in0.0 mm
04:31 PM 77.4°F25.2°C 71.4°F21.9°C 82% 5.3 mph SSE8.5 kmh SSE 8.3 mph13.4 kmh 30.03 in1016.9 mb 0.00 in0.0 mm 0.00 in0.0 mm 0.00 in0.0 mm
04:32 PM 77.4°F25.2°C 71.4°F21.9°C 82% 5.3 mph SSE8.5 kmh SSE 8.3 mph13.4 kmh 30.03 in1016.9 mb 0.00 in0.0 mm 0.00 in0.0 mm 0.00 in0.0 mm
04:33 PM 77.0°F25.0°C 71.1°F21.7°C 82% 6.3 mph SSE10.1 kmh SSE 8.3 mph13.4 kmh 30.03 in1016.9 mb 0.00 in0.0 mm 0.00 in0.0 mm 0.00 in0.0 mm
04:34 PM 76.8°F24.9°C 70.9°F21.6°C 82% 7.3 mph ESE11.7 kmh ESE 8.3 mph13.4 kmh 30.03 in1016.9 mb 0.00 in0.0 mm 0.00 in0.0 mm 0.00 in0.0 mm
04:35 PM 76.8°F24.9°C 70.9°F21.6°C 82% 6.3 mph SE10.1 kmh SE 8.3 mph13.4 kmh 30.03 in1016.9 mb 0.00 in0.0 mm 0.00 in0.0 mm 0.00 in0.0 mm
04:36 PM 76.8°F24.9°C 70.9°F21.6°C 82% 6.8 mph ESE10.9 kmh ESE 8.9 mph14.3 kmh 30.03 in1016.9 mb 0.00 in0.0 mm 0.00 in0.0 mm 0.00 in0.0 mm
04:37 PM 77.0°F25.0°C 71.1°F21.7°C 82% 6.3 mph ESE10.1 kmh ESE 8.9 mph14.3 kmh 30.03 in1016.9 mb 0.00 in0.0 mm 0.00 in0.0 mm 0.00 in0.0 mm
04:38 PM 77.0°F25.0°C 71.1°F21.7°C 82% 7.8 mph SE12.6 kmh SE 8.9 mph14.3 kmh 30.03 in1016.9 mb 0.00 in0.0 mm 0.00 in0.0 mm 0.00 in0.0 mm
04:39 PM 76.8°F24.9°C 70.9°F21.6°C 82% 8.3 mph ESE13.4 kmh ESE 8.9 mph14.3 kmh 30.03 in1016.9 mb 0.00 in0.0 mm 0.00 in0.0 mm 0.00 in0.0 mm
04:40 PM 77.2°F25.1°C 71.2°F21.8°C 82% 4.2 mph SE6.8 kmh SE 8.9 mph14.3 kmh 30.03 in1016.9 mb 0.00 in0.0 mm 0.00 in0.0 mm 0.00 in0.0 mm
04:41 PM 77.0°F25.0°C 71.1°F21.7°C 82% 6.8 mph S10.9 kmh S 8.9 mph14.3 kmh 30.03 in1016.9 mb 0.00 in0.0 mm 0.00 in0.0 mm 0.00 in0.0 mm
04:42 PM 77.0°F25.0°C 71.1°F21.7°C 82% 4.7 mph ESE7.6 kmh ESE 8.9 mph14.3 kmh 30.03 in1016.9 mb 0.00 in0.0 mm 0.00 in0.0 mm 0.00 in0.0 mm
04:43 PM 77.2°F25.1°C 71.2°F21.8°C 82% 5.3 mph SSE8.5 kmh SSE 8.9 mph14.3 kmh 30.03 in1016.9 mb 0.00 in0.0 mm 0.00 in0.0 mm 0.00 in0.0 mm
04:44 PM 77.0°F25.0°C 71.1°F21.7°C 82% 6.8 mph SE10.9 kmh SE 8.9 mph14.3 kmh 30.03 in1016.9 mb 0.00 in0.0 mm 0.00 in0.0 mm 0.00 in0.0 mm
04:45 PM 76.8°F24.9°C 70.9°F21.6°C 82% 6.3 mph ESE10.1 kmh ESE 8.9 mph14.3 kmh 30.03 in1016.9 mb 0.00 in0.0 mm 0.00 in0.0 mm 0.00 in0.0 mm
04:46 PM 77.0°F25.0°C 71.1°F21.7°C 82% 4.7 mph ESE7.6 kmh ESE 8.3 mph13.4 kmh 30.03 in1016.9 mb 0.00 in0.0 mm 0.00 in0.0 mm 0.00 in0.0 mm
04:47 PM 77.2°F25.1°C 71.2°F21.8°C 82% 6.8 mph ESE10.9 kmh ESE 8.3 mph13.4 kmh 30.03 in1016.9 mb 0.00 in0.0 mm 0.00 in0.0 mm 0.00 in0.0 mm
04:48 PM 77.2°F25.1°C 71.2°F21.8°C 82% 5.8 mph ESE9.3 kmh ESE 8.3 mph13.4 kmh 30.03 in1016.9 mb 0.00 in0.0 mm 0.00 in0.0 mm 0.00 in0.0 mm
04:49 PM 77.2°F25.1°C 71.2°F21.8°C 82% 14.0 mph SE22.5 kmh SE 14.0 mph22.5 kmh 30.03 in1016.9 mb 0.00 in0.0 mm 0.00 in0.0 mm 0.00 in0.0 mm
04:50 PM 76.8°F24.9°C 70.9°F21.6°C 82% 5.8 mph SSE9.3 kmh SSE 14.0 mph22.5 kmh 30.03 in1016.9 mb 0.00 in0.0 mm 0.00 in0.0 mm 0.00 in0.0 mm
04:51 PM 76.6°F24.8°C 70.7°F21.5°C 82% 5.8 mph S9.3 kmh S 14.0 mph22.5 kmh 30.03 in1016.9 mb 0.00 in0.0 mm 0.00 in0.0 mm 0.00 in0.0 mm
04:52 PM 76.5°F24.7°C 70.9°F21.6°C 83% 6.3 mph S10.1 kmh S 14.0 mph22.5 kmh 30.03 in1016.9 mb 0.00 in0.0 mm 0.00 in0.0 mm 0.00 in0.0 mm
04:53 PM 76.5°F24.7°C 70.9°F21.6°C 83% 5.8 mph ESE9.3 kmh ESE 14.0 mph22.5 kmh 30.03 in1016.9 mb 0.00 in0.0 mm 0.00 in0.0 mm 0.00 in0.0 mm
04:54 PM 76.5°F24.7°C 70.9°F21.6°C 83% 7.8 mph SE12.6 kmh SE 14.0 mph22.5 kmh 30.03 in1016.9 mb 0.00 in0.0 mm 0.00 in0.0 mm 0.00 in0.0 mm
04:55 PM 76.3°F24.6°C 70.7°F21.5°C 83% 6.8 mph ESE10.9 kmh ESE 14.0 mph22.5 kmh 30.03 in1016.9 mb 0.00 in0.0 mm 0.00 in0.0 mm 0.00 in0.0 mm
04:56 PM 76.3°F24.6°C 70.7°F21.5°C 83% 3.7 mph SE6.0 kmh SE 14.0 mph22.5 kmh 30.03 in1016.9 mb 0.00 in0.0 mm 0.00 in0.0 mm 0.00 in0.0 mm
04:57 PM 76.1°F24.5°C 70.5°F21.4°C 83% 6.8 mph SSE10.9 kmh SSE 14.0 mph22.5 kmh 30.03 in1016.9 mb 0.00 in0.0 mm 0.00 in0.0 mm 0.00 in0.0 mm
04:58 PM 76.1°F24.5°C 70.5°F21.4°C 83% 4.7 mph SE7.6 kmh SE 14.0 mph22.5 kmh 30.03 in1016.9 mb 0.00 in0.0 mm 0.00 in0.0 mm 0.00 in0.0 mm
04:59 PM 76.1°F24.5°C 70.5°F21.4°C 83% 5.3 mph SE8.5 kmh SE 14.0 mph22.5 kmh 30.03 in1016.9 mb 0.00 in0.0 mm 0.00 in0.0 mm 0.00 in0.0 mm
05:00 PM 76.1°F24.5°C 70.5°F21.4°C 83% 4.7 mph ESE7.6 kmh ESE 7.8 mph12.6 kmh 30.03 in1016.9 mb 0.00 in0.0 mm 0.00 in0.0 mm 0.00 in0.0 mm
05:01 PM 75.9°F24.4°C 70.7°F21.5°C 84% 5.8 mph ESE9.3 kmh ESE 7.8 mph12.6 kmh 30.03 in1016.9 mb 0.00 in0.0 mm 0.00 in0.0 mm 0.00 in0.0 mm
05:02 PM 75.7°F24.3°C 70.6°F21.4°C 84% 4.2 mph SSE6.8 kmh SSE 7.8 mph12.6 kmh 30.03 in1016.9 mb 0.00 in0.0 mm 0.00 in0.0 mm 0.00 in0.0 mm
05:03 PM 75.7°F24.3°C 70.6°F21.4°C 84% 5.3 mph SSE8.5 kmh SSE 7.8 mph12.6 kmh 30.03 in1016.9 mb 0.00 in0.0 mm 0.00 in0.0 mm 0.00 in0.0 mm
05:04 PM 75.6°F24.2°C 70.4°F21.3°C 84% 4.7 mph S7.6 kmh S 7.8 mph12.6 kmh 30.03 in1016.9 mb 0.00 in0.0 mm 0.00 in0.0 mm 0.00 in0.0 mm
05:05 PM 75.6°F24.2°C 70.4°F21.3°C 84% 5.8 mph ESE9.3 kmh ESE 7.8 mph12.6 kmh 30.03 in1016.9 mb 0.00 in0.0 mm 0.00 in0.0 mm 0.00 in0.0 mm
05:06 PM 75.4°F24.1°C 70.2°F21.2°C 84% 5.3 mph ESE8.5 kmh ESE 7.8 mph12.6 kmh 30.03 in1016.9 mb 0.00 in0.0 mm 0.00 in0.0 mm 0.00 in0.0 mm
05:07 PM 75.4°F24.1°C 70.5°F21.4°C 85% 7.8 mph SE12.6 kmh SE 8.9 mph14.3 kmh 30.03 in1016.9 mb 0.00 in0.0 mm 0.00 in0.0 mm 0.00 in0.0 mm
05:08 PM 75.2°F24.0°C 70.4°F21.3°C 85% 6.8 mph ESE10.9 kmh ESE 8.9 mph14.3 kmh 30.03 in1016.9 mb 0.00 in0.0 mm 0.00 in0.0 mm 0.00 in0.0 mm
05:09 PM 75.2°F24.0°C 70.4°F21.3°C 85% 5.8 mph ESE9.3 kmh ESE 8.9 mph14.3 kmh 30.03 in1016.9 mb 0.00 in0.0 mm 0.00 in0.0 mm 0.00 in0.0 mm
05:10 PM 75.2°F24.0°C 70.4°F21.3°C 85% 8.9 mph SSE14.3 kmh SSE 8.9 mph14.3 kmh 30.03 in1016.9 mb 0.00 in0.0 mm 0.00 in0.0 mm 0.00 in0.0 mm
05:11 PM 75.0°F23.9°C 70.2°F21.2°C 85% 3.7 mph SE6.0 kmh SE 8.9 mph14.3 kmh 30.03 in1016.9 mb 0.00 in0.0 mm 0.00 in0.0 mm 0.00 in0.0 mm
05:12 PM 75.0°F23.9°C 70.2°F21.2°C 85% 4.7 mph ESE7.6 kmh ESE 8.9 mph14.3 kmh 30.03 in1016.9 mb 0.00 in0.0 mm 0.00 in0.0 mm 0.00 in0.0 mm
05:13 PM 75.0°F23.9°C 70.2°F21.2°C 85% 6.8 mph ESE10.9 kmh ESE 8.9 mph14.3 kmh 30.03 in1016.9 mb 0.00 in0.0 mm 0.00 in0.0 mm 0.00 in0.0 mm
05:14 PM 75.0°F23.9°C 70.2°F21.2°C 85% 6.3 mph ESE10.1 kmh ESE 8.9 mph14.3 kmh 30.03 in1016.9 mb 0.00 in0.0 mm 0.00 in0.0 mm 0.00 in0.0 mm
05:15 PM 75.0°F23.9°C 70.2°F21.2°C 85% 6.8 mph ESE10.9 kmh ESE 8.9 mph14.3 kmh 30.03 in1016.9 mb 0.00 in0.0 mm 0.00 in0.0 mm 0.00 in0.0 mm
05:16 PM 74.8°F23.8°C 70.0°F21.1°C 85% 5.3 mph SSE8.5 kmh SSE 8.9 mph14.3 kmh 30.03 in1016.9 mb 0.00 in0.0 mm 0.00 in0.0 mm 0.00 in0.0 mm
05:17 PM 74.8°F23.8°C 70.4°F21.3°C 86% 4.7 mph SE7.6 kmh SE 8.9 mph14.3 kmh 30.03 in1016.9 mb 0.00 in0.0 mm 0.00 in0.0 mm 0.00 in0.0 mm
05:18 PM 74.8°F23.8°C 70.4°F21.3°C 86% 3.7 mph SSE6.0 kmh SSE 8.9 mph14.3 kmh 30.03 in1016.9 mb 0.00 in0.0 mm 0.00 in0.0 mm 0.00 in0.0 mm
05:19 PM 74.7°F23.7°C 70.2°F21.2°C 86% 5.8 mph ESE9.3 kmh ESE 8.9 mph14.3 kmh 30.03 in1016.9 mb 0.00 in0.0 mm 0.00 in0.0 mm 0.00 in0.0 mm
05:20 PM 74.5°F23.6°C 70.0°F21.1°C 86% 4.7 mph S7.6 kmh S 8.9 mph14.3 kmh 30.03 in1016.9 mb 0.00 in0.0 mm 0.00 in0.0 mm 0.00 in0.0 mm
05:21 PM 74.5°F23.6°C 70.0°F21.1°C 86% 4.7 mph SSE7.6 kmh SSE 8.9 mph14.3 kmh 30.03 in1016.9 mb 0.00 in0.0 mm 0.00 in0.0 mm 0.00 in0.0 mm
05:22 PM 74.3°F23.5°C 70.2°F21.2°C 87% 4.7 mph S7.6 kmh S 8.9 mph14.3 kmh 30.03 in1016.9 mb 0.00 in0.0 mm 0.00 in0.0 mm 0.00 in0.0 mm
05:23 PM 74.3°F23.5°C 70.2°F21.2°C 87% 5.8 mph ESE9.3 kmh ESE 8.9 mph14.3 kmh 30.03 in1016.9 mb 0.00 in0.0 mm 0.00 in0.0 mm 0.00 in0.0 mm
05:24 PM 74.3°F23.5°C 70.2°F21.2°C 87% 4.2 mph SSE6.8 kmh SSE 8.9 mph14.3 kmh 30.03 in1016.9 mb 0.00 in0.0 mm 0.00 in0.0 mm 0.00 in0.0 mm
05:25 PM 74.3°F23.5°C 70.2°F21.2°C 87% 4.7 mph SSE7.6 kmh SSE 8.9 mph14.3 kmh 30.03 in1016.9 mb 0.00 in0.0 mm 0.00 in0.0 mm 0.00 in0.0 mm
05:26 PM 74.1°F23.4°C 70.0°F21.1°C 87% 4.2 mph SSE6.8 kmh SSE 8.9 mph14.3 kmh 30.03 in1016.9 mb 0.00 in0.0 mm 0.00 in0.0 mm 0.00 in0.0 mm
05:27 PM 74.1°F23.4°C 70.0°F21.1°C 87% 3.2 mph ESE5.1 kmh ESE 8.9 mph14.3 kmh 30.03 in1016.9 mb 0.00 in0.0 mm 0.00 in0.0 mm 0.00 in0.0 mm
05:28 PM 74.1°F23.4°C 70.0°F21.1°C 87% 4.2 mph SSE6.8 kmh SSE 8.9 mph14.3 kmh 30.03 in1016.9 mb 0.00 in0.0 mm 0.00 in0.0 mm 0.00 in0.0 mm
05:29 PM 73.9°F23.3°C 69.8°F21.0°C 87% 5.3 mph SE8.5 kmh SE 8.9 mph14.3 kmh 30.03 in1016.9 mb 0.00 in0.0 mm 0.00 in0.0 mm 0.00 in0.0 mm
05:30 PM 73.8°F23.2°C 70.0°F21.1°C 88% 4.2 mph ESE6.8 kmh ESE 7.3 mph11.7 kmh 30.03 in1016.9 mb 0.00 in0.0 mm 0.00 in0.0 mm 0.00 in0.0 mm
05:31 PM 73.8°F23.2°C 70.0°F21.1°C 88% 5.3 mph ESE8.5 kmh ESE 7.3 mph11.7 kmh 30.03 in1016.9 mb 0.00 in0.0 mm 0.00 in0.0 mm 0.00 in0.0 mm
05:32 PM 73.8°F23.2°C 70.0°F21.1°C 88% 3.7 mph SSE6.0 kmh SSE 7.3 mph11.7 kmh 30.03 in1016.9 mb 0.00 in0.0 mm 0.00 in0.0 mm 0.00 in0.0 mm
05:33 PM 73.8°F23.2°C 70.0°F21.1°C 88% 3.7 mph ESE6.0 kmh ESE 7.3 mph11.7 kmh 30.03 in1016.9 mb 0.00 in0.0 mm 0.00 in0.0 mm 0.00 in0.0 mm
05:34 PM 73.6°F23.1°C 69.8°F21.0°C 88% 4.7 mph SE7.6 kmh SE 7.3 mph11.7 kmh 30.03 in1016.9 mb 0.00 in0.0 mm 0.00 in0.0 mm 0.00 in0.0 mm
05:35 PM 73.6°F23.1°C 69.8°F21.0°C 88% 6.8 mph SE10.9 kmh SE 7.3 mph11.7 kmh 30.03 in1016.9 mb 0.00 in0.0 mm 0.00 in0.0 mm 0.00 in0.0 mm
05:36 PM 73.4°F23.0°C 69.6°F20.9°C 88% 4.2 mph SE6.8 kmh SE 6.8 mph10.9 kmh 30.03 in1016.9 mb 0.00 in0.0 mm 0.00 in0.0 mm 0.00 in0.0 mm
05:37 PM 73.4°F23.0°C 70.0°F21.1°C 89% 5.8 mph SSE9.3 kmh SSE 6.8 mph10.9 kmh 30.03 in1016.9 mb 0.00 in0.0 mm 0.00 in0.0 mm 0.00 in0.0 mm
05:38 PM 73.2°F22.9°C 69.8°F21.0°C 89% 7.3 mph S11.7 kmh S 8.3 mph13.4 kmh 30.03 in1016.9 mb 0.00 in0.0 mm 0.00 in0.0 mm 0.00 in0.0 mm
05:39 PM 73.2°F22.9°C 69.8°F21.0°C 89% 3.7 mph SE6.0 kmh SE 8.3 mph13.4 kmh 30.03 in1016.9 mb 0.00 in0.0 mm 0.00 in0.0 mm 0.00 in0.0 mm
05:40 PM 73.2°F22.9°C 69.8°F21.0°C 89% 4.2 mph ESE6.8 kmh ESE 8.3 mph13.4 kmh 30.03 in1016.9 mb 0.00 in0.0 mm 0.00 in0.0 mm 0.00 in0.0 mm
05:41 PM 73.2°F22.9°C 69.8°F21.0°C 89% 2.2 mph ESE3.5 kmh ESE 8.3 mph13.4 kmh 30.03 in1016.9 mb 0.00 in0.0 mm 0.00 in0.0 mm 0.00 in0.0 mm
05:42 PM 73.0°F22.8°C 69.6°F20.9°C 89% 6.3 mph ESE10.1 kmh ESE 8.3 mph13.4 kmh 30.03 in1016.9 mb 0.00 in0.0 mm 0.00 in0.0 mm 0.00 in0.0 mm
05:43 PM 73.0°F22.8°C 69.6°F20.9°C 89% 5.8 mph SSE9.3 kmh SSE 8.3 mph13.4 kmh 30.03 in1016.9 mb 0.00 in0.0 mm 0.00 in0.0 mm 0.00 in0.0 mm
05:44 PM 73.0°F22.8°C 69.6°F20.9°C 89% 5.3 mph ESE8.5 kmh ESE 8.3 mph13.4 kmh 30.03 in1016.9 mb 0.00 in0.0 mm 0.00 in0.0 mm 0.00 in0.0 mm
05:45 PM 72.9°F22.7°C 69.4°F20.8°C 89% 4.2 mph SSE6.8 kmh SSE 8.3 mph13.4 kmh 30.03 in1016.9 mb 0.00 in0.0 mm 0.00 in0.0 mm 0.00 in0.0 mm
05:46 PM 72.9°F22.7°C 69.4°F20.8°C 89% 5.3 mph SSE8.5 kmh SSE 8.3 mph13.4 kmh 30.03 in1016.9 mb 0.00 in0.0 mm 0.00 in0.0 mm 0.00 in0.0 mm
05:47 PM 72.9°F22.7°C 69.7°F20.9°C 90% 6.3 mph ESE10.1 kmh ESE 8.3 mph13.4 kmh 30.03 in1016.9 mb 0.00 in0.0 mm 0.00 in0.0 mm 0.00 in0.0 mm
05:48 PM 72.9°F22.7°C 69.7°F20.9°C 90% 3.2 mph SSE5.1 kmh SSE 7.3 mph11.7 kmh 30.03 in1016.9 mb 0.00 in0.0 mm 0.00 in0.0 mm 0.00 in0.0 mm
05:49 PM 72.9°F22.7°C 69.7°F20.9°C 90% 5.3 mph ESE8.5 kmh ESE 6.8 mph10.9 kmh 30.03 in1016.9 mb 0.00 in0.0 mm 0.00 in0.0 mm 0.00 in0.0 mm
05:50 PM 72.7°F22.6°C 69.6°F20.9°C 90% 6.3 mph ESE10.1 kmh ESE 6.8 mph10.9 kmh 30.03 in1016.9 mb 0.00 in0.0 mm 0.00 in0.0 mm 0.00 in0.0 mm
05:51 PM 72.7°F22.6°C 69.6°F20.9°C 90% 4.2 mph ESE6.8 kmh ESE 6.8 mph10.9 kmh 30.03 in1016.9 mb 0.00 in0.0 mm 0.00 in0.0 mm 0.00 in0.0 mm
05:52 PM 72.7°F22.6°C 69.6°F20.9°C 90% 3.7 mph ESE6.0 kmh ESE 6.8 mph10.9 kmh 30.03 in1016.9 mb 0.00 in0.0 mm 0.00 in0.0 mm 0.00 in0.0 mm
05:53 PM 72.7°F22.6°C 69.6°F20.9°C 90% 5.8 mph SE9.3 kmh SE 6.8 mph10.9 kmh 30.03 in1016.9 mb 0.00 in0.0 mm 0.00 in0.0 mm 0.00 in0.0 mm
05:54 PM 72.7°F22.6°C 69.6°F20.9°C 90% 4.2 mph SE6.8 kmh SE 6.8 mph10.9 kmh 30.03 in1016.9 mb 0.00 in0.0 mm 0.00 in0.0 mm 0.00 in0.0 mm
05:55 PM 72.5°F22.5°C 69.4°F20.8°C 90% 4.7 mph ESE7.6 kmh ESE 6.3 mph10.1 kmh 30.03 in1016.9 mb 0.00 in0.0 mm 0.00 in0.0 mm 0.00 in0.0 mm
05:56 PM 72.5°F22.5°C 69.4°F20.8°C 90% 6.8 mph SE10.9 kmh SE 6.8 mph10.9 kmh 30.03 in1016.9 mb 0.00 in0.0 mm 0.00 in0.0 mm 0.00 in0.0 mm
05:57 PM 72.3°F22.4°C 69.2°F20.7°C 90% 7.3 mph ESE11.7 kmh ESE 7.3 mph11.7 kmh 30.03 in1016.9 mb 0.00 in0.0 mm 0.00 in0.0 mm 0.00 in0.0 mm
05:58 PM 72.3°F22.4°C 69.2°F20.7°C 90% 3.7 mph ESE6.0 kmh ESE 7.3 mph11.7 kmh 30.03 in1016.9 mb 0.00 in0.0 mm 0.00 in0.0 mm 0.00 in0.0 mm
05:59 PM 72.3°F22.4°C 69.2°F20.7°C 90% 3.7 mph SSE6.0 kmh SSE 7.3 mph11.7 kmh 30.03 in1016.9 mb 0.00 in0.0 mm 0.00 in0.0 mm 0.00 in0.0 mm
06:00 PM 72.3°F22.4°C 69.2°F20.7°C 90% 4.2 mph SSE6.8 kmh SSE 7.3 mph11.7 kmh 30.03 in1016.9 mb 0.00 in0.0 mm 0.00 in0.0 mm 0.00 in0.0 mm
06:01 PM 72.3°F22.4°C 69.2°F20.7°C 90% 4.7 mph S7.6 kmh S 7.3 mph11.7 kmh 30.03 in1016.9 mb 0.00 in0.0 mm 0.00 in0.0 mm 0.00 in0.0 mm
06:02 PM 72.3°F22.4°C 69.5°F20.8°C 91% 3.7 mph S6.0 kmh S 7.3 mph11.7 kmh 30.03 in1016.9 mb 0.00 in0.0 mm 0.00 in0.0 mm 0.00 in0.0 mm
06:03 PM 72.3°F22.4°C 69.5°F20.8°C 91% 6.3 mph ESE10.1 kmh ESE 7.3 mph11.7 kmh 30.03 in1016.9 mb 0.00 in0.0 mm 0.00 in0.0 mm 0.00 in0.0 mm
06:04 PM 72.3°F22.4°C 69.5°F20.8°C 91% 3.7 mph SSE6.0 kmh SSE 7.3 mph11.7 kmh 30.03 in1016.9 mb 0.00 in0.0 mm 0.00 in0.0 mm 0.00 in0.0 mm
06:05 PM 72.3°F22.4°C 69.5°F20.8°C 91% 4.7 mph SSE7.6 kmh SSE 7.3 mph11.7 kmh 30.02 in1016.6 mb 0.00 in0.0 mm 0.00 in0.0 mm 0.00 in0.0 mm
06:06 PM 72.3°F22.4°C 69.5°F20.8°C 91% 4.7 mph ESE7.6 kmh ESE 7.3 mph11.7 kmh 30.02 in1016.6 mb 0.00 in0.0 mm 0.00 in0.0 mm 0.00 in0.0 mm
06:07 PM 72.3°F22.4°C 69.5°F20.8°C 91% 5.8 mph ESE9.3 kmh ESE 7.3 mph11.7 kmh 30.02 in1016.6 mb 0.00 in0.0 mm 0.00 in0.0 mm 0.00 in0.0 mm
06:08 PM 72.3°F22.4°C 69.5°F20.8°C 91% 5.8 mph ESE9.3 kmh ESE 7.3 mph11.7 kmh 30.02 in1016.6 mb 0.00 in0.0 mm 0.00 in0.0 mm 0.00 in0.0 mm
06:09 PM 72.3°F22.4°C 69.5°F20.8°C 91% 5.3 mph ESE8.5 kmh ESE 7.3 mph11.7 kmh 30.02 in1016.6 mb 0.00 in0.0 mm 0.00 in0.0 mm 0.00 in0.0 mm
06:10 PM 72.3°F22.4°C 69.5°F20.8°C 91% 4.7 mph ESE7.6 kmh ESE 7.3 mph11.7 kmh 30.02 in1016.6 mb 0.00 in0.0 mm 0.00 in0.0 mm 0.00 in0.0 mm
06:11 PM 72.1°F22.3°C 69.4°F20.8°C 91% 3.2 mph ESE5.1 kmh ESE 7.3 mph11.7 kmh 30.02 in1016.6 mb 0.00 in0.0 mm 0.00 in0.0 mm 0.00 in0.0 mm
06:12 PM 72.1°F22.3°C 69.4°F20.8°C 91% 4.2 mph SSE6.8 kmh SSE 7.3 mph11.7 kmh 30.02 in1016.6 mb 0.00 in0.0 mm 0.00 in0.0 mm 0.00 in0.0 mm
06:13 PM 72.1°F22.3°C 69.4°F20.8°C 91% 3.7 mph ESE6.0 kmh ESE 7.3 mph11.7 kmh 30.02 in1016.6 mb 0.00 in0.0 mm 0.00 in0.0 mm 0.00 in0.0 mm
06:14 PM 72.1°F22.3°C 69.4°F20.8°C 91% 3.2 mph ESE5.1 kmh ESE 7.3 mph11.7 kmh 30.02 in1016.6 mb 0.00 in0.0 mm 0.00 in0.0 mm 0.00 in0.0 mm
06:15 PM 72.1°F22.3°C 69.4°F20.8°C 91% 3.7 mph SSE6.0 kmh SSE 6.3 mph10.1 kmh 30.02 in1016.6 mb 0.00 in0.0 mm 0.00 in0.0 mm 0.00 in0.0 mm
06:16 PM 72.1°F22.3°C 69.4°F20.8°C 91% 5.3 mph ESE8.5 kmh ESE 6.3 mph10.1 kmh 30.02 in1016.6 mb 0.00 in0.0 mm 0.00 in0.0 mm 0.00 in0.0 mm
06:17 PM 72.0°F22.2°C 69.2°F20.7°C 91% 4.2 mph ESE6.8 kmh ESE 5.8 mph9.3 kmh 30.03 in1016.9 mb 0.00 in0.0 mm 0.00 in0.0 mm 0.00 in0.0 mm
06:18 PM 72.0°F22.2°C 69.2°F20.7°C 91% 2.7 mph SE4.3 kmh SE 5.8 mph9.3 kmh 30.03 in1016.9 mb 0.00 in0.0 mm 0.00 in0.0 mm 0.00 in0.0 mm
06:19 PM 72.0°F22.2°C 69.2°F20.7°C 91% 4.7 mph SSE7.6 kmh SSE 5.3 mph8.5 kmh 30.03 in1016.9 mb 0.00 in0.0 mm 0.00 in0.0 mm 0.00 in0.0 mm
06:20 PM 72.0°F22.2°C 69.2°F20.7°C 91% 3.7 mph ESE6.0 kmh ESE 5.3 mph8.5 kmh 30.03 in1016.9 mb 0.00 in0.0 mm 0.00 in0.0 mm 0.00 in0.0 mm
06:21 PM 72.0°F22.2°C 69.2°F20.7°C 91% 6.8 mph SSE10.9 kmh SSE 6.8 mph10.9 kmh 30.03 in1016.9 mb 0.00 in0.0 mm 0.00 in0.0 mm 0.00 in0.0 mm
06:22 PM 72.0°F22.2°C 69.2°F20.7°C 91% 4.2 mph SE6.8 kmh SE 6.8 mph10.9 kmh 30.03 in1016.9 mb 0.00 in0.0 mm 0.00 in0.0 mm 0.00 in0.0 mm
06:23 PM 72.0°F22.2°C 69.2°F20.7°C 91% 1.1 mph SSE1.8 kmh SSE 6.8 mph10.9 kmh 30.03 in1016.9 mb 0.00 in0.0 mm 0.00 in0.0 mm 0.00 in0.0 mm
06:24 PM 72.0°F22.2°C 69.2°F20.7°C 91% 4.2 mph SSE6.8 kmh SSE 6.8 mph10.9 kmh 30.03 in1016.9 mb 0.00 in0.0 mm 0.00 in0.0 mm 0.00 in0.0 mm
06:25 PM 71.8°F22.1°C 69.3°F20.7°C 92% 5.8 mph ESE9.3 kmh ESE 6.8 mph10.9 kmh 30.03 in1016.9 mb 0.00 in0.0 mm 0.00 in0.0 mm 0.00 in0.0 mm
06:26 PM 71.8°F22.1°C 69.3°F20.7°C 92% 5.8 mph ESE9.3 kmh ESE 6.8 mph10.9 kmh 30.03 in1016.9 mb 0.00 in0.0 mm 0.00 in0.0 mm 0.00 in0.0 mm
06:27 PM 71.8°F22.1°C 69.3°F20.7°C 92% 4.7 mph SE7.6 kmh SE 6.8 mph10.9 kmh 30.03 in1016.9 mb 0.00 in0.0 mm 0.00 in0.0 mm 0.00 in0.0 mm
06:28 PM 71.8°F22.1°C 69.3°F20.7°C 92% 6.3 mph ESE10.1 kmh ESE 6.8 mph10.9 kmh 30.03 in1016.9 mb 0.00 in0.0 mm 0.00 in0.0 mm 0.00 in0.0 mm
06:29 PM 71.8°F22.1°C 69.3°F20.7°C 92% 3.7 mph ESE6.0 kmh ESE 6.8 mph10.9 kmh 30.03 in1016.9 mb 0.00 in0.0 mm 0.00 in0.0 mm 0.00 in0.0 mm
06:30 PM 71.8°F22.1°C 69.3°F20.7°C 92% 6.3 mph ESE10.1 kmh ESE 6.8 mph10.9 kmh 30.03 in1016.9 mb 0.00 in0.0 mm 0.00 in0.0 mm 0.00 in0.0 mm
06:31 PM 71.8°F22.1°C 69.3°F20.7°C 92% 3.7 mph ESE6.0 kmh ESE 6.3 mph10.1 kmh 30.03 in1016.9 mb 0.00 in0.0 mm 0.00 in0.0 mm 0.00 in0.0 mm
06:32 PM 71.8°F22.1°C 69.3°F20.7°C 92% 4.7 mph ESE7.6 kmh ESE 6.3 mph10.1 kmh 30.03 in1016.9 mb 0.00 in0.0 mm 0.00 in0.0 mm 0.00 in0.0 mm
06:33 PM 71.8°F22.1°C 69.3°F20.7°C 92% 6.3 mph SSE10.1 kmh SSE 6.3 mph10.1 kmh 30.03 in1016.9 mb 0.00 in0.0 mm 0.00 in0.0 mm 0.00 in0.0 mm
06:34 PM 71.8°F22.1°C 69.3°F20.7°C 92% 3.2 mph SE5.1 kmh SE 6.8 mph10.9 kmh 30.03 in1016.9 mb 0.00 in0.0 mm 0.00 in0.0 mm 0.00 in0.0 mm
06:35 PM 71.8°F22.1°C 69.3°F20.7°C 92% 6.8 mph ESE10.9 kmh ESE 6.8 mph10.9 kmh 30.03 in1016.9 mb 0.00 in0.0 mm 0.00 in0.0 mm 0.00 in0.0 mm
06:36 PM 71.8°F22.1°C 69.3°F20.7°C 92% 7.8 mph SE12.6 kmh SE 7.8 mph12.6 kmh 30.03 in1016.9 mb 0.00 in0.0 mm 0.00 in0.0 mm 0.00 in0.0 mm
06:37 PM 71.8°F22.1°C 69.3°F20.7°C 92% 4.7 mph SSE7.6 kmh SSE 7.8 mph12.6 kmh 30.03 in1016.9 mb 0.00 in0.0 mm 0.00 in0.0 mm 0.00 in0.0 mm
06:38 PM 71.8°F22.1°C 69.3°F20.7°C 92% 6.3 mph S10.1 kmh S 7.8 mph12.6 kmh 30.03 in1016.9 mb 0.00 in0.0 mm 0.00 in0.0 mm 0.00 in0.0 mm
06:39 PM 71.8°F22.1°C 69.3°F20.7°C 92% 7.8 mph S12.6 kmh S 7.8 mph12.6 kmh 30.03 in1016.9 mb 0.00 in0.0 mm 0.00 in0.0 mm 0.00 in0.0 mm
06:40 PM 71.8°F22.1°C 69.3°F20.7°C 92% 5.3 mph E8.5 kmh E 7.8 mph12.6 kmh 30.03 in1016.9 mb 0.00 in0.0 mm 0.00 in0.0 mm 0.00 in0.0 mm
06:41 PM 71.8°F22.1°C 69.3°F20.7°C 92% 5.8 mph SSE9.3 kmh SSE 7.8 mph12.6 kmh 30.03 in1016.9 mb 0.00 in0.0 mm 0.00 in0.0 mm 0.00 in0.0 mm
06:42 PM 71.8°F22.1°C 69.3°F20.7°C 92% 4.2 mph S6.8 kmh S 7.8 mph12.6 kmh 30.03 in1016.9 mb 0.00 in0.0 mm 0.00 in0.0 mm 0.00 in0.0 mm
06:43 PM 71.8°F22.1°C 69.3°F20.7°C 92% 4.2 mph SE6.8 kmh SE 7.8 mph12.6 kmh 30.03 in1016.9 mb 0.00 in0.0 mm 0.00 in0.0 mm 0.00 in0.0 mm
06:44 PM 71.8°F22.1°C 69.3°F20.7°C 92% 4.2 mph ESE6.8 kmh ESE 7.8 mph12.6 kmh 30.03 in1016.9 mb 0.00 in0.0 mm 0.00 in0.0 mm 0.00 in0.0 mm
06:45 PM 71.8°F22.1°C 69.3°F20.7°C 92% 6.3 mph SE10.1 kmh SE 7.8 mph12.6 kmh 30.03 in1016.9 mb 0.00 in0.0 mm 0.00 in0.0 mm 0.00 in0.0 mm
06:46 PM 71.8°F22.1°C 69.3°F20.7°C 92% 5.8 mph ESE9.3 kmh ESE 7.8 mph12.6 kmh 30.03 in1016.9 mb 0.00 in0.0 mm 0.00 in0.0 mm 0.00 in0.0 mm
06:47 PM 71.8°F22.1°C 69.3°F20.7°C 92% 4.7 mph SE7.6 kmh SE 7.8 mph12.6 kmh 30.03 in1016.9 mb 0.00 in0.0 mm 0.00 in0.0 mm 0.00 in0.0 mm
06:48 PM 71.8°F22.1°C 69.3°F20.7°C 92% 4.2 mph ESE6.8 kmh ESE 7.8 mph12.6 kmh 30.03 in1016.9 mb 0.00 in0.0 mm 0.00 in0.0 mm 0.00 in0.0 mm
06:49 PM 71.8°F22.1°C 69.3°F20.7°C 92% 3.7 mph ESE6.0 kmh ESE 7.8 mph12.6 kmh 30.03 in1016.9 mb 0.00 in0.0 mm 0.00 in0.0 mm 0.00 in0.0 mm
06:50 PM 71.6°F22.0°C 69.1°F20.6°C 92% 3.2 mph ESE5.1 kmh ESE 6.3 mph10.1 kmh 30.03 in1016.9 mb 0.00 in0.0 mm 0.00 in0.0 mm 0.00 in0.0 mm
06:51 PM 71.6°F22.0°C 69.1°F20.6°C 92% 5.3 mph SE8.5 kmh SE 7.3 mph11.7 kmh 30.03 in1016.9 mb 0.00 in0.0 mm 0.00 in0.0 mm 0.00 in0.0 mm
06:52 PM 71.6°F22.0°C 69.5°F20.8°C 93% 3.2 mph ESE5.1 kmh ESE 7.3 mph11.7 kmh 30.03 in1016.9 mb 0.00 in0.0 mm 0.00 in0.0 mm 0.00 in0.0 mm
06:53 PM 71.6°F22.0°C 69.5°F20.8°C 93% 5.3 mph S8.5 kmh S 7.3 mph11.7 kmh 30.03 in1016.9 mb 0.00 in0.0 mm 0.00 in0.0 mm 0.00 in0.0 mm
06:54 PM 71.6°F22.0°C 69.5°F20.8°C 93% 4.2 mph SSE6.8 kmh SSE 7.3 mph11.7 kmh 30.02 in1016.6 mb 0.00 in0.0 mm 0.00 in0.0 mm 0.00 in0.0 mm
06:55 PM 71.6°F22.0°C 69.5°F20.8°C 93% 3.2 mph S5.1 kmh S 7.3 mph11.7 kmh 30.02 in1016.6 mb 0.00 in0.0 mm 0.00 in0.0 mm 0.00 in0.0 mm
06:56 PM 71.6°F22.0°C 69.5°F20.8°C 93% 6.8 mph ENE10.9 kmh ENE 7.3 mph11.7 kmh 30.02 in1016.6 mb 0.00 in0.0 mm 0.00 in0.0 mm 0.00 in0.0 mm
06:57 PM 71.6°F22.0°C 69.5°F20.8°C 93% 4.7 mph SE7.6 kmh SE 7.3 mph11.7 kmh 30.02 in1016.6 mb 0.00 in0.0 mm 0.00 in0.0 mm 0.00 in0.0 mm
06:58 PM 71.4°F21.9°C 69.3°F20.7°C 93% 3.7 mph ESE6.0 kmh ESE 7.3 mph11.7 kmh 30.02 in1016.6 mb 0.00 in0.0 mm 0.00 in0.0 mm 0.00 in0.0 mm
06:59 PM 71.4°F21.9°C 69.3°F20.7°C 93% 6.8 mph SSE10.9 kmh SSE 7.3 mph11.7 kmh 30.02 in1016.6 mb 0.00 in0.0 mm 0.00 in0.0 mm 0.00 in0.0 mm
07:00 PM 71.4°F21.9°C 69.3°F20.7°C 93% 4.2 mph S6.8 kmh S 7.3 mph11.7 kmh 30.02 in1016.6 mb 0.00 in0.0 mm 0.00 in0.0 mm 0.00 in0.0 mm
07:01 PM 71.4°F21.9°C 69.3°F20.7°C 93% 4.7 mph ESE7.6 kmh ESE 6.8 mph10.9 kmh 30.02 in1016.6 mb 0.00 in0.0 mm 0.00 in0.0 mm 0.00 in0.0 mm
07:02 PM 71.4°F21.9°C 69.3°F20.7°C 93% 3.2 mph ESE5.1 kmh ESE 6.8 mph10.9 kmh 30.02 in1016.6 mb 0.00 in0.0 mm 0.00 in0.0 mm 0.00 in0.0 mm
07:03 PM 71.4°F21.9°C 69.3°F20.7°C 93% 5.3 mph ESE8.5 kmh ESE 6.8 mph10.9 kmh 30.02 in1016.6 mb 0.00 in0.0 mm 0.00 in0.0 mm 0.00 in0.0 mm
07:04 PM 71.4°F21.9°C 69.3°F20.7°C 93% 3.7 mph SE6.0 kmh SE 6.8 mph10.9 kmh 30.02 in1016.6 mb 0.00 in0.0 mm 0.00 in0.0 mm 0.00 in0.0 mm
07:05 PM 71.4°F21.9°C 69.3°F20.7°C 93% 4.7 mph ESE7.6 kmh ESE 6.8 mph10.9 kmh 30.02 in1016.6 mb 0.00 in0.0 mm 0.00 in0.0 mm 0.00 in0.0 mm
07:06 PM 71.4°F21.9°C 69.3°F20.7°C 93% 5.3 mph SSE8.5 kmh SSE 6.8 mph10.9 kmh 30.02 in1016.6 mb 0.00 in0.0 mm 0.00 in0.0 mm 0.00 in0.0 mm
07:07 PM 71.4°F21.9°C 69.3°F20.7°C 93% 5.8 mph ESE9.3 kmh ESE 6.8 mph10.9 kmh 30.02 in1016.6 mb 0.00 in0.0 mm 0.00 in0.0 mm 0.00 in0.0 mm
07:08 PM 71.4°F21.9°C 69.3°F20.7°C 93% 3.7 mph ESE6.0 kmh ESE 6.8 mph10.9 kmh 30.02 in1016.6 mb 0.00 in0.0 mm 0.00 in0.0 mm 0.00 in0.0 mm
07:09 PM 71.4°F21.9°C 69.6°F20.9°C 94% 6.8 mph ESE10.9 kmh ESE 6.8 mph10.9 kmh 30.02 in1016.6 mb 0.00 in0.0 mm 0.00 in0.0 mm 0.00 in0.0 mm
07:10 PM 71.4°F21.9°C 69.6°F20.9°C 94% 5.8 mph ESE9.3 kmh ESE 6.8 mph10.9 kmh 30.02 in1016.6 mb 0.00 in0.0 mm 0.00 in0.0 mm 0.00 in0.0 mm
07:11 PM 71.4°F21.9°C 69.6°F20.9°C 94% 7.3 mph SSE11.7 kmh SSE 7.3 mph11.7 kmh 30.02 in1016.6 mb 0.00 in0.0 mm 0.00 in0.0 mm 0.00 in0.0 mm
07:12 PM 71.2°F21.8°C 69.4°F20.8°C 94% 5.8 mph ESE9.3 kmh ESE 7.3 mph11.7 kmh 30.02 in1016.6 mb 0.00 in0.0 mm 0.00 in0.0 mm 0.00 in0.0 mm
07:13 PM 71.2°F21.8°C 69.4°F20.8°C 94% 5.3 mph ESE8.5 kmh ESE 7.3 mph11.7 kmh 30.02 in1016.6 mb 0.00 in0.0 mm 0.00 in0.0 mm 0.00 in0.0 mm
07:14 PM 71.2°F21.8°C 69.4°F20.8°C 94% 3.2 mph ESE5.1 kmh ESE 7.3 mph11.7 kmh 30.02 in1016.6 mb 0.00 in0.0 mm 0.00 in0.0 mm 0.00 in0.0 mm
07:15 PM 71.2°F21.8°C 69.4°F20.8°C 94% 6.8 mph ESE10.9 kmh ESE 7.3 mph11.7 kmh 30.02 in1016.6 mb 0.00 in0.0 mm 0.00 in0.0 mm 0.00 in0.0 mm
07:16 PM 71.2°F21.8°C 69.4°F20.8°C 94% 4.7 mph ESE7.6 kmh ESE 7.3 mph11.7 kmh 30.02 in1016.6 mb 0.00 in0.0 mm 0.00 in0.0 mm 0.00 in0.0 mm
07:17 PM 71.2°F21.8°C 69.4°F20.8°C 94% 5.3 mph ESE8.5 kmh ESE 7.3 mph11.7 kmh 30.02 in1016.6 mb 0.00 in0.0 mm 0.00 in0.0 mm 0.00 in0.0 mm
07:18 PM 71.2°F21.8°C 69.4°F20.8°C 94% 6.3 mph SSE10.1 kmh SSE 7.3 mph11.7 kmh 30.02 in1016.6 mb 0.00 in0.0 mm 0.00 in0.0 mm 0.00 in0.0 mm
07:19 PM 71.2°F21.8°C 69.4°F20.8°C 94% 5.3 mph SSE8.5 kmh SSE 7.3 mph11.7 kmh 30.02 in1016.6 mb 0.00 in0.0 mm 0.00 in0.0 mm 0.00 in0.0 mm
07:20 PM 71.2°F21.8°C 69.4°F20.8°C 94% 4.7 mph S7.6 kmh S 7.3 mph11.7 kmh 30.02 in1016.6 mb 0.00 in0.0 mm 0.00 in0.0 mm 0.00 in0.0 mm
07:21 PM 71.2°F21.8°C 69.4°F20.8°C 94% 8.3 mph ESE13.4 kmh ESE 8.3 mph13.4 kmh 30.02 in1016.6 mb 0.00 in0.0 mm 0.00 in0.0 mm 0.00 in0.0 mm
07:22 PM 71.2°F21.8°C 69.4°F20.8°C 94% 6.3 mph ESE10.1 kmh ESE 8.3 mph13.4 kmh 30.02 in1016.6 mb 0.00 in0.0 mm 0.00 in0.0 mm 0.00 in0.0 mm
07:23 PM 71.2°F21.8°C 69.4°F20.8°C 94% 3.2 mph ESE5.1 kmh ESE 8.3 mph13.4 kmh 30.02 in1016.6 mb 0.00 in0.0 mm 0.00 in0.0 mm 0.00 in0.0 mm
07:24 PM 71.2°F21.8°C 69.4°F20.8°C 94% 4.2 mph ESE6.8 kmh ESE 8.3 mph13.4 kmh 30.02 in1016.6 mb 0.00 in0.0 mm 0.00 in0.0 mm 0.00 in0.0 mm
07:25 PM 71.2°F21.8°C 69.4°F20.8°C 94% 5.3 mph ESE8.5 kmh ESE 8.3 mph13.4 kmh 30.02 in1016.6 mb 0.00 in0.0 mm 0.00 in0.0 mm 0.00 in0.0 mm
07:26 PM 71.2°F21.8°C 69.4°F20.8°C 94% 4.2 mph SSE6.8 kmh SSE 8.3 mph13.4 kmh 30.02 in1016.6 mb 0.00 in0.0 mm 0.00 in0.0 mm 0.00 in0.0 mm
07:27 PM 71.2°F21.8°C 69.4°F20.8°C 94% 5.3 mph ESE8.5 kmh ESE 8.3 mph13.4 kmh 30.02 in1016.6 mb 0.00 in0.0 mm 0.00 in0.0 mm 0.00 in0.0 mm
07:28 PM 71.2°F21.8°C 69.4°F20.8°C 94% 4.7 mph SE7.6 kmh SE 8.3 mph13.4 kmh 30.02 in1016.6 mb 0.00 in0.0 mm 0.00 in0.0 mm 0.00 in0.0 mm
07:29 PM 71.2°F21.8°C 69.4°F20.8°C 94% 3.7 mph ESE6.0 kmh ESE 8.3 mph13.4 kmh 30.03 in1016.9 mb 0.00 in0.0 mm 0.00 in0.0 mm 0.00 in0.0 mm
07:30 PM 71.2°F21.8°C 69.4°F20.8°C 94% 5.3 mph ESE8.5 kmh ESE 8.3 mph13.4 kmh 30.03 in1016.9 mb 0.00 in0.0 mm 0.00 in0.0 mm 0.00 in0.0 mm
07:31 PM 71.2°F21.8°C 69.4°F20.8°C 94% 1.1 mph SSE1.8 kmh SSE 8.3 mph13.4 kmh 30.03 in1016.9 mb 0.00 in0.0 mm 0.00 in0.0 mm 0.00 in0.0 mm
07:32 PM 71.2°F21.8°C 69.4°F20.8°C 94% 4.7 mph SSE7.6 kmh SSE 6.8 mph10.9 kmh 30.03 in1016.9 mb 0.00 in0.0 mm 0.00 in0.0 mm 0.00 in0.0 mm
07:33 PM 71.2°F21.8°C 69.4°F20.8°C 94% 6.8 mph SSE10.9 kmh SSE 8.3 mph13.4 kmh 30.03 in1016.9 mb 0.00 in0.0 mm 0.00 in0.0 mm 0.00 in0.0 mm
07:34 PM 71.2°F21.8°C 69.4°F20.8°C 94% 3.7 mph SE6.0 kmh SE 8.3 mph13